<?xml version="1.0" encoding="UTF-8"?>
<gpx
  version="1.1"
  creator="GPSBabel - http://www.gpsbabel.org"
  xmlns:xsi="http://www.w3.org/2001/XMLSchema-instance"
  xmlns:gpxx="http://www.garmin.com/xmlschemas/GpxExtensions/v3"
  xmlns:gpxtpx="http://www.garmin.com/xmlschemas/TrackPointExtension/v1"
  xmlns="http://www.topografix.com/GPX/1/1"
  xsi:schemaLocation="http://www.topografix.com/GPX/1/0 http://www.topografix.com/GPX/1/0/gpx.xsd">
<metadata>
<time>2016-07-28T18:22:16Z</time>
<bounds minlat="49.963180000" minlon="9.709460000" maxlat="50.025940000" maxlon="9.767380000"/>
</metadata>
<trk>
  <name>27.07.16, 16:13</name>
<trkseg>
<trkpt lat="50.025940000" lon="9.725070000">
  <ele>159.000000</ele>
  <time>2016-07-27T16:56:43Z</time>
</trkpt>
<trkpt lat="50.025890000" lon="9.725070000">
  <ele>159.000000</ele>
  <time>2016-07-27T16:58:08Z</time>
</trkpt>
<trkpt lat="50.025840000" lon="9.725040000">
  <ele>159.000000</ele>
  <time>2016-07-27T16:58:15Z</time>
</trkpt>
<trkpt lat="50.025810000" lon="9.724960000">
  <ele>159.000000</ele>
  <time>2016-07-27T16:58:19Z</time>
</trkpt>
<trkpt lat="50.025780000" lon="9.724860000">
  <ele>159.000000</ele>
  <time>2016-07-27T16:58:22Z</time>
</trkpt>
<trkpt lat="50.025740000" lon="9.724780000">
  <ele>159.000000</ele>
  <time>2016-07-27T16:58:24Z</time>
</trkpt>
<trkpt lat="50.025680000" lon="9.724680000">
  <ele>159.000000</ele>
  <time>2016-07-27T16:58:26Z</time>
</trkpt>
<trkpt lat="50.025630000" lon="9.724590000">
  <ele>159.000000</ele>
  <time>2016-07-27T16:58:28Z</time>
</trkpt>
<trkpt lat="50.025590000" lon="9.724490000">
  <ele>159.000000</ele>
  <time>2016-07-27T16:58:30Z</time>
</trkpt>
<trkpt lat="50.025530000" lon="9.724400000">
  <ele>158.000000</ele>
  <time>2016-07-27T16:58:32Z</time>
</trkpt>
<trkpt lat="50.025450000" lon="9.724260000">
  <ele>158.000000</ele>
  <time>2016-07-27T16:58:34Z</time>
</trkpt>
<trkpt lat="50.025410000" lon="9.724170000">
  <ele>158.000000</ele>
  <time>2016-07-27T16:58:35Z</time>
</trkpt>
<trkpt lat="50.025380000" lon="9.724090000">
  <ele>158.000000</ele>
  <time>2016-07-27T16:58:36Z</time>
</trkpt>
<trkpt lat="50.025340000" lon="9.723990000">
  <ele>162.000000</ele>
  <time>2016-07-27T16:58:37Z</time>
</trkpt>
<trkpt lat="50.025310000" lon="9.723890000">
  <ele>162.000000</ele>
  <time>2016-07-27T16:58:38Z</time>
</trkpt>
<trkpt lat="50.025270000" lon="9.723800000">
  <ele>162.000000</ele>
  <time>2016-07-27T16:58:39Z</time>
</trkpt>
<trkpt lat="50.025230000" lon="9.723700000">
  <ele>162.000000</ele>
  <time>2016-07-27T16:58:40Z</time>
</trkpt>
<trkpt lat="50.025180000" lon="9.723610000">
  <ele>162.000000</ele>
  <time>2016-07-27T16:58:41Z</time>
</trkpt>
<trkpt lat="50.025130000" lon="9.723530000">
  <ele>159.000000</ele>
  <time>2016-07-27T16:58:42Z</time>
</trkpt>
<trkpt lat="50.025080000" lon="9.723450000">
  <ele>159.000000</ele>
  <time>2016-07-27T16:58:43Z</time>
</trkpt>
<trkpt lat="50.025050000" lon="9.723360000">
  <ele>159.000000</ele>
  <time>2016-07-27T16:58:44Z</time>
</trkpt>
<trkpt lat="50.025010000" lon="9.723290000">
  <ele>159.000000</ele>
  <time>2016-07-27T16:58:45Z</time>
</trkpt>
<trkpt lat="50.024960000" lon="9.723210000">
  <ele>159.000000</ele>
  <time>2016-07-27T16:58:46Z</time>
</trkpt>
<trkpt lat="50.024920000" lon="9.723150000">
  <ele>159.000000</ele>
  <time>2016-07-27T16:58:47Z</time>
</trkpt>
<trkpt lat="50.024880000" lon="9.723090000">
  <ele>159.000000</ele>
  <time>2016-07-27T16:58:48Z</time>
</trkpt>
<trkpt lat="50.024860000" lon="9.723000000">
  <ele>159.000000</ele>
  <time>2016-07-27T16:58:49Z</time>
</trkpt>
<trkpt lat="50.024830000" lon="9.722930000">
  <ele>159.000000</ele>
  <time>2016-07-27T16:58:50Z</time>
</trkpt>
<trkpt lat="50.024780000" lon="9.722860000">
  <ele>155.000000</ele>
  <time>2016-07-27T16:58:51Z</time>
</trkpt>
<trkpt lat="50.024750000" lon="9.722800000">
  <ele>155.000000</ele>
  <time>2016-07-27T16:58:52Z</time>
</trkpt>
<trkpt lat="50.024710000" lon="9.722740000">
  <ele>155.000000</ele>
  <time>2016-07-27T16:58:53Z</time>
</trkpt>
<trkpt lat="50.024670000" lon="9.722670000">
  <ele>155.000000</ele>
  <time>2016-07-27T16:58:54Z</time>
</trkpt>
<trkpt lat="50.024640000" lon="9.722620000">
  <ele>155.000000</ele>
  <time>2016-07-27T16:58:55Z</time>
</trkpt>
<trkpt lat="50.024600000" lon="9.722590000">
  <ele>155.000000</ele>
  <time>2016-07-27T16:58:56Z</time>
</trkpt>
<trkpt lat="50.024560000" lon="9.722530000">
  <ele>155.000000</ele>
  <time>2016-07-27T16:58:57Z</time>
</trkpt>
<trkpt lat="50.024530000" lon="9.722480000">
  <ele>160.000000</ele>
  <time>2016-07-27T16:58:58Z</time>
</trkpt>
<trkpt lat="50.024480000" lon="9.722390000">
  <ele>160.000000</ele>
  <time>2016-07-27T16:59:00Z</time>
</trkpt>
<trkpt lat="50.024420000" lon="9.722300000">
  <ele>160.000000</ele>
  <time>2016-07-27T16:59:02Z</time>
</trkpt>
<trkpt lat="50.024390000" lon="9.722250000">
  <ele>160.000000</ele>
  <time>2016-07-27T16:59:03Z</time>
</trkpt>
<trkpt lat="50.024350000" lon="9.722190000">
  <ele>160.000000</ele>
  <time>2016-07-27T16:59:04Z</time>
</trkpt>
<trkpt lat="50.024290000" lon="9.722100000">
  <ele>160.000000</ele>
  <time>2016-07-27T16:59:06Z</time>
</trkpt>
<trkpt lat="50.024240000" lon="9.722010000">
  <ele>160.000000</ele>
  <time>2016-07-27T16:59:08Z</time>
</trkpt>
<trkpt lat="50.024190000" lon="9.721910000">
  <ele>160.000000</ele>
  <time>2016-07-27T16:59:10Z</time>
</trkpt>
<trkpt lat="50.024160000" lon="9.721850000">
  <ele>154.000000</ele>
  <time>2016-07-27T16:59:11Z</time>
</trkpt>
<trkpt lat="50.024120000" lon="9.721780000">
  <ele>154.000000</ele>
  <time>2016-07-27T16:59:12Z</time>
</trkpt>
<trkpt lat="50.024060000" lon="9.721680000">
  <ele>154.000000</ele>
  <time>2016-07-27T16:59:14Z</time>
</trkpt>
<trkpt lat="50.024010000" lon="9.721580000">
  <ele>154.000000</ele>
  <time>2016-07-27T16:59:16Z</time>
</trkpt>
<trkpt lat="50.023980000" lon="9.721520000">
  <ele>154.000000</ele>
  <time>2016-07-27T16:59:17Z</time>
</trkpt>
<trkpt lat="50.023950000" lon="9.721460000">
  <ele>154.000000</ele>
  <time>2016-07-27T16:59:18Z</time>
</trkpt>
<trkpt lat="50.023900000" lon="9.721390000">
  <ele>154.000000</ele>
  <time>2016-07-27T16:59:20Z</time>
</trkpt>
<trkpt lat="50.023860000" lon="9.721330000">
  <ele>154.000000</ele>
  <time>2016-07-27T16:59:21Z</time>
</trkpt>
<trkpt lat="50.023820000" lon="9.721280000">
  <ele>154.000000</ele>
  <time>2016-07-27T16:59:22Z</time>
</trkpt>
<trkpt lat="50.023790000" lon="9.721230000">
  <ele>154.000000</ele>
  <time>2016-07-27T16:59:23Z</time>
</trkpt>
<trkpt lat="50.023750000" lon="9.721180000">
  <ele>154.000000</ele>
  <time>2016-07-27T16:59:24Z</time>
</trkpt>
<trkpt lat="50.023700000" lon="9.721100000">
  <ele>154.000000</ele>
  <time>2016-07-27T16:59:26Z</time>
</trkpt>
<trkpt lat="50.023670000" lon="9.721040000">
  <ele>154.000000</ele>
  <time>2016-07-27T16:59:27Z</time>
</trkpt>
<trkpt lat="50.023640000" lon="9.720970000">
  <ele>160.000000</ele>
  <time>2016-07-27T16:59:28Z</time>
</trkpt>
<trkpt lat="50.023610000" lon="9.720900000">
  <ele>160.000000</ele>
  <time>2016-07-27T16:59:29Z</time>
</trkpt>
<trkpt lat="50.023540000" lon="9.720780000">
  <ele>160.000000</ele>
  <time>2016-07-27T16:59:31Z</time>
</trkpt>
<trkpt lat="50.023500000" lon="9.720720000">
  <ele>160.000000</ele>
  <time>2016-07-27T16:59:32Z</time>
</trkpt>
<trkpt lat="50.023450000" lon="9.720670000">
  <ele>160.000000</ele>
  <time>2016-07-27T16:59:33Z</time>
</trkpt>
<trkpt lat="50.023390000" lon="9.720570000">
  <ele>160.000000</ele>
  <time>2016-07-27T16:59:35Z</time>
</trkpt>
<trkpt lat="50.023360000" lon="9.720510000">
  <ele>160.000000</ele>
  <time>2016-07-27T16:59:36Z</time>
</trkpt>
<trkpt lat="50.023330000" lon="9.720440000">
  <ele>160.000000</ele>
  <time>2016-07-27T16:59:37Z</time>
</trkpt>
<trkpt lat="50.023300000" lon="9.720370000">
  <ele>160.000000</ele>
  <time>2016-07-27T16:59:38Z</time>
</trkpt>
<trkpt lat="50.023270000" lon="9.720320000">
  <ele>160.000000</ele>
  <time>2016-07-27T16:59:39Z</time>
</trkpt>
<trkpt lat="50.023250000" lon="9.720250000">
  <ele>160.000000</ele>
  <time>2016-07-27T16:59:40Z</time>
</trkpt>
<trkpt lat="50.023210000" lon="9.720180000">
  <ele>160.000000</ele>
  <time>2016-07-27T16:59:41Z</time>
</trkpt>
<trkpt lat="50.023180000" lon="9.720110000">
  <ele>157.000000</ele>
  <time>2016-07-27T16:59:42Z</time>
</trkpt>
<trkpt lat="50.023150000" lon="9.720040000">
  <ele>157.000000</ele>
  <time>2016-07-27T16:59:43Z</time>
</trkpt>
<trkpt lat="50.023120000" lon="9.719980000">
  <ele>157.000000</ele>
  <time>2016-07-27T16:59:44Z</time>
</trkpt>
<trkpt lat="50.023080000" lon="9.719920000">
  <ele>157.000000</ele>
  <time>2016-07-27T16:59:45Z</time>
</trkpt>
<trkpt lat="50.023030000" lon="9.719820000">
  <ele>157.000000</ele>
  <time>2016-07-27T16:59:47Z</time>
</trkpt>
<trkpt lat="50.022980000" lon="9.719730000">
  <ele>157.000000</ele>
  <time>2016-07-27T16:59:49Z</time>
</trkpt>
<trkpt lat="50.022940000" lon="9.719690000">
  <ele>157.000000</ele>
  <time>2016-07-27T16:59:50Z</time>
</trkpt>
<trkpt lat="50.022870000" lon="9.719610000">
  <ele>157.000000</ele>
  <time>2016-07-27T16:59:52Z</time>
</trkpt>
<trkpt lat="50.022790000" lon="9.719550000">
  <ele>162.000000</ele>
  <time>2016-07-27T16:59:54Z</time>
</trkpt>
<trkpt lat="50.022720000" lon="9.719480000">
  <ele>162.000000</ele>
  <time>2016-07-27T16:59:56Z</time>
</trkpt>
<trkpt lat="50.022660000" lon="9.719410000">
  <ele>160.000000</ele>
  <time>2016-07-27T16:59:58Z</time>
</trkpt>
<trkpt lat="50.022630000" lon="9.719310000">
  <ele>160.000000</ele>
  <time>2016-07-27T17:00:00Z</time>
</trkpt>
<trkpt lat="50.022580000" lon="9.719220000">
  <ele>160.000000</ele>
  <time>2016-07-27T17:00:02Z</time>
</trkpt>
<trkpt lat="50.022530000" lon="9.719120000">
  <ele>160.000000</ele>
  <time>2016-07-27T17:00:04Z</time>
</trkpt>
<trkpt lat="50.022470000" lon="9.719040000">
  <ele>160.000000</ele>
  <time>2016-07-27T17:00:06Z</time>
</trkpt>
<trkpt lat="50.022420000" lon="9.718960000">
  <ele>160.000000</ele>
  <time>2016-07-27T17:00:08Z</time>
</trkpt>
<trkpt lat="50.022380000" lon="9.718880000">
  <ele>160.000000</ele>
  <time>2016-07-27T17:00:10Z</time>
</trkpt>
<trkpt lat="50.022340000" lon="9.718790000">
  <ele>160.000000</ele>
  <time>2016-07-27T17:00:12Z</time>
</trkpt>
<trkpt lat="50.022300000" lon="9.718710000">
  <ele>160.000000</ele>
  <time>2016-07-27T17:00:14Z</time>
</trkpt>
<trkpt lat="50.022240000" lon="9.718630000">
  <ele>160.000000</ele>
  <time>2016-07-27T17:00:16Z</time>
</trkpt>
<trkpt lat="50.022190000" lon="9.718560000">
  <ele>160.000000</ele>
  <time>2016-07-27T17:00:18Z</time>
</trkpt>
<trkpt lat="50.022140000" lon="9.718480000">
  <ele>158.000000</ele>
  <time>2016-07-27T17:00:20Z</time>
</trkpt>
<trkpt lat="50.022080000" lon="9.718390000">
  <ele>158.000000</ele>
  <time>2016-07-27T17:00:22Z</time>
</trkpt>
<trkpt lat="50.022030000" lon="9.718300000">
  <ele>158.000000</ele>
  <time>2016-07-27T17:00:24Z</time>
</trkpt>
<trkpt lat="50.021970000" lon="9.718220000">
  <ele>158.000000</ele>
  <time>2016-07-27T17:00:26Z</time>
</trkpt>
<trkpt lat="50.021920000" lon="9.718120000">
  <ele>161.000000</ele>
  <time>2016-07-27T17:00:28Z</time>
</trkpt>
<trkpt lat="50.021860000" lon="9.718040000">
  <ele>161.000000</ele>
  <time>2016-07-27T17:00:30Z</time>
</trkpt>
<trkpt lat="50.021810000" lon="9.717940000">
  <ele>161.000000</ele>
  <time>2016-07-27T17:00:32Z</time>
</trkpt>
<trkpt lat="50.021760000" lon="9.717860000">
  <ele>161.000000</ele>
  <time>2016-07-27T17:00:34Z</time>
</trkpt>
<trkpt lat="50.021710000" lon="9.717770000">
  <ele>161.000000</ele>
  <time>2016-07-27T17:00:36Z</time>
</trkpt>
<trkpt lat="50.021660000" lon="9.717680000">
  <ele>158.000000</ele>
  <time>2016-07-27T17:00:38Z</time>
</trkpt>
<trkpt lat="50.021610000" lon="9.717590000">
  <ele>158.000000</ele>
  <time>2016-07-27T17:00:40Z</time>
</trkpt>
<trkpt lat="50.021550000" lon="9.717500000">
  <ele>158.000000</ele>
  <time>2016-07-27T17:00:42Z</time>
</trkpt>
<trkpt lat="50.021500000" lon="9.717420000">
  <ele>158.000000</ele>
  <time>2016-07-27T17:00:44Z</time>
</trkpt>
<trkpt lat="50.021460000" lon="9.717340000">
  <ele>158.000000</ele>
  <time>2016-07-27T17:00:46Z</time>
</trkpt>
<trkpt lat="50.021410000" lon="9.717260000">
  <ele>158.000000</ele>
  <time>2016-07-27T17:00:48Z</time>
</trkpt>
<trkpt lat="50.021370000" lon="9.717170000">
  <ele>158.000000</ele>
  <time>2016-07-27T17:00:50Z</time>
</trkpt>
<trkpt lat="50.021320000" lon="9.717080000">
  <ele>158.000000</ele>
  <time>2016-07-27T17:00:52Z</time>
</trkpt>
<trkpt lat="50.021280000" lon="9.716990000">
  <ele>158.000000</ele>
  <time>2016-07-27T17:00:54Z</time>
</trkpt>
<trkpt lat="50.021230000" lon="9.716910000">
  <ele>158.000000</ele>
  <time>2016-07-27T17:00:56Z</time>
</trkpt>
<trkpt lat="50.021180000" lon="9.716810000">
  <ele>160.000000</ele>
  <time>2016-07-27T17:00:58Z</time>
</trkpt>
<trkpt lat="50.021130000" lon="9.716730000">
  <ele>160.000000</ele>
  <time>2016-07-27T17:01:00Z</time>
</trkpt>
<trkpt lat="50.021090000" lon="9.716650000">
  <ele>160.000000</ele>
  <time>2016-07-27T17:01:02Z</time>
</trkpt>
<trkpt lat="50.021050000" lon="9.716570000">
  <ele>160.000000</ele>
  <time>2016-07-27T17:01:04Z</time>
</trkpt>
<trkpt lat="50.021010000" lon="9.716500000">
  <ele>160.000000</ele>
  <time>2016-07-27T17:01:06Z</time>
</trkpt>
<trkpt lat="50.020970000" lon="9.716420000">
  <ele>160.000000</ele>
  <time>2016-07-27T17:01:08Z</time>
</trkpt>
<trkpt lat="50.020930000" lon="9.716340000">
  <ele>160.000000</ele>
  <time>2016-07-27T17:01:10Z</time>
</trkpt>
<trkpt lat="50.020880000" lon="9.716270000">
  <ele>160.000000</ele>
  <time>2016-07-27T17:01:12Z</time>
</trkpt>
<trkpt lat="50.020840000" lon="9.716180000">
  <ele>160.000000</ele>
  <time>2016-07-27T17:01:14Z</time>
</trkpt>
<trkpt lat="50.020790000" lon="9.716110000">
  <ele>160.000000</ele>
  <time>2016-07-27T17:01:16Z</time>
</trkpt>
<trkpt lat="50.020740000" lon="9.716040000">
  <ele>160.000000</ele>
  <time>2016-07-27T17:01:18Z</time>
</trkpt>
<trkpt lat="50.020700000" lon="9.715960000">
  <ele>159.000000</ele>
  <time>2016-07-27T17:01:20Z</time>
</trkpt>
<trkpt lat="50.020650000" lon="9.715880000">
  <ele>159.000000</ele>
  <time>2016-07-27T17:01:22Z</time>
</trkpt>
<trkpt lat="50.020610000" lon="9.715800000">
  <ele>159.000000</ele>
  <time>2016-07-27T17:01:24Z</time>
</trkpt>
<trkpt lat="50.020580000" lon="9.715720000">
  <ele>159.000000</ele>
  <time>2016-07-27T17:01:26Z</time>
</trkpt>
<trkpt lat="50.020560000" lon="9.715650000">
  <ele>159.000000</ele>
  <time>2016-07-27T17:01:28Z</time>
</trkpt>
<trkpt lat="50.020520000" lon="9.715590000">
  <ele>159.000000</ele>
  <time>2016-07-27T17:01:30Z</time>
</trkpt>
<trkpt lat="50.020480000" lon="9.715540000">
  <ele>159.000000</ele>
  <time>2016-07-27T17:01:32Z</time>
</trkpt>
<trkpt lat="50.020440000" lon="9.715480000">
  <ele>159.000000</ele>
  <time>2016-07-27T17:01:34Z</time>
</trkpt>
<trkpt lat="50.020400000" lon="9.715410000">
  <ele>159.000000</ele>
  <time>2016-07-27T17:01:36Z</time>
</trkpt>
<trkpt lat="50.020350000" lon="9.715340000">
  <ele>161.000000</ele>
  <time>2016-07-27T17:01:38Z</time>
</trkpt>
<trkpt lat="50.020300000" lon="9.715270000">
  <ele>161.000000</ele>
  <time>2016-07-27T17:01:40Z</time>
</trkpt>
<trkpt lat="50.020260000" lon="9.715190000">
  <ele>161.000000</ele>
  <time>2016-07-27T17:01:42Z</time>
</trkpt>
<trkpt lat="50.020220000" lon="9.715110000">
  <ele>159.000000</ele>
  <time>2016-07-27T17:01:44Z</time>
</trkpt>
<trkpt lat="50.020170000" lon="9.715040000">
  <ele>159.000000</ele>
  <time>2016-07-27T17:01:46Z</time>
</trkpt>
<trkpt lat="50.020120000" lon="9.714970000">
  <ele>159.000000</ele>
  <time>2016-07-27T17:01:48Z</time>
</trkpt>
<trkpt lat="50.020070000" lon="9.714910000">
  <ele>159.000000</ele>
  <time>2016-07-27T17:01:50Z</time>
</trkpt>
<trkpt lat="50.020030000" lon="9.714840000">
  <ele>159.000000</ele>
  <time>2016-07-27T17:01:52Z</time>
</trkpt>
<trkpt lat="50.019980000" lon="9.714770000">
  <ele>159.000000</ele>
  <time>2016-07-27T17:01:54Z</time>
</trkpt>
<trkpt lat="50.019950000" lon="9.714700000">
  <ele>159.000000</ele>
  <time>2016-07-27T17:01:56Z</time>
</trkpt>
<trkpt lat="50.019910000" lon="9.714640000">
  <ele>159.000000</ele>
  <time>2016-07-27T17:01:58Z</time>
</trkpt>
<trkpt lat="50.019870000" lon="9.714570000">
  <ele>159.000000</ele>
  <time>2016-07-27T17:02:00Z</time>
</trkpt>
<trkpt lat="50.019820000" lon="9.714510000">
  <ele>159.000000</ele>
  <time>2016-07-27T17:02:02Z</time>
</trkpt>
<trkpt lat="50.019780000" lon="9.714460000">
  <ele>159.000000</ele>
  <time>2016-07-27T17:02:04Z</time>
</trkpt>
<trkpt lat="50.019750000" lon="9.714410000">
  <ele>159.000000</ele>
  <time>2016-07-27T17:02:06Z</time>
</trkpt>
<trkpt lat="50.019690000" lon="9.714340000">
  <ele>158.000000</ele>
  <time>2016-07-27T17:02:09Z</time>
</trkpt>
<trkpt lat="50.019650000" lon="9.714290000">
  <ele>158.000000</ele>
  <time>2016-07-27T17:02:12Z</time>
</trkpt>
<trkpt lat="50.019620000" lon="9.714210000">
  <ele>158.000000</ele>
  <time>2016-07-27T17:02:15Z</time>
</trkpt>
<trkpt lat="50.019580000" lon="9.714140000">
  <ele>158.000000</ele>
  <time>2016-07-27T17:02:18Z</time>
</trkpt>
<trkpt lat="50.019550000" lon="9.714090000">
  <ele>158.000000</ele>
  <time>2016-07-27T17:02:20Z</time>
</trkpt>
<trkpt lat="50.019520000" lon="9.714040000">
  <ele>158.000000</ele>
  <time>2016-07-27T17:02:22Z</time>
</trkpt>
<trkpt lat="50.019470000" lon="9.713990000">
  <ele>158.000000</ele>
  <time>2016-07-27T17:02:25Z</time>
</trkpt>
<trkpt lat="50.019500000" lon="9.714050000">
  <ele>160.000000</ele>
  <time>2016-07-27T17:02:32Z</time>
</trkpt>
<trkpt lat="50.019450000" lon="9.713980000">
  <ele>160.000000</ele>
  <time>2016-07-27T17:02:41Z</time>
</trkpt>
<trkpt lat="50.019410000" lon="9.713920000">
  <ele>160.000000</ele>
  <time>2016-07-27T17:02:43Z</time>
</trkpt>
<trkpt lat="50.019370000" lon="9.713850000">
  <ele>160.000000</ele>
  <time>2016-07-27T17:02:45Z</time>
</trkpt>
<trkpt lat="50.019310000" lon="9.713790000">
  <ele>160.000000</ele>
  <time>2016-07-27T17:02:47Z</time>
</trkpt>
<trkpt lat="50.019260000" lon="9.713730000">
  <ele>160.000000</ele>
  <time>2016-07-27T17:02:49Z</time>
</trkpt>
<trkpt lat="50.019200000" lon="9.713670000">
  <ele>157.000000</ele>
  <time>2016-07-27T17:02:51Z</time>
</trkpt>
<trkpt lat="50.019150000" lon="9.713610000">
  <ele>157.000000</ele>
  <time>2016-07-27T17:02:53Z</time>
</trkpt>
<trkpt lat="50.019100000" lon="9.713540000">
  <ele>157.000000</ele>
  <time>2016-07-27T17:02:55Z</time>
</trkpt>
<trkpt lat="50.019050000" lon="9.713480000">
  <ele>157.000000</ele>
  <time>2016-07-27T17:02:57Z</time>
</trkpt>
<trkpt lat="50.018990000" lon="9.713420000">
  <ele>157.000000</ele>
  <time>2016-07-27T17:02:59Z</time>
</trkpt>
<trkpt lat="50.018940000" lon="9.713360000">
  <ele>157.000000</ele>
  <time>2016-07-27T17:03:01Z</time>
</trkpt>
<trkpt lat="50.018890000" lon="9.713300000">
  <ele>157.000000</ele>
  <time>2016-07-27T17:03:03Z</time>
</trkpt>
<trkpt lat="50.018840000" lon="9.713240000">
  <ele>157.000000</ele>
  <time>2016-07-27T17:03:05Z</time>
</trkpt>
<trkpt lat="50.018790000" lon="9.713190000">
  <ele>157.000000</ele>
  <time>2016-07-27T17:03:07Z</time>
</trkpt>
<trkpt lat="50.018740000" lon="9.713140000">
  <ele>157.000000</ele>
  <time>2016-07-27T17:03:09Z</time>
</trkpt>
<trkpt lat="50.018690000" lon="9.713080000">
  <ele>157.000000</ele>
  <time>2016-07-27T17:03:11Z</time>
</trkpt>
<trkpt lat="50.018630000" lon="9.713030000">
  <ele>159.000000</ele>
  <time>2016-07-27T17:03:13Z</time>
</trkpt>
<trkpt lat="50.018580000" lon="9.712980000">
  <ele>159.000000</ele>
  <time>2016-07-27T17:03:15Z</time>
</trkpt>
<trkpt lat="50.018530000" lon="9.712940000">
  <ele>159.000000</ele>
  <time>2016-07-27T17:03:17Z</time>
</trkpt>
<trkpt lat="50.018470000" lon="9.712900000">
  <ele>157.000000</ele>
  <time>2016-07-27T17:03:19Z</time>
</trkpt>
<trkpt lat="50.018410000" lon="9.712840000">
  <ele>157.000000</ele>
  <time>2016-07-27T17:03:21Z</time>
</trkpt>
<trkpt lat="50.018350000" lon="9.712780000">
  <ele>157.000000</ele>
  <time>2016-07-27T17:03:23Z</time>
</trkpt>
<trkpt lat="50.018300000" lon="9.712710000">
  <ele>157.000000</ele>
  <time>2016-07-27T17:03:25Z</time>
</trkpt>
<trkpt lat="50.018240000" lon="9.712640000">
  <ele>157.000000</ele>
  <time>2016-07-27T17:03:27Z</time>
</trkpt>
<trkpt lat="50.018180000" lon="9.712570000">
  <ele>157.000000</ele>
  <time>2016-07-27T17:03:29Z</time>
</trkpt>
<trkpt lat="50.018120000" lon="9.712510000">
  <ele>157.000000</ele>
  <time>2016-07-27T17:03:31Z</time>
</trkpt>
<trkpt lat="50.018080000" lon="9.712470000">
  <ele>157.000000</ele>
  <time>2016-07-27T17:03:32Z</time>
</trkpt>
<trkpt lat="50.018030000" lon="9.712410000">
  <ele>157.000000</ele>
  <time>2016-07-27T17:03:33Z</time>
</trkpt>
<trkpt lat="50.017960000" lon="9.712360000">
  <ele>157.000000</ele>
  <time>2016-07-27T17:03:35Z</time>
</trkpt>
<trkpt lat="50.017880000" lon="9.712300000">
  <ele>157.000000</ele>
  <time>2016-07-27T17:03:37Z</time>
</trkpt>
<trkpt lat="50.017800000" lon="9.712230000">
  <ele>163.000000</ele>
  <time>2016-07-27T17:03:39Z</time>
</trkpt>
<trkpt lat="50.017750000" lon="9.712210000">
  <ele>163.000000</ele>
  <time>2016-07-27T17:03:40Z</time>
</trkpt>
<trkpt lat="50.017680000" lon="9.712170000">
  <ele>163.000000</ele>
  <time>2016-07-27T17:03:42Z</time>
</trkpt>
<trkpt lat="50.017610000" lon="9.712120000">
  <ele>163.000000</ele>
  <time>2016-07-27T17:03:44Z</time>
</trkpt>
<trkpt lat="50.017550000" lon="9.712070000">
  <ele>163.000000</ele>
  <time>2016-07-27T17:03:46Z</time>
</trkpt>
<trkpt lat="50.017480000" lon="9.712020000">
  <ele>158.000000</ele>
  <time>2016-07-27T17:03:48Z</time>
</trkpt>
<trkpt lat="50.017410000" lon="9.711990000">
  <ele>158.000000</ele>
  <time>2016-07-27T17:03:50Z</time>
</trkpt>
<trkpt lat="50.017340000" lon="9.711970000">
  <ele>158.000000</ele>
  <time>2016-07-27T17:03:52Z</time>
</trkpt>
<trkpt lat="50.017270000" lon="9.711950000">
  <ele>158.000000</ele>
  <time>2016-07-27T17:03:54Z</time>
</trkpt>
<trkpt lat="50.017200000" lon="9.711910000">
  <ele>158.000000</ele>
  <time>2016-07-27T17:03:56Z</time>
</trkpt>
<trkpt lat="50.017130000" lon="9.711860000">
  <ele>158.000000</ele>
  <time>2016-07-27T17:03:58Z</time>
</trkpt>
<trkpt lat="50.017060000" lon="9.711810000">
  <ele>158.000000</ele>
  <time>2016-07-27T17:04:00Z</time>
</trkpt>
<trkpt lat="50.016990000" lon="9.711760000">
  <ele>164.000000</ele>
  <time>2016-07-27T17:04:02Z</time>
</trkpt>
<trkpt lat="50.016920000" lon="9.711710000">
  <ele>164.000000</ele>
  <time>2016-07-27T17:04:04Z</time>
</trkpt>
<trkpt lat="50.016850000" lon="9.711680000">
  <ele>164.000000</ele>
  <time>2016-07-27T17:04:06Z</time>
</trkpt>
<trkpt lat="50.016780000" lon="9.711640000">
  <ele>164.000000</ele>
  <time>2016-07-27T17:04:08Z</time>
</trkpt>
<trkpt lat="50.016710000" lon="9.711590000">
  <ele>164.000000</ele>
  <time>2016-07-27T17:04:10Z</time>
</trkpt>
<trkpt lat="50.016640000" lon="9.711550000">
  <ele>164.000000</ele>
  <time>2016-07-27T17:04:12Z</time>
</trkpt>
<trkpt lat="50.016560000" lon="9.711530000">
  <ele>164.000000</ele>
  <time>2016-07-27T17:04:14Z</time>
</trkpt>
<trkpt lat="50.016480000" lon="9.711510000">
  <ele>164.000000</ele>
  <time>2016-07-27T17:04:16Z</time>
</trkpt>
<trkpt lat="50.016410000" lon="9.711470000">
  <ele>164.000000</ele>
  <time>2016-07-27T17:04:18Z</time>
</trkpt>
<trkpt lat="50.016340000" lon="9.711430000">
  <ele>164.000000</ele>
  <time>2016-07-27T17:04:20Z</time>
</trkpt>
<trkpt lat="50.016260000" lon="9.711400000">
  <ele>164.000000</ele>
  <time>2016-07-27T17:04:22Z</time>
</trkpt>
<trkpt lat="50.016180000" lon="9.711370000">
  <ele>164.000000</ele>
  <time>2016-07-27T17:04:24Z</time>
</trkpt>
<trkpt lat="50.016110000" lon="9.711330000">
  <ele>172.000000</ele>
  <time>2016-07-27T17:04:26Z</time>
</trkpt>
<trkpt lat="50.016040000" lon="9.711300000">
  <ele>172.000000</ele>
  <time>2016-07-27T17:04:28Z</time>
</trkpt>
<trkpt lat="50.015960000" lon="9.711260000">
  <ele>172.000000</ele>
  <time>2016-07-27T17:04:30Z</time>
</trkpt>
<trkpt lat="50.015890000" lon="9.711220000">
  <ele>172.000000</ele>
  <time>2016-07-27T17:04:32Z</time>
</trkpt>
<trkpt lat="50.015810000" lon="9.711170000">
  <ele>172.000000</ele>
  <time>2016-07-27T17:04:34Z</time>
</trkpt>
<trkpt lat="50.015740000" lon="9.711110000">
  <ele>164.000000</ele>
  <time>2016-07-27T17:04:36Z</time>
</trkpt>
<trkpt lat="50.015670000" lon="9.711060000">
  <ele>164.000000</ele>
  <time>2016-07-27T17:04:38Z</time>
</trkpt>
<trkpt lat="50.015590000" lon="9.711030000">
  <ele>164.000000</ele>
  <time>2016-07-27T17:04:40Z</time>
</trkpt>
<trkpt lat="50.015510000" lon="9.711000000">
  <ele>164.000000</ele>
  <time>2016-07-27T17:04:42Z</time>
</trkpt>
<trkpt lat="50.015430000" lon="9.710970000">
  <ele>164.000000</ele>
  <time>2016-07-27T17:04:44Z</time>
</trkpt>
<trkpt lat="50.015360000" lon="9.710930000">
  <ele>164.000000</ele>
  <time>2016-07-27T17:04:46Z</time>
</trkpt>
<trkpt lat="50.015280000" lon="9.710900000">
  <ele>164.000000</ele>
  <time>2016-07-27T17:04:48Z</time>
</trkpt>
<trkpt lat="50.015200000" lon="9.710880000">
  <ele>168.000000</ele>
  <time>2016-07-27T17:04:50Z</time>
</trkpt>
<trkpt lat="50.015130000" lon="9.710860000">
  <ele>168.000000</ele>
  <time>2016-07-27T17:04:52Z</time>
</trkpt>
<trkpt lat="50.015050000" lon="9.710840000">
  <ele>168.000000</ele>
  <time>2016-07-27T17:04:54Z</time>
</trkpt>
<trkpt lat="50.014970000" lon="9.710820000">
  <ele>168.000000</ele>
  <time>2016-07-27T17:04:56Z</time>
</trkpt>
<trkpt lat="50.014900000" lon="9.710800000">
  <ele>168.000000</ele>
  <time>2016-07-27T17:04:58Z</time>
</trkpt>
<trkpt lat="50.014820000" lon="9.710770000">
  <ele>168.000000</ele>
  <time>2016-07-27T17:05:00Z</time>
</trkpt>
<trkpt lat="50.014750000" lon="9.710750000">
  <ele>168.000000</ele>
  <time>2016-07-27T17:05:02Z</time>
</trkpt>
<trkpt lat="50.014680000" lon="9.710710000">
  <ele>168.000000</ele>
  <time>2016-07-27T17:05:04Z</time>
</trkpt>
<trkpt lat="50.014610000" lon="9.710680000">
  <ele>168.000000</ele>
  <time>2016-07-27T17:05:06Z</time>
</trkpt>
<trkpt lat="50.014530000" lon="9.710660000">
  <ele>168.000000</ele>
  <time>2016-07-27T17:05:08Z</time>
</trkpt>
<trkpt lat="50.014460000" lon="9.710620000">
  <ele>168.000000</ele>
  <time>2016-07-27T17:05:10Z</time>
</trkpt>
<trkpt lat="50.014390000" lon="9.710590000">
  <ele>168.000000</ele>
  <time>2016-07-27T17:05:12Z</time>
</trkpt>
<trkpt lat="50.014310000" lon="9.710570000">
  <ele>171.000000</ele>
  <time>2016-07-27T17:05:14Z</time>
</trkpt>
<trkpt lat="50.014230000" lon="9.710560000">
  <ele>171.000000</ele>
  <time>2016-07-27T17:05:16Z</time>
</trkpt>
<trkpt lat="50.014150000" lon="9.710550000">
  <ele>171.000000</ele>
  <time>2016-07-27T17:05:18Z</time>
</trkpt>
<trkpt lat="50.014110000" lon="9.710530000">
  <ele>171.000000</ele>
  <time>2016-07-27T17:05:19Z</time>
</trkpt>
<trkpt lat="50.014040000" lon="9.710510000">
  <ele>171.000000</ele>
  <time>2016-07-27T17:05:21Z</time>
</trkpt>
<trkpt lat="50.013960000" lon="9.710490000">
  <ele>171.000000</ele>
  <time>2016-07-27T17:05:23Z</time>
</trkpt>
<trkpt lat="50.013890000" lon="9.710470000">
  <ele>171.000000</ele>
  <time>2016-07-27T17:05:25Z</time>
</trkpt>
<trkpt lat="50.013810000" lon="9.710450000">
  <ele>171.000000</ele>
  <time>2016-07-27T17:05:27Z</time>
</trkpt>
<trkpt lat="50.013730000" lon="9.710420000">
  <ele>171.000000</ele>
  <time>2016-07-27T17:05:29Z</time>
</trkpt>
<trkpt lat="50.013650000" lon="9.710410000">
  <ele>171.000000</ele>
  <time>2016-07-27T17:05:31Z</time>
</trkpt>
<trkpt lat="50.013570000" lon="9.710390000">
  <ele>173.000000</ele>
  <time>2016-07-27T17:05:33Z</time>
</trkpt>
<trkpt lat="50.013500000" lon="9.710370000">
  <ele>173.000000</ele>
  <time>2016-07-27T17:05:35Z</time>
</trkpt>
<trkpt lat="50.013420000" lon="9.710340000">
  <ele>159.000000</ele>
  <time>2016-07-27T17:05:37Z</time>
</trkpt>
<trkpt lat="50.013340000" lon="9.710310000">
  <ele>159.000000</ele>
  <time>2016-07-27T17:05:39Z</time>
</trkpt>
<trkpt lat="50.013290000" lon="9.710290000">
  <ele>159.000000</ele>
  <time>2016-07-27T17:05:40Z</time>
</trkpt>
<trkpt lat="50.013200000" lon="9.710270000">
  <ele>159.000000</ele>
  <time>2016-07-27T17:05:42Z</time>
</trkpt>
<trkpt lat="50.013160000" lon="9.710240000">
  <ele>159.000000</ele>
  <time>2016-07-27T17:05:43Z</time>
</trkpt>
<trkpt lat="50.013080000" lon="9.710200000">
  <ele>159.000000</ele>
  <time>2016-07-27T17:05:45Z</time>
</trkpt>
<trkpt lat="50.013020000" lon="9.710180000">
  <ele>159.000000</ele>
  <time>2016-07-27T17:05:46Z</time>
</trkpt>
<trkpt lat="50.012980000" lon="9.710160000">
  <ele>159.000000</ele>
  <time>2016-07-27T17:05:47Z</time>
</trkpt>
<trkpt lat="50.012930000" lon="9.710140000">
  <ele>159.000000</ele>
  <time>2016-07-27T17:05:48Z</time>
</trkpt>
<trkpt lat="50.012840000" lon="9.710120000">
  <ele>159.000000</ele>
  <time>2016-07-27T17:05:50Z</time>
</trkpt>
<trkpt lat="50.012800000" lon="9.710100000">
  <ele>159.000000</ele>
  <time>2016-07-27T17:05:51Z</time>
</trkpt>
<trkpt lat="50.012750000" lon="9.710080000">
  <ele>159.000000</ele>
  <time>2016-07-27T17:05:52Z</time>
</trkpt>
<trkpt lat="50.012700000" lon="9.710060000">
  <ele>159.000000</ele>
  <time>2016-07-27T17:05:53Z</time>
</trkpt>
<trkpt lat="50.012620000" lon="9.710030000">
  <ele>159.000000</ele>
  <time>2016-07-27T17:05:55Z</time>
</trkpt>
<trkpt lat="50.012530000" lon="9.709970000">
  <ele>159.000000</ele>
  <time>2016-07-27T17:05:57Z</time>
</trkpt>
<trkpt lat="50.012490000" lon="9.709940000">
  <ele>159.000000</ele>
  <time>2016-07-27T17:05:58Z</time>
</trkpt>
<trkpt lat="50.012410000" lon="9.709900000">
  <ele>159.000000</ele>
  <time>2016-07-27T17:06:00Z</time>
</trkpt>
<trkpt lat="50.012320000" lon="9.709850000">
  <ele>159.000000</ele>
  <time>2016-07-27T17:06:02Z</time>
</trkpt>
<trkpt lat="50.012240000" lon="9.709810000">
  <ele>159.000000</ele>
  <time>2016-07-27T17:06:04Z</time>
</trkpt>
<trkpt lat="50.012150000" lon="9.709760000">
  <ele>159.000000</ele>
  <time>2016-07-27T17:06:06Z</time>
</trkpt>
<trkpt lat="50.012110000" lon="9.709740000">
  <ele>159.000000</ele>
  <time>2016-07-27T17:06:07Z</time>
</trkpt>
<trkpt lat="50.012020000" lon="9.709680000">
  <ele>159.000000</ele>
  <time>2016-07-27T17:06:09Z</time>
</trkpt>
<trkpt lat="50.011980000" lon="9.709650000">
  <ele>159.000000</ele>
  <time>2016-07-27T17:06:10Z</time>
</trkpt>
<trkpt lat="50.011940000" lon="9.709620000">
  <ele>159.000000</ele>
  <time>2016-07-27T17:06:11Z</time>
</trkpt>
<trkpt lat="50.011900000" lon="9.709590000">
  <ele>159.000000</ele>
  <time>2016-07-27T17:06:12Z</time>
</trkpt>
<trkpt lat="50.011850000" lon="9.709570000">
  <ele>159.000000</ele>
  <time>2016-07-27T17:06:13Z</time>
</trkpt>
<trkpt lat="50.011810000" lon="9.709540000">
  <ele>159.000000</ele>
  <time>2016-07-27T17:06:14Z</time>
</trkpt>
<trkpt lat="50.011730000" lon="9.709500000">
  <ele>159.000000</ele>
  <time>2016-07-27T17:06:16Z</time>
</trkpt>
<trkpt lat="50.011650000" lon="9.709460000">
  <ele>157.000000</ele>
  <time>2016-07-27T17:06:18Z</time>
</trkpt>
<trkpt lat="50.011600000" lon="9.709550000">
  <ele>157.000000</ele>
  <time>2016-07-27T17:06:20Z</time>
</trkpt>
<trkpt lat="50.011590000" lon="9.709670000">
  <ele>159.000000</ele>
  <time>2016-07-27T17:06:22Z</time>
</trkpt>
<trkpt lat="50.011580000" lon="9.709770000">
  <ele>159.000000</ele>
  <time>2016-07-27T17:06:24Z</time>
</trkpt>
<trkpt lat="50.011580000" lon="9.709870000">
  <ele>159.000000</ele>
  <time>2016-07-27T17:06:26Z</time>
</trkpt>
<trkpt lat="50.011590000" lon="9.709960000">
  <ele>159.000000</ele>
  <time>2016-07-27T17:06:28Z</time>
</trkpt>
<trkpt lat="50.011590000" lon="9.710050000">
  <ele>159.000000</ele>
  <time>2016-07-27T17:06:30Z</time>
</trkpt>
<trkpt lat="50.011570000" lon="9.710120000">
  <ele>159.000000</ele>
  <time>2016-07-27T17:06:32Z</time>
</trkpt>
<trkpt lat="50.011530000" lon="9.710180000">
  <ele>159.000000</ele>
  <time>2016-07-27T17:06:34Z</time>
</trkpt>
<trkpt lat="50.011480000" lon="9.710220000">
  <ele>159.000000</ele>
  <time>2016-07-27T17:06:36Z</time>
</trkpt>
<trkpt lat="50.011430000" lon="9.710220000">
  <ele>159.000000</ele>
  <time>2016-07-27T17:06:38Z</time>
</trkpt>
<trkpt lat="50.011380000" lon="9.710220000">
  <ele>159.000000</ele>
  <time>2016-07-27T17:06:40Z</time>
</trkpt>
<trkpt lat="50.011330000" lon="9.710230000">
  <ele>159.000000</ele>
  <time>2016-07-27T17:06:42Z</time>
</trkpt>
<trkpt lat="50.011270000" lon="9.710220000">
  <ele>159.000000</ele>
  <time>2016-07-27T17:06:44Z</time>
</trkpt>
<trkpt lat="50.011220000" lon="9.710220000">
  <ele>159.000000</ele>
  <time>2016-07-27T17:06:46Z</time>
</trkpt>
<trkpt lat="50.011170000" lon="9.710230000">
  <ele>159.000000</ele>
  <time>2016-07-27T17:06:48Z</time>
</trkpt>
<trkpt lat="50.011130000" lon="9.710250000">
  <ele>158.000000</ele>
  <time>2016-07-27T17:06:50Z</time>
</trkpt>
<trkpt lat="50.011060000" lon="9.710270000">
  <ele>158.000000</ele>
  <time>2016-07-27T17:06:53Z</time>
</trkpt>
<trkpt lat="50.011000000" lon="9.710300000">
  <ele>158.000000</ele>
  <time>2016-07-27T17:06:56Z</time>
</trkpt>
<trkpt lat="50.010940000" lon="9.710320000">
  <ele>158.000000</ele>
  <time>2016-07-27T17:06:59Z</time>
</trkpt>
<trkpt lat="50.010890000" lon="9.710330000">
  <ele>158.000000</ele>
  <time>2016-07-27T17:07:01Z</time>
</trkpt>
<trkpt lat="50.010850000" lon="9.710350000">
  <ele>158.000000</ele>
  <time>2016-07-27T17:07:03Z</time>
</trkpt>
<trkpt lat="50.010780000" lon="9.710380000">
  <ele>158.000000</ele>
  <time>2016-07-27T17:07:06Z</time>
</trkpt>
<trkpt lat="50.010740000" lon="9.710390000">
  <ele>158.000000</ele>
  <time>2016-07-27T17:07:08Z</time>
</trkpt>
<trkpt lat="50.010680000" lon="9.710420000">
  <ele>158.000000</ele>
  <time>2016-07-27T17:07:11Z</time>
</trkpt>
<trkpt lat="50.010620000" lon="9.710460000">
  <ele>158.000000</ele>
  <time>2016-07-27T17:07:14Z</time>
</trkpt>
<trkpt lat="50.010560000" lon="9.710510000">
  <ele>164.000000</ele>
  <time>2016-07-27T17:07:17Z</time>
</trkpt>
<trkpt lat="50.010510000" lon="9.710560000">
  <ele>164.000000</ele>
  <time>2016-07-27T17:07:20Z</time>
</trkpt>
<trkpt lat="50.010460000" lon="9.710560000">
  <ele>164.000000</ele>
  <time>2016-07-27T17:07:24Z</time>
</trkpt>
<trkpt lat="50.010510000" lon="9.710530000">
  <ele>164.000000</ele>
  <time>2016-07-27T17:07:32Z</time>
</trkpt>
<trkpt lat="50.010430000" lon="9.710530000">
  <ele>164.000000</ele>
  <time>2016-07-27T17:07:40Z</time>
</trkpt>
<trkpt lat="50.010360000" lon="9.710540000">
  <ele>163.000000</ele>
  <time>2016-07-27T17:07:42Z</time>
</trkpt>
<trkpt lat="50.010280000" lon="9.710560000">
  <ele>163.000000</ele>
  <time>2016-07-27T17:07:44Z</time>
</trkpt>
<trkpt lat="50.010230000" lon="9.710580000">
  <ele>163.000000</ele>
  <time>2016-07-27T17:07:45Z</time>
</trkpt>
<trkpt lat="50.010190000" lon="9.710590000">
  <ele>163.000000</ele>
  <time>2016-07-27T17:07:46Z</time>
</trkpt>
<trkpt lat="50.010150000" lon="9.710610000">
  <ele>163.000000</ele>
  <time>2016-07-27T17:07:47Z</time>
</trkpt>
<trkpt lat="50.010090000" lon="9.710630000">
  <ele>163.000000</ele>
  <time>2016-07-27T17:07:48Z</time>
</trkpt>
<trkpt lat="50.010000000" lon="9.710670000">
  <ele>163.000000</ele>
  <time>2016-07-27T17:07:50Z</time>
</trkpt>
<trkpt lat="50.009960000" lon="9.710680000">
  <ele>163.000000</ele>
  <time>2016-07-27T17:07:51Z</time>
</trkpt>
<trkpt lat="50.009870000" lon="9.710710000">
  <ele>163.000000</ele>
  <time>2016-07-27T17:07:53Z</time>
</trkpt>
<trkpt lat="50.009820000" lon="9.710730000">
  <ele>163.000000</ele>
  <time>2016-07-27T17:07:54Z</time>
</trkpt>
<trkpt lat="50.009770000" lon="9.710740000">
  <ele>163.000000</ele>
  <time>2016-07-27T17:07:55Z</time>
</trkpt>
<trkpt lat="50.009730000" lon="9.710760000">
  <ele>163.000000</ele>
  <time>2016-07-27T17:07:56Z</time>
</trkpt>
<trkpt lat="50.009680000" lon="9.710770000">
  <ele>163.000000</ele>
  <time>2016-07-27T17:07:57Z</time>
</trkpt>
<trkpt lat="50.009640000" lon="9.710780000">
  <ele>160.000000</ele>
  <time>2016-07-27T17:07:58Z</time>
</trkpt>
<trkpt lat="50.009540000" lon="9.710810000">
  <ele>160.000000</ele>
  <time>2016-07-27T17:08:00Z</time>
</trkpt>
<trkpt lat="50.009490000" lon="9.710830000">
  <ele>160.000000</ele>
  <time>2016-07-27T17:08:01Z</time>
</trkpt>
<trkpt lat="50.009450000" lon="9.710850000">
  <ele>160.000000</ele>
  <time>2016-07-27T17:08:02Z</time>
</trkpt>
<trkpt lat="50.009400000" lon="9.710890000">
  <ele>160.000000</ele>
  <time>2016-07-27T17:08:03Z</time>
</trkpt>
<trkpt lat="50.009350000" lon="9.710920000">
  <ele>160.000000</ele>
  <time>2016-07-27T17:08:04Z</time>
</trkpt>
<trkpt lat="50.009300000" lon="9.710950000">
  <ele>160.000000</ele>
  <time>2016-07-27T17:08:05Z</time>
</trkpt>
<trkpt lat="50.009250000" lon="9.710990000">
  <ele>160.000000</ele>
  <time>2016-07-27T17:08:06Z</time>
</trkpt>
<trkpt lat="50.009200000" lon="9.710990000">
  <ele>160.000000</ele>
  <time>2016-07-27T17:08:07Z</time>
</trkpt>
<trkpt lat="50.009150000" lon="9.711000000">
  <ele>160.000000</ele>
  <time>2016-07-27T17:08:08Z</time>
</trkpt>
<trkpt lat="50.009100000" lon="9.711040000">
  <ele>160.000000</ele>
  <time>2016-07-27T17:08:09Z</time>
</trkpt>
<trkpt lat="50.009050000" lon="9.711060000">
  <ele>160.000000</ele>
  <time>2016-07-27T17:08:10Z</time>
</trkpt>
<trkpt lat="50.009000000" lon="9.711100000">
  <ele>160.000000</ele>
  <time>2016-07-27T17:08:11Z</time>
</trkpt>
<trkpt lat="50.008960000" lon="9.711140000">
  <ele>160.000000</ele>
  <time>2016-07-27T17:08:12Z</time>
</trkpt>
<trkpt lat="50.008910000" lon="9.711170000">
  <ele>160.000000</ele>
  <time>2016-07-27T17:08:13Z</time>
</trkpt>
<trkpt lat="50.008870000" lon="9.711210000">
  <ele>160.000000</ele>
  <time>2016-07-27T17:08:14Z</time>
</trkpt>
<trkpt lat="50.008820000" lon="9.711240000">
  <ele>160.000000</ele>
  <time>2016-07-27T17:08:15Z</time>
</trkpt>
<trkpt lat="50.008770000" lon="9.711270000">
  <ele>160.000000</ele>
  <time>2016-07-27T17:08:16Z</time>
</trkpt>
<trkpt lat="50.008730000" lon="9.711300000">
  <ele>160.000000</ele>
  <time>2016-07-27T17:08:17Z</time>
</trkpt>
<trkpt lat="50.008630000" lon="9.711350000">
  <ele>160.000000</ele>
  <time>2016-07-27T17:08:19Z</time>
</trkpt>
<trkpt lat="50.008570000" lon="9.711390000">
  <ele>160.000000</ele>
  <time>2016-07-27T17:08:21Z</time>
</trkpt>
<trkpt lat="50.008490000" lon="9.711450000">
  <ele>160.000000</ele>
  <time>2016-07-27T17:08:23Z</time>
</trkpt>
<trkpt lat="50.008410000" lon="9.711510000">
  <ele>160.000000</ele>
  <time>2016-07-27T17:08:25Z</time>
</trkpt>
<trkpt lat="50.008330000" lon="9.711560000">
  <ele>160.000000</ele>
  <time>2016-07-27T17:08:27Z</time>
</trkpt>
<trkpt lat="50.008260000" lon="9.711620000">
  <ele>160.000000</ele>
  <time>2016-07-27T17:08:29Z</time>
</trkpt>
<trkpt lat="50.008180000" lon="9.711670000">
  <ele>160.000000</ele>
  <time>2016-07-27T17:08:31Z</time>
</trkpt>
<trkpt lat="50.008110000" lon="9.711730000">
  <ele>160.000000</ele>
  <time>2016-07-27T17:08:33Z</time>
</trkpt>
<trkpt lat="50.008050000" lon="9.711790000">
  <ele>160.000000</ele>
  <time>2016-07-27T17:08:35Z</time>
</trkpt>
<trkpt lat="50.007980000" lon="9.711840000">
  <ele>160.000000</ele>
  <time>2016-07-27T17:08:37Z</time>
</trkpt>
<trkpt lat="50.007920000" lon="9.711890000">
  <ele>160.000000</ele>
  <time>2016-07-27T17:08:39Z</time>
</trkpt>
<trkpt lat="50.007860000" lon="9.711930000">
  <ele>160.000000</ele>
  <time>2016-07-27T17:08:41Z</time>
</trkpt>
<trkpt lat="50.007800000" lon="9.711980000">
  <ele>160.000000</ele>
  <time>2016-07-27T17:08:43Z</time>
</trkpt>
<trkpt lat="50.007730000" lon="9.712030000">
  <ele>160.000000</ele>
  <time>2016-07-27T17:08:45Z</time>
</trkpt>
<trkpt lat="50.007670000" lon="9.712080000">
  <ele>160.000000</ele>
  <time>2016-07-27T17:08:47Z</time>
</trkpt>
<trkpt lat="50.007600000" lon="9.712140000">
  <ele>162.000000</ele>
  <time>2016-07-27T17:08:49Z</time>
</trkpt>
<trkpt lat="50.007540000" lon="9.712190000">
  <ele>162.000000</ele>
  <time>2016-07-27T17:08:51Z</time>
</trkpt>
<trkpt lat="50.007470000" lon="9.712240000">
  <ele>162.000000</ele>
  <time>2016-07-27T17:08:53Z</time>
</trkpt>
<trkpt lat="50.007410000" lon="9.712290000">
  <ele>162.000000</ele>
  <time>2016-07-27T17:08:55Z</time>
</trkpt>
<trkpt lat="50.007350000" lon="9.712350000">
  <ele>162.000000</ele>
  <time>2016-07-27T17:08:56Z</time>
</trkpt>
<trkpt lat="50.007280000" lon="9.712410000">
  <ele>162.000000</ele>
  <time>2016-07-27T17:08:58Z</time>
</trkpt>
<trkpt lat="50.007220000" lon="9.712460000">
  <ele>162.000000</ele>
  <time>2016-07-27T17:09:00Z</time>
</trkpt>
<trkpt lat="50.007160000" lon="9.712510000">
  <ele>162.000000</ele>
  <time>2016-07-27T17:09:02Z</time>
</trkpt>
<trkpt lat="50.007100000" lon="9.712570000">
  <ele>162.000000</ele>
  <time>2016-07-27T17:09:04Z</time>
</trkpt>
<trkpt lat="50.007040000" lon="9.712630000">
  <ele>162.000000</ele>
  <time>2016-07-27T17:09:06Z</time>
</trkpt>
<trkpt lat="50.006980000" lon="9.712680000">
  <ele>158.000000</ele>
  <time>2016-07-27T17:09:08Z</time>
</trkpt>
<trkpt lat="50.006930000" lon="9.712730000">
  <ele>158.000000</ele>
  <time>2016-07-27T17:09:10Z</time>
</trkpt>
<trkpt lat="50.006870000" lon="9.712790000">
  <ele>158.000000</ele>
  <time>2016-07-27T17:09:12Z</time>
</trkpt>
<trkpt lat="50.006810000" lon="9.712840000">
  <ele>158.000000</ele>
  <time>2016-07-27T17:09:14Z</time>
</trkpt>
<trkpt lat="50.006750000" lon="9.712900000">
  <ele>158.000000</ele>
  <time>2016-07-27T17:09:16Z</time>
</trkpt>
<trkpt lat="50.006700000" lon="9.712950000">
  <ele>158.000000</ele>
  <time>2016-07-27T17:09:18Z</time>
</trkpt>
<trkpt lat="50.006640000" lon="9.713010000">
  <ele>161.000000</ele>
  <time>2016-07-27T17:09:20Z</time>
</trkpt>
<trkpt lat="50.006580000" lon="9.713060000">
  <ele>161.000000</ele>
  <time>2016-07-27T17:09:22Z</time>
</trkpt>
<trkpt lat="50.006520000" lon="9.713110000">
  <ele>161.000000</ele>
  <time>2016-07-27T17:09:24Z</time>
</trkpt>
<trkpt lat="50.006470000" lon="9.713170000">
  <ele>161.000000</ele>
  <time>2016-07-27T17:09:26Z</time>
</trkpt>
<trkpt lat="50.006420000" lon="9.713230000">
  <ele>161.000000</ele>
  <time>2016-07-27T17:09:28Z</time>
</trkpt>
<trkpt lat="50.006370000" lon="9.713270000">
  <ele>161.000000</ele>
  <time>2016-07-27T17:09:30Z</time>
</trkpt>
<trkpt lat="50.006320000" lon="9.713330000">
  <ele>161.000000</ele>
  <time>2016-07-27T17:09:32Z</time>
</trkpt>
<trkpt lat="50.006270000" lon="9.713390000">
  <ele>161.000000</ele>
  <time>2016-07-27T17:09:34Z</time>
</trkpt>
<trkpt lat="50.006210000" lon="9.713440000">
  <ele>159.000000</ele>
  <time>2016-07-27T17:09:36Z</time>
</trkpt>
<trkpt lat="50.006150000" lon="9.713500000">
  <ele>159.000000</ele>
  <time>2016-07-27T17:09:38Z</time>
</trkpt>
<trkpt lat="50.006090000" lon="9.713580000">
  <ele>159.000000</ele>
  <time>2016-07-27T17:09:40Z</time>
</trkpt>
<trkpt lat="50.006020000" lon="9.713650000">
  <ele>159.000000</ele>
  <time>2016-07-27T17:09:42Z</time>
</trkpt>
<trkpt lat="50.005960000" lon="9.713720000">
  <ele>159.000000</ele>
  <time>2016-07-27T17:09:44Z</time>
</trkpt>
<trkpt lat="50.005890000" lon="9.713790000">
  <ele>161.000000</ele>
  <time>2016-07-27T17:09:46Z</time>
</trkpt>
<trkpt lat="50.005830000" lon="9.713870000">
  <ele>161.000000</ele>
  <time>2016-07-27T17:09:48Z</time>
</trkpt>
<trkpt lat="50.005760000" lon="9.713950000">
  <ele>161.000000</ele>
  <time>2016-07-27T17:09:50Z</time>
</trkpt>
<trkpt lat="50.005690000" lon="9.714020000">
  <ele>161.000000</ele>
  <time>2016-07-27T17:09:52Z</time>
</trkpt>
<trkpt lat="50.005620000" lon="9.714090000">
  <ele>161.000000</ele>
  <time>2016-07-27T17:09:54Z</time>
</trkpt>
<trkpt lat="50.005550000" lon="9.714170000">
  <ele>161.000000</ele>
  <time>2016-07-27T17:09:56Z</time>
</trkpt>
<trkpt lat="50.005470000" lon="9.714260000">
  <ele>161.000000</ele>
  <time>2016-07-27T17:09:58Z</time>
</trkpt>
<trkpt lat="50.005410000" lon="9.714350000">
  <ele>161.000000</ele>
  <time>2016-07-27T17:10:00Z</time>
</trkpt>
<trkpt lat="50.005340000" lon="9.714430000">
  <ele>161.000000</ele>
  <time>2016-07-27T17:10:02Z</time>
</trkpt>
<trkpt lat="50.005270000" lon="9.714500000">
  <ele>160.000000</ele>
  <time>2016-07-27T17:10:04Z</time>
</trkpt>
<trkpt lat="50.005200000" lon="9.714580000">
  <ele>160.000000</ele>
  <time>2016-07-27T17:10:06Z</time>
</trkpt>
<trkpt lat="50.005130000" lon="9.714670000">
  <ele>162.000000</ele>
  <time>2016-07-27T17:10:08Z</time>
</trkpt>
<trkpt lat="50.005060000" lon="9.714750000">
  <ele>162.000000</ele>
  <time>2016-07-27T17:10:10Z</time>
</trkpt>
<trkpt lat="50.005000000" lon="9.714830000">
  <ele>162.000000</ele>
  <time>2016-07-27T17:10:12Z</time>
</trkpt>
<trkpt lat="50.004930000" lon="9.714910000">
  <ele>162.000000</ele>
  <time>2016-07-27T17:10:14Z</time>
</trkpt>
<trkpt lat="50.004890000" lon="9.714960000">
  <ele>162.000000</ele>
  <time>2016-07-27T17:10:15Z</time>
</trkpt>
<trkpt lat="50.004850000" lon="9.715000000">
  <ele>162.000000</ele>
  <time>2016-07-27T17:10:16Z</time>
</trkpt>
<trkpt lat="50.004780000" lon="9.715080000">
  <ele>162.000000</ele>
  <time>2016-07-27T17:10:18Z</time>
</trkpt>
<trkpt lat="50.004710000" lon="9.715150000">
  <ele>162.000000</ele>
  <time>2016-07-27T17:10:20Z</time>
</trkpt>
<trkpt lat="50.004640000" lon="9.715240000">
  <ele>162.000000</ele>
  <time>2016-07-27T17:10:22Z</time>
</trkpt>
<trkpt lat="50.004580000" lon="9.715320000">
  <ele>160.000000</ele>
  <time>2016-07-27T17:10:24Z</time>
</trkpt>
<trkpt lat="50.004520000" lon="9.715380000">
  <ele>160.000000</ele>
  <time>2016-07-27T17:10:26Z</time>
</trkpt>
<trkpt lat="50.004460000" lon="9.715450000">
  <ele>160.000000</ele>
  <time>2016-07-27T17:10:28Z</time>
</trkpt>
<trkpt lat="50.004400000" lon="9.715540000">
  <ele>162.000000</ele>
  <time>2016-07-27T17:10:30Z</time>
</trkpt>
<trkpt lat="50.004340000" lon="9.715600000">
  <ele>162.000000</ele>
  <time>2016-07-27T17:10:32Z</time>
</trkpt>
<trkpt lat="50.004280000" lon="9.715670000">
  <ele>162.000000</ele>
  <time>2016-07-27T17:10:34Z</time>
</trkpt>
<trkpt lat="50.004210000" lon="9.715720000">
  <ele>162.000000</ele>
  <time>2016-07-27T17:10:36Z</time>
</trkpt>
<trkpt lat="50.004120000" lon="9.715710000">
  <ele>162.000000</ele>
  <time>2016-07-27T17:10:38Z</time>
</trkpt>
<trkpt lat="50.004080000" lon="9.715680000">
  <ele>162.000000</ele>
  <time>2016-07-27T17:10:39Z</time>
</trkpt>
<trkpt lat="50.004030000" lon="9.715610000">
  <ele>162.000000</ele>
  <time>2016-07-27T17:10:40Z</time>
</trkpt>
<trkpt lat="50.003980000" lon="9.715570000">
  <ele>162.000000</ele>
  <time>2016-07-27T17:10:41Z</time>
</trkpt>
<trkpt lat="50.003940000" lon="9.715550000">
  <ele>162.000000</ele>
  <time>2016-07-27T17:10:42Z</time>
</trkpt>
<trkpt lat="50.003890000" lon="9.715540000">
  <ele>162.000000</ele>
  <time>2016-07-27T17:10:43Z</time>
</trkpt>
<trkpt lat="50.003840000" lon="9.715550000">
  <ele>162.000000</ele>
  <time>2016-07-27T17:10:44Z</time>
</trkpt>
<trkpt lat="50.003790000" lon="9.715570000">
  <ele>162.000000</ele>
  <time>2016-07-27T17:10:45Z</time>
</trkpt>
<trkpt lat="50.003740000" lon="9.715580000">
  <ele>162.000000</ele>
  <time>2016-07-27T17:10:46Z</time>
</trkpt>
<trkpt lat="50.003690000" lon="9.715590000">
  <ele>162.000000</ele>
  <time>2016-07-27T17:10:47Z</time>
</trkpt>
<trkpt lat="50.003640000" lon="9.715600000">
  <ele>162.000000</ele>
  <time>2016-07-27T17:10:48Z</time>
</trkpt>
<trkpt lat="50.003590000" lon="9.715620000">
  <ele>161.000000</ele>
  <time>2016-07-27T17:10:49Z</time>
</trkpt>
<trkpt lat="50.003530000" lon="9.715630000">
  <ele>161.000000</ele>
  <time>2016-07-27T17:10:50Z</time>
</trkpt>
<trkpt lat="50.003480000" lon="9.715640000">
  <ele>161.000000</ele>
  <time>2016-07-27T17:10:51Z</time>
</trkpt>
<trkpt lat="50.003420000" lon="9.715640000">
  <ele>161.000000</ele>
  <time>2016-07-27T17:10:52Z</time>
</trkpt>
<trkpt lat="50.003360000" lon="9.715660000">
  <ele>161.000000</ele>
  <time>2016-07-27T17:10:53Z</time>
</trkpt>
<trkpt lat="50.003310000" lon="9.715680000">
  <ele>161.000000</ele>
  <time>2016-07-27T17:10:54Z</time>
</trkpt>
<trkpt lat="50.003250000" lon="9.715690000">
  <ele>161.000000</ele>
  <time>2016-07-27T17:10:55Z</time>
</trkpt>
<trkpt lat="50.003200000" lon="9.715700000">
  <ele>161.000000</ele>
  <time>2016-07-27T17:10:56Z</time>
</trkpt>
<trkpt lat="50.003150000" lon="9.715710000">
  <ele>161.000000</ele>
  <time>2016-07-27T17:10:57Z</time>
</trkpt>
<trkpt lat="50.003090000" lon="9.715720000">
  <ele>161.000000</ele>
  <time>2016-07-27T17:10:58Z</time>
</trkpt>
<trkpt lat="50.003040000" lon="9.715720000">
  <ele>161.000000</ele>
  <time>2016-07-27T17:10:59Z</time>
</trkpt>
<trkpt lat="50.002990000" lon="9.715730000">
  <ele>161.000000</ele>
  <time>2016-07-27T17:11:00Z</time>
</trkpt>
<trkpt lat="50.002900000" lon="9.715760000">
  <ele>161.000000</ele>
  <time>2016-07-27T17:11:02Z</time>
</trkpt>
<trkpt lat="50.002830000" lon="9.715780000">
  <ele>157.000000</ele>
  <time>2016-07-27T17:11:04Z</time>
</trkpt>
<trkpt lat="50.002760000" lon="9.715830000">
  <ele>157.000000</ele>
  <time>2016-07-27T17:11:06Z</time>
</trkpt>
<trkpt lat="50.002700000" lon="9.715850000">
  <ele>157.000000</ele>
  <time>2016-07-27T17:11:08Z</time>
</trkpt>
<trkpt lat="50.002620000" lon="9.715770000">
  <ele>157.000000</ele>
  <time>2016-07-27T17:11:10Z</time>
</trkpt>
<trkpt lat="50.002580000" lon="9.715720000">
  <ele>157.000000</ele>
  <time>2016-07-27T17:11:11Z</time>
</trkpt>
<trkpt lat="50.002550000" lon="9.715650000">
  <ele>157.000000</ele>
  <time>2016-07-27T17:11:12Z</time>
</trkpt>
<trkpt lat="50.002510000" lon="9.715580000">
  <ele>157.000000</ele>
  <time>2016-07-27T17:11:13Z</time>
</trkpt>
<trkpt lat="50.002450000" lon="9.715510000">
  <ele>157.000000</ele>
  <time>2016-07-27T17:11:14Z</time>
</trkpt>
<trkpt lat="50.002410000" lon="9.715450000">
  <ele>157.000000</ele>
  <time>2016-07-27T17:11:15Z</time>
</trkpt>
<trkpt lat="50.002360000" lon="9.715370000">
  <ele>157.000000</ele>
  <time>2016-07-27T17:11:16Z</time>
</trkpt>
<trkpt lat="50.002300000" lon="9.715310000">
  <ele>156.000000</ele>
  <time>2016-07-27T17:11:17Z</time>
</trkpt>
<trkpt lat="50.002250000" lon="9.715250000">
  <ele>156.000000</ele>
  <time>2016-07-27T17:11:18Z</time>
</trkpt>
<trkpt lat="50.002170000" lon="9.715310000">
  <ele>156.000000</ele>
  <time>2016-07-27T17:11:19Z</time>
</trkpt>
<trkpt lat="50.002110000" lon="9.715320000">
  <ele>156.000000</ele>
  <time>2016-07-27T17:11:20Z</time>
</trkpt>
<trkpt lat="50.002070000" lon="9.715420000">
  <ele>156.000000</ele>
  <time>2016-07-27T17:11:21Z</time>
</trkpt>
<trkpt lat="50.002040000" lon="9.715500000">
  <ele>153.000000</ele>
  <time>2016-07-27T17:11:22Z</time>
</trkpt>
<trkpt lat="50.002010000" lon="9.715570000">
  <ele>153.000000</ele>
  <time>2016-07-27T17:11:23Z</time>
</trkpt>
<trkpt lat="50.001980000" lon="9.715650000">
  <ele>153.000000</ele>
  <time>2016-07-27T17:11:24Z</time>
</trkpt>
<trkpt lat="50.001930000" lon="9.715710000">
  <ele>153.000000</ele>
  <time>2016-07-27T17:11:25Z</time>
</trkpt>
<trkpt lat="50.001890000" lon="9.715790000">
  <ele>153.000000</ele>
  <time>2016-07-27T17:11:26Z</time>
</trkpt>
<trkpt lat="50.001860000" lon="9.715860000">
  <ele>153.000000</ele>
  <time>2016-07-27T17:11:27Z</time>
</trkpt>
<trkpt lat="50.001820000" lon="9.715940000">
  <ele>153.000000</ele>
  <time>2016-07-27T17:11:28Z</time>
</trkpt>
<trkpt lat="50.001790000" lon="9.716020000">
  <ele>153.000000</ele>
  <time>2016-07-27T17:11:29Z</time>
</trkpt>
<trkpt lat="50.001760000" lon="9.716090000">
  <ele>153.000000</ele>
  <time>2016-07-27T17:11:30Z</time>
</trkpt>
<trkpt lat="50.001740000" lon="9.716160000">
  <ele>153.000000</ele>
  <time>2016-07-27T17:11:31Z</time>
</trkpt>
<trkpt lat="50.001720000" lon="9.716240000">
  <ele>154.000000</ele>
  <time>2016-07-27T17:11:32Z</time>
</trkpt>
<trkpt lat="50.001710000" lon="9.716330000">
  <ele>154.000000</ele>
  <time>2016-07-27T17:11:33Z</time>
</trkpt>
<trkpt lat="50.001700000" lon="9.716410000">
  <ele>154.000000</ele>
  <time>2016-07-27T17:11:34Z</time>
</trkpt>
<trkpt lat="50.001680000" lon="9.716490000">
  <ele>154.000000</ele>
  <time>2016-07-27T17:11:35Z</time>
</trkpt>
<trkpt lat="50.001670000" lon="9.716570000">
  <ele>154.000000</ele>
  <time>2016-07-27T17:11:36Z</time>
</trkpt>
<trkpt lat="50.001660000" lon="9.716660000">
  <ele>154.000000</ele>
  <time>2016-07-27T17:11:37Z</time>
</trkpt>
<trkpt lat="50.001650000" lon="9.716740000">
  <ele>154.000000</ele>
  <time>2016-07-27T17:11:38Z</time>
</trkpt>
<trkpt lat="50.001660000" lon="9.716820000">
  <ele>154.000000</ele>
  <time>2016-07-27T17:11:39Z</time>
</trkpt>
<trkpt lat="50.001650000" lon="9.716900000">
  <ele>154.000000</ele>
  <time>2016-07-27T17:11:40Z</time>
</trkpt>
<trkpt lat="50.001650000" lon="9.716970000">
  <ele>154.000000</ele>
  <time>2016-07-27T17:11:41Z</time>
</trkpt>
<trkpt lat="50.001630000" lon="9.717060000">
  <ele>155.000000</ele>
  <time>2016-07-27T17:11:42Z</time>
</trkpt>
<trkpt lat="50.001620000" lon="9.717140000">
  <ele>155.000000</ele>
  <time>2016-07-27T17:11:43Z</time>
</trkpt>
<trkpt lat="50.001610000" lon="9.717260000">
  <ele>155.000000</ele>
  <time>2016-07-27T17:11:45Z</time>
</trkpt>
<trkpt lat="50.001590000" lon="9.717380000">
  <ele>155.000000</ele>
  <time>2016-07-27T17:11:47Z</time>
</trkpt>
<trkpt lat="50.001590000" lon="9.717490000">
  <ele>155.000000</ele>
  <time>2016-07-27T17:11:49Z</time>
</trkpt>
<trkpt lat="50.001580000" lon="9.717600000">
  <ele>155.000000</ele>
  <time>2016-07-27T17:11:51Z</time>
</trkpt>
<trkpt lat="50.001560000" lon="9.717710000">
  <ele>155.000000</ele>
  <time>2016-07-27T17:11:53Z</time>
</trkpt>
<trkpt lat="50.001560000" lon="9.717820000">
  <ele>155.000000</ele>
  <time>2016-07-27T17:11:55Z</time>
</trkpt>
<trkpt lat="50.001540000" lon="9.717930000">
  <ele>157.000000</ele>
  <time>2016-07-27T17:11:57Z</time>
</trkpt>
<trkpt lat="50.001510000" lon="9.718040000">
  <ele>157.000000</ele>
  <time>2016-07-27T17:11:59Z</time>
</trkpt>
<trkpt lat="50.001490000" lon="9.718150000">
  <ele>157.000000</ele>
  <time>2016-07-27T17:12:01Z</time>
</trkpt>
<trkpt lat="50.001460000" lon="9.718260000">
  <ele>157.000000</ele>
  <time>2016-07-27T17:12:03Z</time>
</trkpt>
<trkpt lat="50.001410000" lon="9.718350000">
  <ele>157.000000</ele>
  <time>2016-07-27T17:12:05Z</time>
</trkpt>
<trkpt lat="50.001380000" lon="9.718450000">
  <ele>157.000000</ele>
  <time>2016-07-27T17:12:07Z</time>
</trkpt>
<trkpt lat="50.001350000" lon="9.718550000">
  <ele>157.000000</ele>
  <time>2016-07-27T17:12:09Z</time>
</trkpt>
<trkpt lat="50.001310000" lon="9.718650000">
  <ele>157.000000</ele>
  <time>2016-07-27T17:12:11Z</time>
</trkpt>
<trkpt lat="50.001260000" lon="9.718740000">
  <ele>157.000000</ele>
  <time>2016-07-27T17:12:13Z</time>
</trkpt>
<trkpt lat="50.001220000" lon="9.718820000">
  <ele>157.000000</ele>
  <time>2016-07-27T17:12:15Z</time>
</trkpt>
<trkpt lat="50.001190000" lon="9.718890000">
  <ele>158.000000</ele>
  <time>2016-07-27T17:12:17Z</time>
</trkpt>
<trkpt lat="50.001150000" lon="9.718960000">
  <ele>158.000000</ele>
  <time>2016-07-27T17:12:19Z</time>
</trkpt>
<trkpt lat="50.001110000" lon="9.719040000">
  <ele>158.000000</ele>
  <time>2016-07-27T17:12:21Z</time>
</trkpt>
<trkpt lat="50.001070000" lon="9.719100000">
  <ele>158.000000</ele>
  <time>2016-07-27T17:12:23Z</time>
</trkpt>
<trkpt lat="50.001080000" lon="9.719030000">
  <ele>158.000000</ele>
  <time>2016-07-27T17:12:38Z</time>
</trkpt>
<trkpt lat="50.001040000" lon="9.719020000">
  <ele>158.000000</ele>
  <time>2016-07-27T17:13:03Z</time>
</trkpt>
<trkpt lat="50.001020000" lon="9.719100000">
  <ele>158.000000</ele>
  <time>2016-07-27T17:13:17Z</time>
</trkpt>
<trkpt lat="50.001000000" lon="9.719160000">
  <ele>158.000000</ele>
  <time>2016-07-27T17:13:21Z</time>
</trkpt>
<trkpt lat="50.000990000" lon="9.719230000">
  <ele>158.000000</ele>
  <time>2016-07-27T17:16:44Z</time>
</trkpt>
<trkpt lat="50.000950000" lon="9.719290000">
  <ele>158.000000</ele>
  <time>2016-07-27T17:16:46Z</time>
</trkpt>
<trkpt lat="50.000900000" lon="9.719390000">
  <ele>158.000000</ele>
  <time>2016-07-27T17:16:48Z</time>
</trkpt>
<trkpt lat="50.000830000" lon="9.719480000">
  <ele>158.000000</ele>
  <time>2016-07-27T17:16:50Z</time>
</trkpt>
<trkpt lat="50.000770000" lon="9.719550000">
  <ele>159.000000</ele>
  <time>2016-07-27T17:16:51Z</time>
</trkpt>
<trkpt lat="50.000730000" lon="9.719600000">
  <ele>159.000000</ele>
  <time>2016-07-27T17:16:52Z</time>
</trkpt>
<trkpt lat="50.000680000" lon="9.719640000">
  <ele>159.000000</ele>
  <time>2016-07-27T17:16:53Z</time>
</trkpt>
<trkpt lat="50.000640000" lon="9.719680000">
  <ele>159.000000</ele>
  <time>2016-07-27T17:16:54Z</time>
</trkpt>
<trkpt lat="50.000600000" lon="9.719730000">
  <ele>159.000000</ele>
  <time>2016-07-27T17:16:55Z</time>
</trkpt>
<trkpt lat="50.000560000" lon="9.719790000">
  <ele>159.000000</ele>
  <time>2016-07-27T17:16:56Z</time>
</trkpt>
<trkpt lat="50.000500000" lon="9.719850000">
  <ele>159.000000</ele>
  <time>2016-07-27T17:16:57Z</time>
</trkpt>
<trkpt lat="50.000440000" lon="9.719910000">
  <ele>159.000000</ele>
  <time>2016-07-27T17:16:58Z</time>
</trkpt>
<trkpt lat="50.000360000" lon="9.719990000">
  <ele>159.000000</ele>
  <time>2016-07-27T17:17:00Z</time>
</trkpt>
<trkpt lat="50.000290000" lon="9.720090000">
  <ele>159.000000</ele>
  <time>2016-07-27T17:17:02Z</time>
</trkpt>
<trkpt lat="50.000250000" lon="9.720160000">
  <ele>159.000000</ele>
  <time>2016-07-27T17:17:03Z</time>
</trkpt>
<trkpt lat="50.000210000" lon="9.720230000">
  <ele>159.000000</ele>
  <time>2016-07-27T17:17:04Z</time>
</trkpt>
<trkpt lat="50.000180000" lon="9.720300000">
  <ele>159.000000</ele>
  <time>2016-07-27T17:17:05Z</time>
</trkpt>
<trkpt lat="50.000140000" lon="9.720360000">
  <ele>159.000000</ele>
  <time>2016-07-27T17:17:06Z</time>
</trkpt>
<trkpt lat="50.000120000" lon="9.720430000">
  <ele>159.000000</ele>
  <time>2016-07-27T17:17:07Z</time>
</trkpt>
<trkpt lat="50.000090000" lon="9.720510000">
  <ele>159.000000</ele>
  <time>2016-07-27T17:17:08Z</time>
</trkpt>
<trkpt lat="50.000070000" lon="9.720590000">
  <ele>159.000000</ele>
  <time>2016-07-27T17:17:09Z</time>
</trkpt>
<trkpt lat="50.000060000" lon="9.720710000">
  <ele>159.000000</ele>
  <time>2016-07-27T17:17:10Z</time>
</trkpt>
<trkpt lat="50.000040000" lon="9.720790000">
  <ele>159.000000</ele>
  <time>2016-07-27T17:17:11Z</time>
</trkpt>
<trkpt lat="50.000010000" lon="9.720870000">
  <ele>159.000000</ele>
  <time>2016-07-27T17:17:12Z</time>
</trkpt>
<trkpt lat="49.999980000" lon="9.720940000">
  <ele>159.000000</ele>
  <time>2016-07-27T17:17:13Z</time>
</trkpt>
<trkpt lat="49.999940000" lon="9.721030000">
  <ele>159.000000</ele>
  <time>2016-07-27T17:17:14Z</time>
</trkpt>
<trkpt lat="49.999930000" lon="9.721120000">
  <ele>159.000000</ele>
  <time>2016-07-27T17:17:15Z</time>
</trkpt>
<trkpt lat="49.999910000" lon="9.721190000">
  <ele>159.000000</ele>
  <time>2016-07-27T17:17:16Z</time>
</trkpt>
<trkpt lat="49.999880000" lon="9.721280000">
  <ele>159.000000</ele>
  <time>2016-07-27T17:17:17Z</time>
</trkpt>
<trkpt lat="49.999850000" lon="9.721380000">
  <ele>159.000000</ele>
  <time>2016-07-27T17:17:18Z</time>
</trkpt>
<trkpt lat="49.999820000" lon="9.721460000">
  <ele>159.000000</ele>
  <time>2016-07-27T17:17:19Z</time>
</trkpt>
<trkpt lat="49.999800000" lon="9.721540000">
  <ele>159.000000</ele>
  <time>2016-07-27T17:17:20Z</time>
</trkpt>
<trkpt lat="49.999780000" lon="9.721630000">
  <ele>159.000000</ele>
  <time>2016-07-27T17:17:21Z</time>
</trkpt>
<trkpt lat="49.999750000" lon="9.721710000">
  <ele>159.000000</ele>
  <time>2016-07-27T17:17:22Z</time>
</trkpt>
<trkpt lat="49.999730000" lon="9.721790000">
  <ele>159.000000</ele>
  <time>2016-07-27T17:17:23Z</time>
</trkpt>
<trkpt lat="49.999710000" lon="9.721890000">
  <ele>159.000000</ele>
  <time>2016-07-27T17:17:24Z</time>
</trkpt>
<trkpt lat="49.999690000" lon="9.721960000">
  <ele>159.000000</ele>
  <time>2016-07-27T17:17:25Z</time>
</trkpt>
<trkpt lat="49.999670000" lon="9.722040000">
  <ele>159.000000</ele>
  <time>2016-07-27T17:17:26Z</time>
</trkpt>
<trkpt lat="49.999640000" lon="9.722110000">
  <ele>160.000000</ele>
  <time>2016-07-27T17:17:27Z</time>
</trkpt>
<trkpt lat="49.999620000" lon="9.722190000">
  <ele>160.000000</ele>
  <time>2016-07-27T17:17:28Z</time>
</trkpt>
<trkpt lat="49.999590000" lon="9.722280000">
  <ele>160.000000</ele>
  <time>2016-07-27T17:17:29Z</time>
</trkpt>
<trkpt lat="49.999560000" lon="9.722360000">
  <ele>160.000000</ele>
  <time>2016-07-27T17:17:30Z</time>
</trkpt>
<trkpt lat="49.999540000" lon="9.722430000">
  <ele>160.000000</ele>
  <time>2016-07-27T17:17:31Z</time>
</trkpt>
<trkpt lat="49.999510000" lon="9.722500000">
  <ele>160.000000</ele>
  <time>2016-07-27T17:17:32Z</time>
</trkpt>
<trkpt lat="49.999490000" lon="9.722570000">
  <ele>160.000000</ele>
  <time>2016-07-27T17:17:33Z</time>
</trkpt>
<trkpt lat="49.999450000" lon="9.722650000">
  <ele>160.000000</ele>
  <time>2016-07-27T17:17:34Z</time>
</trkpt>
<trkpt lat="49.999420000" lon="9.722730000">
  <ele>160.000000</ele>
  <time>2016-07-27T17:17:35Z</time>
</trkpt>
<trkpt lat="49.999400000" lon="9.722810000">
  <ele>158.000000</ele>
  <time>2016-07-27T17:17:36Z</time>
</trkpt>
<trkpt lat="49.999380000" lon="9.722880000">
  <ele>158.000000</ele>
  <time>2016-07-27T17:17:37Z</time>
</trkpt>
<trkpt lat="49.999360000" lon="9.722960000">
  <ele>158.000000</ele>
  <time>2016-07-27T17:17:38Z</time>
</trkpt>
<trkpt lat="49.999330000" lon="9.723020000">
  <ele>158.000000</ele>
  <time>2016-07-27T17:17:39Z</time>
</trkpt>
<trkpt lat="49.999300000" lon="9.723090000">
  <ele>158.000000</ele>
  <time>2016-07-27T17:17:40Z</time>
</trkpt>
<trkpt lat="49.999280000" lon="9.723160000">
  <ele>158.000000</ele>
  <time>2016-07-27T17:17:41Z</time>
</trkpt>
<trkpt lat="49.999260000" lon="9.723240000">
  <ele>158.000000</ele>
  <time>2016-07-27T17:17:42Z</time>
</trkpt>
<trkpt lat="49.999240000" lon="9.723330000">
  <ele>158.000000</ele>
  <time>2016-07-27T17:17:43Z</time>
</trkpt>
<trkpt lat="49.999220000" lon="9.723420000">
  <ele>158.000000</ele>
  <time>2016-07-27T17:17:44Z</time>
</trkpt>
<trkpt lat="49.999190000" lon="9.723490000">
  <ele>158.000000</ele>
  <time>2016-07-27T17:17:45Z</time>
</trkpt>
<trkpt lat="49.999180000" lon="9.723570000">
  <ele>159.000000</ele>
  <time>2016-07-27T17:17:46Z</time>
</trkpt>
<trkpt lat="49.999150000" lon="9.723650000">
  <ele>159.000000</ele>
  <time>2016-07-27T17:17:47Z</time>
</trkpt>
<trkpt lat="49.999130000" lon="9.723730000">
  <ele>159.000000</ele>
  <time>2016-07-27T17:17:48Z</time>
</trkpt>
<trkpt lat="49.999110000" lon="9.723800000">
  <ele>159.000000</ele>
  <time>2016-07-27T17:17:49Z</time>
</trkpt>
<trkpt lat="49.999090000" lon="9.723870000">
  <ele>159.000000</ele>
  <time>2016-07-27T17:17:50Z</time>
</trkpt>
<trkpt lat="49.999060000" lon="9.723950000">
  <ele>159.000000</ele>
  <time>2016-07-27T17:17:51Z</time>
</trkpt>
<trkpt lat="49.999030000" lon="9.724030000">
  <ele>159.000000</ele>
  <time>2016-07-27T17:17:52Z</time>
</trkpt>
<trkpt lat="49.999010000" lon="9.724110000">
  <ele>159.000000</ele>
  <time>2016-07-27T17:17:53Z</time>
</trkpt>
<trkpt lat="49.998980000" lon="9.724190000">
  <ele>159.000000</ele>
  <time>2016-07-27T17:17:54Z</time>
</trkpt>
<trkpt lat="49.998960000" lon="9.724280000">
  <ele>159.000000</ele>
  <time>2016-07-27T17:17:55Z</time>
</trkpt>
<trkpt lat="49.998940000" lon="9.724360000">
  <ele>159.000000</ele>
  <time>2016-07-27T17:17:56Z</time>
</trkpt>
<trkpt lat="49.998910000" lon="9.724450000">
  <ele>159.000000</ele>
  <time>2016-07-27T17:17:57Z</time>
</trkpt>
<trkpt lat="49.998880000" lon="9.724540000">
  <ele>159.000000</ele>
  <time>2016-07-27T17:17:58Z</time>
</trkpt>
<trkpt lat="49.998860000" lon="9.724610000">
  <ele>158.000000</ele>
  <time>2016-07-27T17:17:59Z</time>
</trkpt>
<trkpt lat="49.998840000" lon="9.724690000">
  <ele>158.000000</ele>
  <time>2016-07-27T17:18:00Z</time>
</trkpt>
<trkpt lat="49.998810000" lon="9.724770000">
  <ele>158.000000</ele>
  <time>2016-07-27T17:18:01Z</time>
</trkpt>
<trkpt lat="49.998790000" lon="9.724840000">
  <ele>158.000000</ele>
  <time>2016-07-27T17:18:02Z</time>
</trkpt>
<trkpt lat="49.998760000" lon="9.724940000">
  <ele>158.000000</ele>
  <time>2016-07-27T17:18:03Z</time>
</trkpt>
<trkpt lat="49.998730000" lon="9.725030000">
  <ele>158.000000</ele>
  <time>2016-07-27T17:18:04Z</time>
</trkpt>
<trkpt lat="49.998700000" lon="9.725110000">
  <ele>158.000000</ele>
  <time>2016-07-27T17:18:05Z</time>
</trkpt>
<trkpt lat="49.998680000" lon="9.725190000">
  <ele>158.000000</ele>
  <time>2016-07-27T17:18:06Z</time>
</trkpt>
<trkpt lat="49.998650000" lon="9.725300000">
  <ele>158.000000</ele>
  <time>2016-07-27T17:18:07Z</time>
</trkpt>
<trkpt lat="49.998620000" lon="9.725380000">
  <ele>157.000000</ele>
  <time>2016-07-27T17:18:08Z</time>
</trkpt>
<trkpt lat="49.998610000" lon="9.725470000">
  <ele>157.000000</ele>
  <time>2016-07-27T17:18:09Z</time>
</trkpt>
<trkpt lat="49.998580000" lon="9.725560000">
  <ele>157.000000</ele>
  <time>2016-07-27T17:18:10Z</time>
</trkpt>
<trkpt lat="49.998560000" lon="9.725640000">
  <ele>157.000000</ele>
  <time>2016-07-27T17:18:11Z</time>
</trkpt>
<trkpt lat="49.998540000" lon="9.725730000">
  <ele>157.000000</ele>
  <time>2016-07-27T17:18:12Z</time>
</trkpt>
<trkpt lat="49.998520000" lon="9.725810000">
  <ele>157.000000</ele>
  <time>2016-07-27T17:18:13Z</time>
</trkpt>
<trkpt lat="49.998480000" lon="9.725890000">
  <ele>157.000000</ele>
  <time>2016-07-27T17:18:14Z</time>
</trkpt>
<trkpt lat="49.998460000" lon="9.725980000">
  <ele>157.000000</ele>
  <time>2016-07-27T17:18:15Z</time>
</trkpt>
<trkpt lat="49.998450000" lon="9.726070000">
  <ele>157.000000</ele>
  <time>2016-07-27T17:18:16Z</time>
</trkpt>
<trkpt lat="49.998430000" lon="9.726150000">
  <ele>157.000000</ele>
  <time>2016-07-27T17:18:17Z</time>
</trkpt>
<trkpt lat="49.998400000" lon="9.726240000">
  <ele>159.000000</ele>
  <time>2016-07-27T17:18:18Z</time>
</trkpt>
<trkpt lat="49.998380000" lon="9.726330000">
  <ele>159.000000</ele>
  <time>2016-07-27T17:18:19Z</time>
</trkpt>
<trkpt lat="49.998370000" lon="9.726420000">
  <ele>159.000000</ele>
  <time>2016-07-27T17:18:20Z</time>
</trkpt>
<trkpt lat="49.998350000" lon="9.726500000">
  <ele>159.000000</ele>
  <time>2016-07-27T17:18:21Z</time>
</trkpt>
<trkpt lat="49.998340000" lon="9.726600000">
  <ele>159.000000</ele>
  <time>2016-07-27T17:18:22Z</time>
</trkpt>
<trkpt lat="49.998320000" lon="9.726680000">
  <ele>159.000000</ele>
  <time>2016-07-27T17:18:23Z</time>
</trkpt>
<trkpt lat="49.998300000" lon="9.726760000">
  <ele>159.000000</ele>
  <time>2016-07-27T17:18:24Z</time>
</trkpt>
<trkpt lat="49.998290000" lon="9.726840000">
  <ele>159.000000</ele>
  <time>2016-07-27T17:18:25Z</time>
</trkpt>
<trkpt lat="49.998270000" lon="9.726910000">
  <ele>159.000000</ele>
  <time>2016-07-27T17:18:26Z</time>
</trkpt>
<trkpt lat="49.998250000" lon="9.727010000">
  <ele>161.000000</ele>
  <time>2016-07-27T17:18:27Z</time>
</trkpt>
<trkpt lat="49.998240000" lon="9.727090000">
  <ele>161.000000</ele>
  <time>2016-07-27T17:18:28Z</time>
</trkpt>
<trkpt lat="49.998230000" lon="9.727190000">
  <ele>161.000000</ele>
  <time>2016-07-27T17:18:29Z</time>
</trkpt>
<trkpt lat="49.998220000" lon="9.727270000">
  <ele>161.000000</ele>
  <time>2016-07-27T17:18:30Z</time>
</trkpt>
<trkpt lat="49.998190000" lon="9.727360000">
  <ele>161.000000</ele>
  <time>2016-07-27T17:18:31Z</time>
</trkpt>
<trkpt lat="49.998190000" lon="9.727450000">
  <ele>161.000000</ele>
  <time>2016-07-27T17:18:32Z</time>
</trkpt>
<trkpt lat="49.998160000" lon="9.727530000">
  <ele>161.000000</ele>
  <time>2016-07-27T17:18:33Z</time>
</trkpt>
<trkpt lat="49.998130000" lon="9.727610000">
  <ele>161.000000</ele>
  <time>2016-07-27T17:18:34Z</time>
</trkpt>
<trkpt lat="49.998110000" lon="9.727700000">
  <ele>161.000000</ele>
  <time>2016-07-27T17:18:35Z</time>
</trkpt>
<trkpt lat="49.998100000" lon="9.727780000">
  <ele>161.000000</ele>
  <time>2016-07-27T17:18:36Z</time>
</trkpt>
<trkpt lat="49.998080000" lon="9.727880000">
  <ele>159.000000</ele>
  <time>2016-07-27T17:18:37Z</time>
</trkpt>
<trkpt lat="49.998070000" lon="9.727950000">
  <ele>159.000000</ele>
  <time>2016-07-27T17:18:38Z</time>
</trkpt>
<trkpt lat="49.998060000" lon="9.728030000">
  <ele>159.000000</ele>
  <time>2016-07-27T17:18:39Z</time>
</trkpt>
<trkpt lat="49.998040000" lon="9.728110000">
  <ele>159.000000</ele>
  <time>2016-07-27T17:18:40Z</time>
</trkpt>
<trkpt lat="49.998030000" lon="9.728190000">
  <ele>159.000000</ele>
  <time>2016-07-27T17:18:41Z</time>
</trkpt>
<trkpt lat="49.998020000" lon="9.728280000">
  <ele>159.000000</ele>
  <time>2016-07-27T17:18:42Z</time>
</trkpt>
<trkpt lat="49.998000000" lon="9.728360000">
  <ele>159.000000</ele>
  <time>2016-07-27T17:18:43Z</time>
</trkpt>
<trkpt lat="49.998000000" lon="9.728460000">
  <ele>159.000000</ele>
  <time>2016-07-27T17:18:44Z</time>
</trkpt>
<trkpt lat="49.997990000" lon="9.728560000">
  <ele>159.000000</ele>
  <time>2016-07-27T17:18:45Z</time>
</trkpt>
<trkpt lat="49.997980000" lon="9.728640000">
  <ele>161.000000</ele>
  <time>2016-07-27T17:18:46Z</time>
</trkpt>
<trkpt lat="49.997970000" lon="9.728730000">
  <ele>161.000000</ele>
  <time>2016-07-27T17:18:47Z</time>
</trkpt>
<trkpt lat="49.997950000" lon="9.728820000">
  <ele>161.000000</ele>
  <time>2016-07-27T17:18:48Z</time>
</trkpt>
<trkpt lat="49.997940000" lon="9.728900000">
  <ele>159.000000</ele>
  <time>2016-07-27T17:18:49Z</time>
</trkpt>
<trkpt lat="49.997930000" lon="9.728980000">
  <ele>159.000000</ele>
  <time>2016-07-27T17:18:50Z</time>
</trkpt>
<trkpt lat="49.997910000" lon="9.729080000">
  <ele>159.000000</ele>
  <time>2016-07-27T17:18:51Z</time>
</trkpt>
<trkpt lat="49.997920000" lon="9.729150000">
  <ele>159.000000</ele>
  <time>2016-07-27T17:18:52Z</time>
</trkpt>
<trkpt lat="49.997900000" lon="9.729240000">
  <ele>159.000000</ele>
  <time>2016-07-27T17:18:53Z</time>
</trkpt>
<trkpt lat="49.997890000" lon="9.729340000">
  <ele>159.000000</ele>
  <time>2016-07-27T17:18:54Z</time>
</trkpt>
<trkpt lat="49.997880000" lon="9.729430000">
  <ele>159.000000</ele>
  <time>2016-07-27T17:18:55Z</time>
</trkpt>
<trkpt lat="49.997870000" lon="9.729530000">
  <ele>160.000000</ele>
  <time>2016-07-27T17:18:56Z</time>
</trkpt>
<trkpt lat="49.997850000" lon="9.729620000">
  <ele>160.000000</ele>
  <time>2016-07-27T17:18:57Z</time>
</trkpt>
<trkpt lat="49.997850000" lon="9.729720000">
  <ele>160.000000</ele>
  <time>2016-07-27T17:18:58Z</time>
</trkpt>
<trkpt lat="49.997840000" lon="9.729810000">
  <ele>160.000000</ele>
  <time>2016-07-27T17:18:59Z</time>
</trkpt>
<trkpt lat="49.997830000" lon="9.729900000">
  <ele>160.000000</ele>
  <time>2016-07-27T17:19:00Z</time>
</trkpt>
<trkpt lat="49.997820000" lon="9.729990000">
  <ele>160.000000</ele>
  <time>2016-07-27T17:19:01Z</time>
</trkpt>
<trkpt lat="49.997810000" lon="9.730080000">
  <ele>160.000000</ele>
  <time>2016-07-27T17:19:02Z</time>
</trkpt>
<trkpt lat="49.997800000" lon="9.730170000">
  <ele>160.000000</ele>
  <time>2016-07-27T17:19:03Z</time>
</trkpt>
<trkpt lat="49.997790000" lon="9.730260000">
  <ele>160.000000</ele>
  <time>2016-07-27T17:19:04Z</time>
</trkpt>
<trkpt lat="49.997780000" lon="9.730350000">
  <ele>158.000000</ele>
  <time>2016-07-27T17:19:05Z</time>
</trkpt>
<trkpt lat="49.997780000" lon="9.730450000">
  <ele>158.000000</ele>
  <time>2016-07-27T17:19:06Z</time>
</trkpt>
<trkpt lat="49.997770000" lon="9.730540000">
  <ele>158.000000</ele>
  <time>2016-07-27T17:19:07Z</time>
</trkpt>
<trkpt lat="49.997760000" lon="9.730650000">
  <ele>158.000000</ele>
  <time>2016-07-27T17:19:08Z</time>
</trkpt>
<trkpt lat="49.997750000" lon="9.730740000">
  <ele>158.000000</ele>
  <time>2016-07-27T17:19:09Z</time>
</trkpt>
<trkpt lat="49.997750000" lon="9.730840000">
  <ele>158.000000</ele>
  <time>2016-07-27T17:19:10Z</time>
</trkpt>
<trkpt lat="49.997740000" lon="9.730930000">
  <ele>158.000000</ele>
  <time>2016-07-27T17:19:11Z</time>
</trkpt>
<trkpt lat="49.997720000" lon="9.731030000">
  <ele>158.000000</ele>
  <time>2016-07-27T17:19:12Z</time>
</trkpt>
<trkpt lat="49.997710000" lon="9.731120000">
  <ele>158.000000</ele>
  <time>2016-07-27T17:19:13Z</time>
</trkpt>
<trkpt lat="49.997700000" lon="9.731220000">
  <ele>159.000000</ele>
  <time>2016-07-27T17:19:14Z</time>
</trkpt>
<trkpt lat="49.997700000" lon="9.731310000">
  <ele>159.000000</ele>
  <time>2016-07-27T17:19:15Z</time>
</trkpt>
<trkpt lat="49.997690000" lon="9.731390000">
  <ele>159.000000</ele>
  <time>2016-07-27T17:19:16Z</time>
</trkpt>
<trkpt lat="49.997700000" lon="9.731500000">
  <ele>159.000000</ele>
  <time>2016-07-27T17:19:17Z</time>
</trkpt>
<trkpt lat="49.997700000" lon="9.731600000">
  <ele>159.000000</ele>
  <time>2016-07-27T17:19:18Z</time>
</trkpt>
<trkpt lat="49.997700000" lon="9.731680000">
  <ele>159.000000</ele>
  <time>2016-07-27T17:19:19Z</time>
</trkpt>
<trkpt lat="49.997700000" lon="9.731790000">
  <ele>159.000000</ele>
  <time>2016-07-27T17:19:20Z</time>
</trkpt>
<trkpt lat="49.997700000" lon="9.731880000">
  <ele>159.000000</ele>
  <time>2016-07-27T17:19:21Z</time>
</trkpt>
<trkpt lat="49.997690000" lon="9.731970000">
  <ele>159.000000</ele>
  <time>2016-07-27T17:19:22Z</time>
</trkpt>
<trkpt lat="49.997680000" lon="9.732050000">
  <ele>159.000000</ele>
  <time>2016-07-27T17:19:23Z</time>
</trkpt>
<trkpt lat="49.997690000" lon="9.732160000">
  <ele>159.000000</ele>
  <time>2016-07-27T17:19:24Z</time>
</trkpt>
<trkpt lat="49.997680000" lon="9.732250000">
  <ele>159.000000</ele>
  <time>2016-07-27T17:19:25Z</time>
</trkpt>
<trkpt lat="49.997680000" lon="9.732350000">
  <ele>159.000000</ele>
  <time>2016-07-27T17:19:26Z</time>
</trkpt>
<trkpt lat="49.997670000" lon="9.732450000">
  <ele>159.000000</ele>
  <time>2016-07-27T17:19:27Z</time>
</trkpt>
<trkpt lat="49.997660000" lon="9.732530000">
  <ele>159.000000</ele>
  <time>2016-07-27T17:19:28Z</time>
</trkpt>
<trkpt lat="49.997660000" lon="9.732620000">
  <ele>159.000000</ele>
  <time>2016-07-27T17:19:29Z</time>
</trkpt>
<trkpt lat="49.997670000" lon="9.732740000">
  <ele>159.000000</ele>
  <time>2016-07-27T17:19:30Z</time>
</trkpt>
<trkpt lat="49.997670000" lon="9.732830000">
  <ele>159.000000</ele>
  <time>2016-07-27T17:19:31Z</time>
</trkpt>
<trkpt lat="49.997660000" lon="9.732920000">
  <ele>159.000000</ele>
  <time>2016-07-27T17:19:32Z</time>
</trkpt>
<trkpt lat="49.997650000" lon="9.733000000">
  <ele>160.000000</ele>
  <time>2016-07-27T17:19:33Z</time>
</trkpt>
<trkpt lat="49.997650000" lon="9.733100000">
  <ele>160.000000</ele>
  <time>2016-07-27T17:19:34Z</time>
</trkpt>
<trkpt lat="49.997640000" lon="9.733190000">
  <ele>160.000000</ele>
  <time>2016-07-27T17:19:35Z</time>
</trkpt>
<trkpt lat="49.997620000" lon="9.733280000">
  <ele>160.000000</ele>
  <time>2016-07-27T17:19:36Z</time>
</trkpt>
<trkpt lat="49.997620000" lon="9.733360000">
  <ele>160.000000</ele>
  <time>2016-07-27T17:19:37Z</time>
</trkpt>
<trkpt lat="49.997600000" lon="9.733440000">
  <ele>160.000000</ele>
  <time>2016-07-27T17:19:38Z</time>
</trkpt>
<trkpt lat="49.997590000" lon="9.733540000">
  <ele>160.000000</ele>
  <time>2016-07-27T17:19:39Z</time>
</trkpt>
<trkpt lat="49.997590000" lon="9.733640000">
  <ele>160.000000</ele>
  <time>2016-07-27T17:19:40Z</time>
</trkpt>
<trkpt lat="49.997590000" lon="9.733720000">
  <ele>160.000000</ele>
  <time>2016-07-27T17:19:41Z</time>
</trkpt>
<trkpt lat="49.997580000" lon="9.733810000">
  <ele>161.000000</ele>
  <time>2016-07-27T17:19:42Z</time>
</trkpt>
<trkpt lat="49.997570000" lon="9.733890000">
  <ele>161.000000</ele>
  <time>2016-07-27T17:19:43Z</time>
</trkpt>
<trkpt lat="49.997540000" lon="9.733980000">
  <ele>161.000000</ele>
  <time>2016-07-27T17:19:44Z</time>
</trkpt>
<trkpt lat="49.997530000" lon="9.734060000">
  <ele>161.000000</ele>
  <time>2016-07-27T17:19:45Z</time>
</trkpt>
<trkpt lat="49.997530000" lon="9.734140000">
  <ele>161.000000</ele>
  <time>2016-07-27T17:19:46Z</time>
</trkpt>
<trkpt lat="49.997500000" lon="9.734230000">
  <ele>161.000000</ele>
  <time>2016-07-27T17:19:47Z</time>
</trkpt>
<trkpt lat="49.997480000" lon="9.734300000">
  <ele>161.000000</ele>
  <time>2016-07-27T17:19:48Z</time>
</trkpt>
<trkpt lat="49.997480000" lon="9.734390000">
  <ele>161.000000</ele>
  <time>2016-07-27T17:19:49Z</time>
</trkpt>
<trkpt lat="49.997470000" lon="9.734470000">
  <ele>161.000000</ele>
  <time>2016-07-27T17:19:50Z</time>
</trkpt>
<trkpt lat="49.997460000" lon="9.734550000">
  <ele>161.000000</ele>
  <time>2016-07-27T17:19:51Z</time>
</trkpt>
<trkpt lat="49.997460000" lon="9.734640000">
  <ele>162.000000</ele>
  <time>2016-07-27T17:19:52Z</time>
</trkpt>
<trkpt lat="49.997440000" lon="9.734720000">
  <ele>162.000000</ele>
  <time>2016-07-27T17:19:53Z</time>
</trkpt>
<trkpt lat="49.997430000" lon="9.734790000">
  <ele>162.000000</ele>
  <time>2016-07-27T17:19:54Z</time>
</trkpt>
<trkpt lat="49.997410000" lon="9.734880000">
  <ele>162.000000</ele>
  <time>2016-07-27T17:19:55Z</time>
</trkpt>
<trkpt lat="49.997400000" lon="9.734960000">
  <ele>162.000000</ele>
  <time>2016-07-27T17:19:56Z</time>
</trkpt>
<trkpt lat="49.997380000" lon="9.735040000">
  <ele>162.000000</ele>
  <time>2016-07-27T17:19:57Z</time>
</trkpt>
<trkpt lat="49.997360000" lon="9.735120000">
  <ele>162.000000</ele>
  <time>2016-07-27T17:19:58Z</time>
</trkpt>
<trkpt lat="49.997350000" lon="9.735210000">
  <ele>162.000000</ele>
  <time>2016-07-27T17:19:59Z</time>
</trkpt>
<trkpt lat="49.997340000" lon="9.735310000">
  <ele>162.000000</ele>
  <time>2016-07-27T17:20:00Z</time>
</trkpt>
<trkpt lat="49.997330000" lon="9.735390000">
  <ele>162.000000</ele>
  <time>2016-07-27T17:20:01Z</time>
</trkpt>
<trkpt lat="49.997320000" lon="9.735550000">
  <ele>163.000000</ele>
  <time>2016-07-27T17:20:03Z</time>
</trkpt>
<trkpt lat="49.997310000" lon="9.735640000">
  <ele>163.000000</ele>
  <time>2016-07-27T17:20:04Z</time>
</trkpt>
<trkpt lat="49.997300000" lon="9.735720000">
  <ele>163.000000</ele>
  <time>2016-07-27T17:20:05Z</time>
</trkpt>
<trkpt lat="49.997290000" lon="9.735790000">
  <ele>163.000000</ele>
  <time>2016-07-27T17:20:06Z</time>
</trkpt>
<trkpt lat="49.997280000" lon="9.735870000">
  <ele>163.000000</ele>
  <time>2016-07-27T17:20:07Z</time>
</trkpt>
<trkpt lat="49.997260000" lon="9.735950000">
  <ele>163.000000</ele>
  <time>2016-07-27T17:20:08Z</time>
</trkpt>
<trkpt lat="49.997260000" lon="9.736040000">
  <ele>163.000000</ele>
  <time>2016-07-27T17:20:09Z</time>
</trkpt>
<trkpt lat="49.997260000" lon="9.736140000">
  <ele>163.000000</ele>
  <time>2016-07-27T17:20:10Z</time>
</trkpt>
<trkpt lat="49.997240000" lon="9.736220000">
  <ele>163.000000</ele>
  <time>2016-07-27T17:20:11Z</time>
</trkpt>
<trkpt lat="49.997230000" lon="9.736300000">
  <ele>166.000000</ele>
  <time>2016-07-27T17:20:12Z</time>
</trkpt>
<trkpt lat="49.997230000" lon="9.736390000">
  <ele>166.000000</ele>
  <time>2016-07-27T17:20:13Z</time>
</trkpt>
<trkpt lat="49.997210000" lon="9.736470000">
  <ele>166.000000</ele>
  <time>2016-07-27T17:20:14Z</time>
</trkpt>
<trkpt lat="49.997200000" lon="9.736560000">
  <ele>166.000000</ele>
  <time>2016-07-27T17:20:15Z</time>
</trkpt>
<trkpt lat="49.997190000" lon="9.736640000">
  <ele>166.000000</ele>
  <time>2016-07-27T17:20:16Z</time>
</trkpt>
<trkpt lat="49.997180000" lon="9.736720000">
  <ele>166.000000</ele>
  <time>2016-07-27T17:20:17Z</time>
</trkpt>
<trkpt lat="49.997170000" lon="9.736810000">
  <ele>166.000000</ele>
  <time>2016-07-27T17:20:18Z</time>
</trkpt>
<trkpt lat="49.997160000" lon="9.736900000">
  <ele>166.000000</ele>
  <time>2016-07-27T17:20:19Z</time>
</trkpt>
<trkpt lat="49.997150000" lon="9.736980000">
  <ele>166.000000</ele>
  <time>2016-07-27T17:20:20Z</time>
</trkpt>
<trkpt lat="49.997130000" lon="9.737060000">
  <ele>166.000000</ele>
  <time>2016-07-27T17:20:21Z</time>
</trkpt>
<trkpt lat="49.997120000" lon="9.737140000">
  <ele>170.000000</ele>
  <time>2016-07-27T17:20:22Z</time>
</trkpt>
<trkpt lat="49.997110000" lon="9.737220000">
  <ele>170.000000</ele>
  <time>2016-07-27T17:20:23Z</time>
</trkpt>
<trkpt lat="49.997090000" lon="9.737300000">
  <ele>170.000000</ele>
  <time>2016-07-27T17:20:24Z</time>
</trkpt>
<trkpt lat="49.997070000" lon="9.737450000">
  <ele>160.000000</ele>
  <time>2016-07-27T17:20:26Z</time>
</trkpt>
<trkpt lat="49.997060000" lon="9.737530000">
  <ele>160.000000</ele>
  <time>2016-07-27T17:20:27Z</time>
</trkpt>
<trkpt lat="49.997060000" lon="9.737620000">
  <ele>160.000000</ele>
  <time>2016-07-27T17:20:28Z</time>
</trkpt>
<trkpt lat="49.997060000" lon="9.737700000">
  <ele>160.000000</ele>
  <time>2016-07-27T17:20:29Z</time>
</trkpt>
<trkpt lat="49.997050000" lon="9.737780000">
  <ele>160.000000</ele>
  <time>2016-07-27T17:20:30Z</time>
</trkpt>
<trkpt lat="49.997030000" lon="9.737870000">
  <ele>160.000000</ele>
  <time>2016-07-27T17:20:31Z</time>
</trkpt>
<trkpt lat="49.997020000" lon="9.737960000">
  <ele>159.000000</ele>
  <time>2016-07-27T17:20:32Z</time>
</trkpt>
<trkpt lat="49.997020000" lon="9.738040000">
  <ele>159.000000</ele>
  <time>2016-07-27T17:20:33Z</time>
</trkpt>
<trkpt lat="49.997000000" lon="9.738130000">
  <ele>159.000000</ele>
  <time>2016-07-27T17:20:34Z</time>
</trkpt>
<trkpt lat="49.996990000" lon="9.738200000">
  <ele>159.000000</ele>
  <time>2016-07-27T17:20:35Z</time>
</trkpt>
<trkpt lat="49.996980000" lon="9.738280000">
  <ele>159.000000</ele>
  <time>2016-07-27T17:20:36Z</time>
</trkpt>
<trkpt lat="49.996960000" lon="9.738360000">
  <ele>159.000000</ele>
  <time>2016-07-27T17:20:37Z</time>
</trkpt>
<trkpt lat="49.996950000" lon="9.738440000">
  <ele>159.000000</ele>
  <time>2016-07-27T17:20:38Z</time>
</trkpt>
<trkpt lat="49.996930000" lon="9.738510000">
  <ele>159.000000</ele>
  <time>2016-07-27T17:20:39Z</time>
</trkpt>
<trkpt lat="49.996920000" lon="9.738610000">
  <ele>159.000000</ele>
  <time>2016-07-27T17:20:40Z</time>
</trkpt>
<trkpt lat="49.996910000" lon="9.738680000">
  <ele>159.000000</ele>
  <time>2016-07-27T17:20:41Z</time>
</trkpt>
<trkpt lat="49.996900000" lon="9.738770000">
  <ele>159.000000</ele>
  <time>2016-07-27T17:20:42Z</time>
</trkpt>
<trkpt lat="49.996890000" lon="9.738840000">
  <ele>159.000000</ele>
  <time>2016-07-27T17:20:43Z</time>
</trkpt>
<trkpt lat="49.996890000" lon="9.738930000">
  <ele>159.000000</ele>
  <time>2016-07-27T17:20:44Z</time>
</trkpt>
<trkpt lat="49.996890000" lon="9.739010000">
  <ele>159.000000</ele>
  <time>2016-07-27T17:20:45Z</time>
</trkpt>
<trkpt lat="49.996870000" lon="9.739140000">
  <ele>159.000000</ele>
  <time>2016-07-27T17:20:47Z</time>
</trkpt>
<trkpt lat="49.996850000" lon="9.739220000">
  <ele>159.000000</ele>
  <time>2016-07-27T17:20:48Z</time>
</trkpt>
<trkpt lat="49.996840000" lon="9.739300000">
  <ele>159.000000</ele>
  <time>2016-07-27T17:20:49Z</time>
</trkpt>
<trkpt lat="49.996820000" lon="9.739370000">
  <ele>159.000000</ele>
  <time>2016-07-27T17:20:50Z</time>
</trkpt>
<trkpt lat="49.996810000" lon="9.739450000">
  <ele>159.000000</ele>
  <time>2016-07-27T17:20:51Z</time>
</trkpt>
<trkpt lat="49.996800000" lon="9.739520000">
  <ele>159.000000</ele>
  <time>2016-07-27T17:20:52Z</time>
</trkpt>
<trkpt lat="49.996780000" lon="9.739670000">
  <ele>160.000000</ele>
  <time>2016-07-27T17:20:54Z</time>
</trkpt>
<trkpt lat="49.996780000" lon="9.739740000">
  <ele>160.000000</ele>
  <time>2016-07-27T17:20:55Z</time>
</trkpt>
<trkpt lat="49.996760000" lon="9.739830000">
  <ele>160.000000</ele>
  <time>2016-07-27T17:20:57Z</time>
</trkpt>
<trkpt lat="49.996730000" lon="9.739930000">
  <ele>160.000000</ele>
  <time>2016-07-27T17:20:59Z</time>
</trkpt>
<trkpt lat="49.996710000" lon="9.740040000">
  <ele>160.000000</ele>
  <time>2016-07-27T17:21:01Z</time>
</trkpt>
<trkpt lat="49.996690000" lon="9.740140000">
  <ele>160.000000</ele>
  <time>2016-07-27T17:21:03Z</time>
</trkpt>
<trkpt lat="49.996680000" lon="9.740260000">
  <ele>160.000000</ele>
  <time>2016-07-27T17:21:05Z</time>
</trkpt>
<trkpt lat="49.996670000" lon="9.740370000">
  <ele>160.000000</ele>
  <time>2016-07-27T17:21:07Z</time>
</trkpt>
<trkpt lat="49.996660000" lon="9.740490000">
  <ele>161.000000</ele>
  <time>2016-07-27T17:21:09Z</time>
</trkpt>
<trkpt lat="49.996650000" lon="9.740680000">
  <ele>161.000000</ele>
  <time>2016-07-27T17:21:11Z</time>
</trkpt>
<trkpt lat="49.996630000" lon="9.740820000">
  <ele>161.000000</ele>
  <time>2016-07-27T17:21:13Z</time>
</trkpt>
<trkpt lat="49.996600000" lon="9.740930000">
  <ele>161.000000</ele>
  <time>2016-07-27T17:21:14Z</time>
</trkpt>
<trkpt lat="49.996600000" lon="9.741020000">
  <ele>161.000000</ele>
  <time>2016-07-27T17:21:15Z</time>
</trkpt>
<trkpt lat="49.996600000" lon="9.741100000">
  <ele>161.000000</ele>
  <time>2016-07-27T17:21:16Z</time>
</trkpt>
<trkpt lat="49.996590000" lon="9.741190000">
  <ele>161.000000</ele>
  <time>2016-07-27T17:21:17Z</time>
</trkpt>
<trkpt lat="49.996590000" lon="9.741280000">
  <ele>161.000000</ele>
  <time>2016-07-27T17:21:18Z</time>
</trkpt>
<trkpt lat="49.996560000" lon="9.741400000">
  <ele>161.000000</ele>
  <time>2016-07-27T17:21:19Z</time>
</trkpt>
<trkpt lat="49.996540000" lon="9.741480000">
  <ele>161.000000</ele>
  <time>2016-07-27T17:21:20Z</time>
</trkpt>
<trkpt lat="49.996530000" lon="9.741570000">
  <ele>161.000000</ele>
  <time>2016-07-27T17:21:21Z</time>
</trkpt>
<trkpt lat="49.996520000" lon="9.741640000">
  <ele>161.000000</ele>
  <time>2016-07-27T17:21:22Z</time>
</trkpt>
<trkpt lat="49.996510000" lon="9.741740000">
  <ele>161.000000</ele>
  <time>2016-07-27T17:21:23Z</time>
</trkpt>
<trkpt lat="49.996520000" lon="9.741820000">
  <ele>161.000000</ele>
  <time>2016-07-27T17:21:24Z</time>
</trkpt>
<trkpt lat="49.996520000" lon="9.741910000">
  <ele>161.000000</ele>
  <time>2016-07-27T17:21:25Z</time>
</trkpt>
<trkpt lat="49.996510000" lon="9.742010000">
  <ele>161.000000</ele>
  <time>2016-07-27T17:21:26Z</time>
</trkpt>
<trkpt lat="49.996490000" lon="9.742120000">
  <ele>161.000000</ele>
  <time>2016-07-27T17:21:27Z</time>
</trkpt>
<trkpt lat="49.996480000" lon="9.742200000">
  <ele>161.000000</ele>
  <time>2016-07-27T17:21:28Z</time>
</trkpt>
<trkpt lat="49.996470000" lon="9.742290000">
  <ele>163.000000</ele>
  <time>2016-07-27T17:21:29Z</time>
</trkpt>
<trkpt lat="49.996460000" lon="9.742380000">
  <ele>163.000000</ele>
  <time>2016-07-27T17:21:30Z</time>
</trkpt>
<trkpt lat="49.996430000" lon="9.742460000">
  <ele>163.000000</ele>
  <time>2016-07-27T17:21:31Z</time>
</trkpt>
<trkpt lat="49.996420000" lon="9.742570000">
  <ele>163.000000</ele>
  <time>2016-07-27T17:21:32Z</time>
</trkpt>
<trkpt lat="49.996410000" lon="9.742660000">
  <ele>163.000000</ele>
  <time>2016-07-27T17:21:33Z</time>
</trkpt>
<trkpt lat="49.996400000" lon="9.742740000">
  <ele>163.000000</ele>
  <time>2016-07-27T17:21:34Z</time>
</trkpt>
<trkpt lat="49.996400000" lon="9.742830000">
  <ele>163.000000</ele>
  <time>2016-07-27T17:21:35Z</time>
</trkpt>
<trkpt lat="49.996380000" lon="9.742920000">
  <ele>163.000000</ele>
  <time>2016-07-27T17:21:36Z</time>
</trkpt>
<trkpt lat="49.996380000" lon="9.743000000">
  <ele>163.000000</ele>
  <time>2016-07-27T17:21:37Z</time>
</trkpt>
<trkpt lat="49.996370000" lon="9.743080000">
  <ele>163.000000</ele>
  <time>2016-07-27T17:21:38Z</time>
</trkpt>
<trkpt lat="49.996370000" lon="9.743170000">
  <ele>166.000000</ele>
  <time>2016-07-27T17:21:39Z</time>
</trkpt>
<trkpt lat="49.996340000" lon="9.743250000">
  <ele>166.000000</ele>
  <time>2016-07-27T17:21:40Z</time>
</trkpt>
<trkpt lat="49.996330000" lon="9.743340000">
  <ele>166.000000</ele>
  <time>2016-07-27T17:21:41Z</time>
</trkpt>
<trkpt lat="49.996310000" lon="9.743420000">
  <ele>166.000000</ele>
  <time>2016-07-27T17:21:42Z</time>
</trkpt>
<trkpt lat="49.996300000" lon="9.743500000">
  <ele>166.000000</ele>
  <time>2016-07-27T17:21:43Z</time>
</trkpt>
<trkpt lat="49.996290000" lon="9.743600000">
  <ele>166.000000</ele>
  <time>2016-07-27T17:21:44Z</time>
</trkpt>
<trkpt lat="49.996280000" lon="9.743680000">
  <ele>166.000000</ele>
  <time>2016-07-27T17:21:45Z</time>
</trkpt>
<trkpt lat="49.996280000" lon="9.743770000">
  <ele>166.000000</ele>
  <time>2016-07-27T17:21:46Z</time>
</trkpt>
<trkpt lat="49.996260000" lon="9.743860000">
  <ele>166.000000</ele>
  <time>2016-07-27T17:21:47Z</time>
</trkpt>
<trkpt lat="49.996240000" lon="9.743950000">
  <ele>161.000000</ele>
  <time>2016-07-27T17:21:48Z</time>
</trkpt>
<trkpt lat="49.996230000" lon="9.744040000">
  <ele>161.000000</ele>
  <time>2016-07-27T17:21:49Z</time>
</trkpt>
<trkpt lat="49.996220000" lon="9.744140000">
  <ele>161.000000</ele>
  <time>2016-07-27T17:21:50Z</time>
</trkpt>
<trkpt lat="49.996210000" lon="9.744230000">
  <ele>161.000000</ele>
  <time>2016-07-27T17:21:51Z</time>
</trkpt>
<trkpt lat="49.996200000" lon="9.744310000">
  <ele>161.000000</ele>
  <time>2016-07-27T17:21:52Z</time>
</trkpt>
<trkpt lat="49.996180000" lon="9.744390000">
  <ele>161.000000</ele>
  <time>2016-07-27T17:21:53Z</time>
</trkpt>
<trkpt lat="49.996170000" lon="9.744470000">
  <ele>161.000000</ele>
  <time>2016-07-27T17:21:54Z</time>
</trkpt>
<trkpt lat="49.996160000" lon="9.744560000">
  <ele>161.000000</ele>
  <time>2016-07-27T17:21:55Z</time>
</trkpt>
<trkpt lat="49.996150000" lon="9.744650000">
  <ele>161.000000</ele>
  <time>2016-07-27T17:21:56Z</time>
</trkpt>
<trkpt lat="49.996140000" lon="9.744740000">
  <ele>161.000000</ele>
  <time>2016-07-27T17:21:57Z</time>
</trkpt>
<trkpt lat="49.996120000" lon="9.744830000">
  <ele>164.000000</ele>
  <time>2016-07-27T17:21:58Z</time>
</trkpt>
<trkpt lat="49.996110000" lon="9.744920000">
  <ele>164.000000</ele>
  <time>2016-07-27T17:21:59Z</time>
</trkpt>
<trkpt lat="49.996090000" lon="9.745000000">
  <ele>164.000000</ele>
  <time>2016-07-27T17:22:00Z</time>
</trkpt>
<trkpt lat="49.996080000" lon="9.745070000">
  <ele>164.000000</ele>
  <time>2016-07-27T17:22:01Z</time>
</trkpt>
<trkpt lat="49.996060000" lon="9.745160000">
  <ele>164.000000</ele>
  <time>2016-07-27T17:22:02Z</time>
</trkpt>
<trkpt lat="49.996050000" lon="9.745230000">
  <ele>164.000000</ele>
  <time>2016-07-27T17:22:03Z</time>
</trkpt>
<trkpt lat="49.996030000" lon="9.745300000">
  <ele>164.000000</ele>
  <time>2016-07-27T17:22:04Z</time>
</trkpt>
<trkpt lat="49.996020000" lon="9.745390000">
  <ele>164.000000</ele>
  <time>2016-07-27T17:22:05Z</time>
</trkpt>
<trkpt lat="49.995990000" lon="9.745470000">
  <ele>164.000000</ele>
  <time>2016-07-27T17:22:06Z</time>
</trkpt>
<trkpt lat="49.995980000" lon="9.745550000">
  <ele>164.000000</ele>
  <time>2016-07-27T17:22:07Z</time>
</trkpt>
<trkpt lat="49.995960000" lon="9.745620000">
  <ele>161.000000</ele>
  <time>2016-07-27T17:22:08Z</time>
</trkpt>
<trkpt lat="49.995950000" lon="9.745710000">
  <ele>161.000000</ele>
  <time>2016-07-27T17:22:09Z</time>
</trkpt>
<trkpt lat="49.995950000" lon="9.745790000">
  <ele>161.000000</ele>
  <time>2016-07-27T17:22:10Z</time>
</trkpt>
<trkpt lat="49.995950000" lon="9.745870000">
  <ele>161.000000</ele>
  <time>2016-07-27T17:22:11Z</time>
</trkpt>
<trkpt lat="49.995940000" lon="9.745950000">
  <ele>161.000000</ele>
  <time>2016-07-27T17:22:12Z</time>
</trkpt>
<trkpt lat="49.995910000" lon="9.746020000">
  <ele>161.000000</ele>
  <time>2016-07-27T17:22:13Z</time>
</trkpt>
<trkpt lat="49.995900000" lon="9.746130000">
  <ele>161.000000</ele>
  <time>2016-07-27T17:22:14Z</time>
</trkpt>
<trkpt lat="49.995900000" lon="9.746210000">
  <ele>161.000000</ele>
  <time>2016-07-27T17:22:15Z</time>
</trkpt>
<trkpt lat="49.995880000" lon="9.746290000">
  <ele>161.000000</ele>
  <time>2016-07-27T17:22:16Z</time>
</trkpt>
<trkpt lat="49.995870000" lon="9.746370000">
  <ele>161.000000</ele>
  <time>2016-07-27T17:22:17Z</time>
</trkpt>
<trkpt lat="49.995860000" lon="9.746460000">
  <ele>161.000000</ele>
  <time>2016-07-27T17:22:18Z</time>
</trkpt>
<trkpt lat="49.995840000" lon="9.746560000">
  <ele>161.000000</ele>
  <time>2016-07-27T17:22:19Z</time>
</trkpt>
<trkpt lat="49.995820000" lon="9.746650000">
  <ele>161.000000</ele>
  <time>2016-07-27T17:22:20Z</time>
</trkpt>
<trkpt lat="49.995800000" lon="9.746730000">
  <ele>161.000000</ele>
  <time>2016-07-27T17:22:21Z</time>
</trkpt>
<trkpt lat="49.995780000" lon="9.746820000">
  <ele>161.000000</ele>
  <time>2016-07-27T17:22:22Z</time>
</trkpt>
<trkpt lat="49.995780000" lon="9.746910000">
  <ele>161.000000</ele>
  <time>2016-07-27T17:22:23Z</time>
</trkpt>
<trkpt lat="49.995760000" lon="9.747010000">
  <ele>161.000000</ele>
  <time>2016-07-27T17:22:24Z</time>
</trkpt>
<trkpt lat="49.995740000" lon="9.747090000">
  <ele>161.000000</ele>
  <time>2016-07-27T17:22:25Z</time>
</trkpt>
<trkpt lat="49.995700000" lon="9.747240000">
  <ele>162.000000</ele>
  <time>2016-07-27T17:22:27Z</time>
</trkpt>
<trkpt lat="49.995690000" lon="9.747310000">
  <ele>162.000000</ele>
  <time>2016-07-27T17:22:28Z</time>
</trkpt>
<trkpt lat="49.995670000" lon="9.747390000">
  <ele>162.000000</ele>
  <time>2016-07-27T17:22:29Z</time>
</trkpt>
<trkpt lat="49.995660000" lon="9.747530000">
  <ele>162.000000</ele>
  <time>2016-07-27T17:22:31Z</time>
</trkpt>
<trkpt lat="49.995650000" lon="9.747630000">
  <ele>162.000000</ele>
  <time>2016-07-27T17:22:32Z</time>
</trkpt>
<trkpt lat="49.995640000" lon="9.747710000">
  <ele>162.000000</ele>
  <time>2016-07-27T17:22:33Z</time>
</trkpt>
<trkpt lat="49.995610000" lon="9.747860000">
  <ele>162.000000</ele>
  <time>2016-07-27T17:22:35Z</time>
</trkpt>
<trkpt lat="49.995590000" lon="9.747940000">
  <ele>162.000000</ele>
  <time>2016-07-27T17:22:36Z</time>
</trkpt>
<trkpt lat="49.995560000" lon="9.748000000">
  <ele>162.000000</ele>
  <time>2016-07-27T17:22:37Z</time>
</trkpt>
<trkpt lat="49.995530000" lon="9.748150000">
  <ele>164.000000</ele>
  <time>2016-07-27T17:22:39Z</time>
</trkpt>
<trkpt lat="49.995510000" lon="9.748240000">
  <ele>164.000000</ele>
  <time>2016-07-27T17:22:40Z</time>
</trkpt>
<trkpt lat="49.995490000" lon="9.748320000">
  <ele>164.000000</ele>
  <time>2016-07-27T17:22:41Z</time>
</trkpt>
<trkpt lat="49.995480000" lon="9.748430000">
  <ele>164.000000</ele>
  <time>2016-07-27T17:22:42Z</time>
</trkpt>
<trkpt lat="49.995440000" lon="9.748560000">
  <ele>164.000000</ele>
  <time>2016-07-27T17:22:44Z</time>
</trkpt>
<trkpt lat="49.995400000" lon="9.748640000">
  <ele>158.000000</ele>
  <time>2016-07-27T17:22:45Z</time>
</trkpt>
<trkpt lat="49.995390000" lon="9.748710000">
  <ele>158.000000</ele>
  <time>2016-07-27T17:22:46Z</time>
</trkpt>
<trkpt lat="49.995380000" lon="9.748790000">
  <ele>158.000000</ele>
  <time>2016-07-27T17:22:47Z</time>
</trkpt>
<trkpt lat="49.995380000" lon="9.748880000">
  <ele>159.000000</ele>
  <time>2016-07-27T17:22:48Z</time>
</trkpt>
<trkpt lat="49.995360000" lon="9.748960000">
  <ele>159.000000</ele>
  <time>2016-07-27T17:22:49Z</time>
</trkpt>
<trkpt lat="49.995300000" lon="9.749020000">
  <ele>159.000000</ele>
  <time>2016-07-27T17:22:50Z</time>
</trkpt>
<trkpt lat="49.995270000" lon="9.749090000">
  <ele>159.000000</ele>
  <time>2016-07-27T17:22:51Z</time>
</trkpt>
<trkpt lat="49.995250000" lon="9.749200000">
  <ele>159.000000</ele>
  <time>2016-07-27T17:22:53Z</time>
</trkpt>
<trkpt lat="49.995220000" lon="9.749270000">
  <ele>159.000000</ele>
  <time>2016-07-27T17:22:54Z</time>
</trkpt>
<trkpt lat="49.995190000" lon="9.749340000">
  <ele>159.000000</ele>
  <time>2016-07-27T17:22:55Z</time>
</trkpt>
<trkpt lat="49.995180000" lon="9.749440000">
  <ele>159.000000</ele>
  <time>2016-07-27T17:22:56Z</time>
</trkpt>
<trkpt lat="49.995150000" lon="9.749520000">
  <ele>159.000000</ele>
  <time>2016-07-27T17:22:57Z</time>
</trkpt>
<trkpt lat="49.995120000" lon="9.749600000">
  <ele>161.000000</ele>
  <time>2016-07-27T17:22:58Z</time>
</trkpt>
<trkpt lat="49.995070000" lon="9.749690000">
  <ele>161.000000</ele>
  <time>2016-07-27T17:23:00Z</time>
</trkpt>
<trkpt lat="49.995050000" lon="9.749760000">
  <ele>161.000000</ele>
  <time>2016-07-27T17:23:01Z</time>
</trkpt>
<trkpt lat="49.995010000" lon="9.749870000">
  <ele>161.000000</ele>
  <time>2016-07-27T17:23:03Z</time>
</trkpt>
<trkpt lat="49.994980000" lon="9.749990000">
  <ele>161.000000</ele>
  <time>2016-07-27T17:23:05Z</time>
</trkpt>
<trkpt lat="49.994950000" lon="9.750050000">
  <ele>161.000000</ele>
  <time>2016-07-27T17:23:06Z</time>
</trkpt>
<trkpt lat="49.994950000" lon="9.750150000">
  <ele>161.000000</ele>
  <time>2016-07-27T17:23:07Z</time>
</trkpt>
<trkpt lat="49.994910000" lon="9.750300000">
  <ele>161.000000</ele>
  <time>2016-07-27T17:23:09Z</time>
</trkpt>
<trkpt lat="49.994890000" lon="9.750360000">
  <ele>161.000000</ele>
  <time>2016-07-27T17:23:10Z</time>
</trkpt>
<trkpt lat="49.994880000" lon="9.750480000">
  <ele>161.000000</ele>
  <time>2016-07-27T17:23:12Z</time>
</trkpt>
<trkpt lat="49.994860000" lon="9.750550000">
  <ele>161.000000</ele>
  <time>2016-07-27T17:23:13Z</time>
</trkpt>
<trkpt lat="49.994850000" lon="9.750620000">
  <ele>166.000000</ele>
  <time>2016-07-27T17:23:14Z</time>
</trkpt>
<trkpt lat="49.994840000" lon="9.750740000">
  <ele>166.000000</ele>
  <time>2016-07-27T17:23:16Z</time>
</trkpt>
<trkpt lat="49.994790000" lon="9.750870000">
  <ele>166.000000</ele>
  <time>2016-07-27T17:23:18Z</time>
</trkpt>
<trkpt lat="49.994750000" lon="9.750950000">
  <ele>166.000000</ele>
  <time>2016-07-27T17:23:19Z</time>
</trkpt>
<trkpt lat="49.994730000" lon="9.751010000">
  <ele>166.000000</ele>
  <time>2016-07-27T17:23:20Z</time>
</trkpt>
<trkpt lat="49.994700000" lon="9.751080000">
  <ele>166.000000</ele>
  <time>2016-07-27T17:23:21Z</time>
</trkpt>
<trkpt lat="49.994670000" lon="9.751160000">
  <ele>166.000000</ele>
  <time>2016-07-27T17:23:22Z</time>
</trkpt>
<trkpt lat="49.994660000" lon="9.751240000">
  <ele>166.000000</ele>
  <time>2016-07-27T17:23:23Z</time>
</trkpt>
<trkpt lat="49.994630000" lon="9.751360000">
  <ele>166.000000</ele>
  <time>2016-07-27T17:23:25Z</time>
</trkpt>
<trkpt lat="49.994590000" lon="9.751500000">
  <ele>172.000000</ele>
  <time>2016-07-27T17:23:27Z</time>
</trkpt>
<trkpt lat="49.994570000" lon="9.751580000">
  <ele>172.000000</ele>
  <time>2016-07-27T17:23:28Z</time>
</trkpt>
<trkpt lat="49.994540000" lon="9.751640000">
  <ele>163.000000</ele>
  <time>2016-07-27T17:23:29Z</time>
</trkpt>
<trkpt lat="49.994510000" lon="9.751710000">
  <ele>163.000000</ele>
  <time>2016-07-27T17:23:30Z</time>
</trkpt>
<trkpt lat="49.994500000" lon="9.751780000">
  <ele>163.000000</ele>
  <time>2016-07-27T17:23:31Z</time>
</trkpt>
<trkpt lat="49.994480000" lon="9.751840000">
  <ele>163.000000</ele>
  <time>2016-07-27T17:23:32Z</time>
</trkpt>
<trkpt lat="49.994450000" lon="9.751910000">
  <ele>163.000000</ele>
  <time>2016-07-27T17:23:33Z</time>
</trkpt>
<trkpt lat="49.994410000" lon="9.751970000">
  <ele>163.000000</ele>
  <time>2016-07-27T17:23:34Z</time>
</trkpt>
<trkpt lat="49.994390000" lon="9.752030000">
  <ele>163.000000</ele>
  <time>2016-07-27T17:23:35Z</time>
</trkpt>
<trkpt lat="49.994360000" lon="9.752110000">
  <ele>162.000000</ele>
  <time>2016-07-27T17:23:36Z</time>
</trkpt>
<trkpt lat="49.994340000" lon="9.752190000">
  <ele>162.000000</ele>
  <time>2016-07-27T17:23:37Z</time>
</trkpt>
<trkpt lat="49.994280000" lon="9.752300000">
  <ele>162.000000</ele>
  <time>2016-07-27T17:23:39Z</time>
</trkpt>
<trkpt lat="49.994260000" lon="9.752380000">
  <ele>162.000000</ele>
  <time>2016-07-27T17:23:40Z</time>
</trkpt>
<trkpt lat="49.994230000" lon="9.752500000">
  <ele>162.000000</ele>
  <time>2016-07-27T17:23:42Z</time>
</trkpt>
<trkpt lat="49.994180000" lon="9.752610000">
  <ele>162.000000</ele>
  <time>2016-07-27T17:23:44Z</time>
</trkpt>
<trkpt lat="49.994150000" lon="9.752730000">
  <ele>162.000000</ele>
  <time>2016-07-27T17:23:46Z</time>
</trkpt>
<trkpt lat="49.994120000" lon="9.752830000">
  <ele>162.000000</ele>
  <time>2016-07-27T17:23:47Z</time>
</trkpt>
<trkpt lat="49.994080000" lon="9.752890000">
  <ele>162.000000</ele>
  <time>2016-07-27T17:23:48Z</time>
</trkpt>
<trkpt lat="49.994050000" lon="9.752960000">
  <ele>162.000000</ele>
  <time>2016-07-27T17:23:49Z</time>
</trkpt>
<trkpt lat="49.994010000" lon="9.753020000">
  <ele>162.000000</ele>
  <time>2016-07-27T17:23:50Z</time>
</trkpt>
<trkpt lat="49.993970000" lon="9.753150000">
  <ele>168.000000</ele>
  <time>2016-07-27T17:23:51Z</time>
</trkpt>
<trkpt lat="49.993930000" lon="9.753230000">
  <ele>168.000000</ele>
  <time>2016-07-27T17:23:52Z</time>
</trkpt>
<trkpt lat="49.993880000" lon="9.753330000">
  <ele>168.000000</ele>
  <time>2016-07-27T17:23:53Z</time>
</trkpt>
<trkpt lat="49.993840000" lon="9.753430000">
  <ele>168.000000</ele>
  <time>2016-07-27T17:23:54Z</time>
</trkpt>
<trkpt lat="49.993800000" lon="9.753510000">
  <ele>168.000000</ele>
  <time>2016-07-27T17:23:55Z</time>
</trkpt>
<trkpt lat="49.993760000" lon="9.753600000">
  <ele>168.000000</ele>
  <time>2016-07-27T17:23:56Z</time>
</trkpt>
<trkpt lat="49.993710000" lon="9.753700000">
  <ele>168.000000</ele>
  <time>2016-07-27T17:23:57Z</time>
</trkpt>
<trkpt lat="49.993670000" lon="9.753790000">
  <ele>160.000000</ele>
  <time>2016-07-27T17:23:58Z</time>
</trkpt>
<trkpt lat="49.993630000" lon="9.753880000">
  <ele>160.000000</ele>
  <time>2016-07-27T17:23:59Z</time>
</trkpt>
<trkpt lat="49.993580000" lon="9.753970000">
  <ele>160.000000</ele>
  <time>2016-07-27T17:24:00Z</time>
</trkpt>
<trkpt lat="49.993540000" lon="9.754050000">
  <ele>160.000000</ele>
  <time>2016-07-27T17:24:01Z</time>
</trkpt>
<trkpt lat="49.993490000" lon="9.754130000">
  <ele>160.000000</ele>
  <time>2016-07-27T17:24:02Z</time>
</trkpt>
<trkpt lat="49.993450000" lon="9.754230000">
  <ele>160.000000</ele>
  <time>2016-07-27T17:24:03Z</time>
</trkpt>
<trkpt lat="49.993420000" lon="9.754320000">
  <ele>160.000000</ele>
  <time>2016-07-27T17:24:04Z</time>
</trkpt>
<trkpt lat="49.993370000" lon="9.754430000">
  <ele>160.000000</ele>
  <time>2016-07-27T17:24:05Z</time>
</trkpt>
<trkpt lat="49.993330000" lon="9.754500000">
  <ele>160.000000</ele>
  <time>2016-07-27T17:24:06Z</time>
</trkpt>
<trkpt lat="49.993280000" lon="9.754570000">
  <ele>160.000000</ele>
  <time>2016-07-27T17:24:07Z</time>
</trkpt>
<trkpt lat="49.993240000" lon="9.754640000">
  <ele>160.000000</ele>
  <time>2016-07-27T17:24:08Z</time>
</trkpt>
<trkpt lat="49.993180000" lon="9.754710000">
  <ele>163.000000</ele>
  <time>2016-07-27T17:24:09Z</time>
</trkpt>
<trkpt lat="49.993150000" lon="9.754780000">
  <ele>163.000000</ele>
  <time>2016-07-27T17:24:10Z</time>
</trkpt>
<trkpt lat="49.993120000" lon="9.754860000">
  <ele>163.000000</ele>
  <time>2016-07-27T17:24:11Z</time>
</trkpt>
<trkpt lat="49.993090000" lon="9.754950000">
  <ele>163.000000</ele>
  <time>2016-07-27T17:24:12Z</time>
</trkpt>
<trkpt lat="49.993050000" lon="9.755050000">
  <ele>163.000000</ele>
  <time>2016-07-27T17:24:13Z</time>
</trkpt>
<trkpt lat="49.992990000" lon="9.755130000">
  <ele>163.000000</ele>
  <time>2016-07-27T17:24:14Z</time>
</trkpt>
<trkpt lat="49.992970000" lon="9.755200000">
  <ele>163.000000</ele>
  <time>2016-07-27T17:24:15Z</time>
</trkpt>
<trkpt lat="49.992930000" lon="9.755270000">
  <ele>163.000000</ele>
  <time>2016-07-27T17:24:16Z</time>
</trkpt>
<trkpt lat="49.992900000" lon="9.755350000">
  <ele>163.000000</ele>
  <time>2016-07-27T17:24:17Z</time>
</trkpt>
<trkpt lat="49.992860000" lon="9.755410000">
  <ele>163.000000</ele>
  <time>2016-07-27T17:24:18Z</time>
</trkpt>
<trkpt lat="49.992830000" lon="9.755480000">
  <ele>163.000000</ele>
  <time>2016-07-27T17:24:19Z</time>
</trkpt>
<trkpt lat="49.992790000" lon="9.755570000">
  <ele>163.000000</ele>
  <time>2016-07-27T17:24:20Z</time>
</trkpt>
<trkpt lat="49.992730000" lon="9.755660000">
  <ele>159.000000</ele>
  <time>2016-07-27T17:24:21Z</time>
</trkpt>
<trkpt lat="49.992690000" lon="9.755750000">
  <ele>159.000000</ele>
  <time>2016-07-27T17:24:22Z</time>
</trkpt>
<trkpt lat="49.992650000" lon="9.755790000">
  <ele>159.000000</ele>
  <time>2016-07-27T17:24:23Z</time>
</trkpt>
<trkpt lat="49.992600000" lon="9.755900000">
  <ele>159.000000</ele>
  <time>2016-07-27T17:24:25Z</time>
</trkpt>
<trkpt lat="49.992580000" lon="9.755960000">
  <ele>159.000000</ele>
  <time>2016-07-27T17:24:26Z</time>
</trkpt>
<trkpt lat="49.992550000" lon="9.756030000">
  <ele>159.000000</ele>
  <time>2016-07-27T17:24:27Z</time>
</trkpt>
<trkpt lat="49.992480000" lon="9.756110000">
  <ele>159.000000</ele>
  <time>2016-07-27T17:24:28Z</time>
</trkpt>
<trkpt lat="49.992440000" lon="9.756180000">
  <ele>159.000000</ele>
  <time>2016-07-27T17:24:29Z</time>
</trkpt>
<trkpt lat="49.992410000" lon="9.756250000">
  <ele>159.000000</ele>
  <time>2016-07-27T17:24:30Z</time>
</trkpt>
<trkpt lat="49.992380000" lon="9.756320000">
  <ele>159.000000</ele>
  <time>2016-07-27T17:24:31Z</time>
</trkpt>
<trkpt lat="49.992320000" lon="9.756420000">
  <ele>159.000000</ele>
  <time>2016-07-27T17:24:32Z</time>
</trkpt>
<trkpt lat="49.992280000" lon="9.756490000">
  <ele>167.000000</ele>
  <time>2016-07-27T17:24:33Z</time>
</trkpt>
<trkpt lat="49.992230000" lon="9.756560000">
  <ele>167.000000</ele>
  <time>2016-07-27T17:24:34Z</time>
</trkpt>
<trkpt lat="49.992190000" lon="9.756630000">
  <ele>167.000000</ele>
  <time>2016-07-27T17:24:35Z</time>
</trkpt>
<trkpt lat="49.992150000" lon="9.756710000">
  <ele>167.000000</ele>
  <time>2016-07-27T17:24:36Z</time>
</trkpt>
<trkpt lat="49.992100000" lon="9.756780000">
  <ele>167.000000</ele>
  <time>2016-07-27T17:24:37Z</time>
</trkpt>
<trkpt lat="49.992060000" lon="9.756850000">
  <ele>167.000000</ele>
  <time>2016-07-27T17:24:38Z</time>
</trkpt>
<trkpt lat="49.992020000" lon="9.756910000">
  <ele>161.000000</ele>
  <time>2016-07-27T17:24:39Z</time>
</trkpt>
<trkpt lat="49.991970000" lon="9.756980000">
  <ele>161.000000</ele>
  <time>2016-07-27T17:24:40Z</time>
</trkpt>
<trkpt lat="49.991910000" lon="9.757060000">
  <ele>161.000000</ele>
  <time>2016-07-27T17:24:42Z</time>
</trkpt>
<trkpt lat="49.991870000" lon="9.757130000">
  <ele>161.000000</ele>
  <time>2016-07-27T17:24:44Z</time>
</trkpt>
<trkpt lat="49.991800000" lon="9.757170000">
  <ele>161.000000</ele>
  <time>2016-07-27T17:24:45Z</time>
</trkpt>
<trkpt lat="49.991720000" lon="9.757310000">
  <ele>164.000000</ele>
  <time>2016-07-27T17:24:47Z</time>
</trkpt>
<trkpt lat="49.991670000" lon="9.757390000">
  <ele>164.000000</ele>
  <time>2016-07-27T17:24:48Z</time>
</trkpt>
<trkpt lat="49.991610000" lon="9.757450000">
  <ele>164.000000</ele>
  <time>2016-07-27T17:24:49Z</time>
</trkpt>
<trkpt lat="49.991560000" lon="9.757500000">
  <ele>164.000000</ele>
  <time>2016-07-27T17:24:50Z</time>
</trkpt>
<trkpt lat="49.991510000" lon="9.757560000">
  <ele>164.000000</ele>
  <time>2016-07-27T17:24:51Z</time>
</trkpt>
<trkpt lat="49.991470000" lon="9.757630000">
  <ele>164.000000</ele>
  <time>2016-07-27T17:24:52Z</time>
</trkpt>
<trkpt lat="49.991420000" lon="9.757700000">
  <ele>164.000000</ele>
  <time>2016-07-27T17:24:53Z</time>
</trkpt>
<trkpt lat="49.991390000" lon="9.757790000">
  <ele>164.000000</ele>
  <time>2016-07-27T17:24:54Z</time>
</trkpt>
<trkpt lat="49.991340000" lon="9.757850000">
  <ele>164.000000</ele>
  <time>2016-07-27T17:24:55Z</time>
</trkpt>
<trkpt lat="49.991300000" lon="9.757930000">
  <ele>164.000000</ele>
  <time>2016-07-27T17:24:56Z</time>
</trkpt>
<trkpt lat="49.991260000" lon="9.757990000">
  <ele>164.000000</ele>
  <time>2016-07-27T17:24:57Z</time>
</trkpt>
<trkpt lat="49.991190000" lon="9.758060000">
  <ele>169.000000</ele>
  <time>2016-07-27T17:24:58Z</time>
</trkpt>
<trkpt lat="49.991150000" lon="9.758110000">
  <ele>169.000000</ele>
  <time>2016-07-27T17:24:59Z</time>
</trkpt>
<trkpt lat="49.991100000" lon="9.758170000">
  <ele>160.000000</ele>
  <time>2016-07-27T17:25:00Z</time>
</trkpt>
<trkpt lat="49.991060000" lon="9.758220000">
  <ele>160.000000</ele>
  <time>2016-07-27T17:25:01Z</time>
</trkpt>
<trkpt lat="49.991020000" lon="9.758290000">
  <ele>160.000000</ele>
  <time>2016-07-27T17:25:02Z</time>
</trkpt>
<trkpt lat="49.990980000" lon="9.758340000">
  <ele>160.000000</ele>
  <time>2016-07-27T17:25:03Z</time>
</trkpt>
<trkpt lat="49.990910000" lon="9.758450000">
  <ele>160.000000</ele>
  <time>2016-07-27T17:25:05Z</time>
</trkpt>
<trkpt lat="49.990850000" lon="9.758500000">
  <ele>160.000000</ele>
  <time>2016-07-27T17:25:06Z</time>
</trkpt>
<trkpt lat="49.990800000" lon="9.758560000">
  <ele>160.000000</ele>
  <time>2016-07-27T17:25:07Z</time>
</trkpt>
<trkpt lat="49.990760000" lon="9.758620000">
  <ele>160.000000</ele>
  <time>2016-07-27T17:25:08Z</time>
</trkpt>
<trkpt lat="49.990720000" lon="9.758660000">
  <ele>160.000000</ele>
  <time>2016-07-27T17:25:09Z</time>
</trkpt>
<trkpt lat="49.990660000" lon="9.758720000">
  <ele>160.000000</ele>
  <time>2016-07-27T17:25:10Z</time>
</trkpt>
<trkpt lat="49.990610000" lon="9.758780000">
  <ele>160.000000</ele>
  <time>2016-07-27T17:25:11Z</time>
</trkpt>
<trkpt lat="49.990570000" lon="9.758850000">
  <ele>160.000000</ele>
  <time>2016-07-27T17:25:12Z</time>
</trkpt>
<trkpt lat="49.990510000" lon="9.758930000">
  <ele>165.000000</ele>
  <time>2016-07-27T17:25:13Z</time>
</trkpt>
<trkpt lat="49.990470000" lon="9.758980000">
  <ele>165.000000</ele>
  <time>2016-07-27T17:25:14Z</time>
</trkpt>
<trkpt lat="49.990440000" lon="9.759030000">
  <ele>165.000000</ele>
  <time>2016-07-27T17:25:15Z</time>
</trkpt>
<trkpt lat="49.990410000" lon="9.759080000">
  <ele>165.000000</ele>
  <time>2016-07-27T17:25:16Z</time>
</trkpt>
<trkpt lat="49.990370000" lon="9.759120000">
  <ele>165.000000</ele>
  <time>2016-07-27T17:25:17Z</time>
</trkpt>
<trkpt lat="49.990300000" lon="9.759220000">
  <ele>165.000000</ele>
  <time>2016-07-27T17:25:19Z</time>
</trkpt>
<trkpt lat="49.990260000" lon="9.759280000">
  <ele>160.000000</ele>
  <time>2016-07-27T17:25:20Z</time>
</trkpt>
<trkpt lat="49.990210000" lon="9.759370000">
  <ele>160.000000</ele>
  <time>2016-07-27T17:25:21Z</time>
</trkpt>
<trkpt lat="49.990180000" lon="9.759420000">
  <ele>160.000000</ele>
  <time>2016-07-27T17:25:22Z</time>
</trkpt>
<trkpt lat="49.990120000" lon="9.759480000">
  <ele>160.000000</ele>
  <time>2016-07-27T17:25:23Z</time>
</trkpt>
<trkpt lat="49.990070000" lon="9.759540000">
  <ele>160.000000</ele>
  <time>2016-07-27T17:25:24Z</time>
</trkpt>
<trkpt lat="49.990000000" lon="9.759610000">
  <ele>160.000000</ele>
  <time>2016-07-27T17:25:26Z</time>
</trkpt>
<trkpt lat="49.989970000" lon="9.759670000">
  <ele>166.000000</ele>
  <time>2016-07-27T17:25:27Z</time>
</trkpt>
<trkpt lat="49.989900000" lon="9.759710000">
  <ele>166.000000</ele>
  <time>2016-07-27T17:25:29Z</time>
</trkpt>
<trkpt lat="49.989860000" lon="9.759760000">
  <ele>166.000000</ele>
  <time>2016-07-27T17:25:30Z</time>
</trkpt>
<trkpt lat="49.989800000" lon="9.759820000">
  <ele>166.000000</ele>
  <time>2016-07-27T17:25:31Z</time>
</trkpt>
<trkpt lat="49.989760000" lon="9.759890000">
  <ele>166.000000</ele>
  <time>2016-07-27T17:25:32Z</time>
</trkpt>
<trkpt lat="49.989720000" lon="9.759940000">
  <ele>166.000000</ele>
  <time>2016-07-27T17:25:33Z</time>
</trkpt>
<trkpt lat="49.989640000" lon="9.759980000">
  <ele>166.000000</ele>
  <time>2016-07-27T17:25:34Z</time>
</trkpt>
<trkpt lat="49.989590000" lon="9.760040000">
  <ele>166.000000</ele>
  <time>2016-07-27T17:25:35Z</time>
</trkpt>
<trkpt lat="49.989500000" lon="9.760110000">
  <ele>163.000000</ele>
  <time>2016-07-27T17:25:37Z</time>
</trkpt>
<trkpt lat="49.989450000" lon="9.760150000">
  <ele>163.000000</ele>
  <time>2016-07-27T17:25:38Z</time>
</trkpt>
<trkpt lat="49.989370000" lon="9.760310000">
  <ele>163.000000</ele>
  <time>2016-07-27T17:25:40Z</time>
</trkpt>
<trkpt lat="49.989310000" lon="9.760350000">
  <ele>163.000000</ele>
  <time>2016-07-27T17:25:41Z</time>
</trkpt>
<trkpt lat="49.989240000" lon="9.760450000">
  <ele>163.000000</ele>
  <time>2016-07-27T17:25:43Z</time>
</trkpt>
<trkpt lat="49.989200000" lon="9.760500000">
  <ele>163.000000</ele>
  <time>2016-07-27T17:25:44Z</time>
</trkpt>
<trkpt lat="49.989150000" lon="9.760530000">
  <ele>163.000000</ele>
  <time>2016-07-27T17:25:45Z</time>
</trkpt>
<trkpt lat="49.989090000" lon="9.760520000">
  <ele>163.000000</ele>
  <time>2016-07-27T17:25:46Z</time>
</trkpt>
<trkpt lat="49.989030000" lon="9.760510000">
  <ele>165.000000</ele>
  <time>2016-07-27T17:25:47Z</time>
</trkpt>
<trkpt lat="49.988960000" lon="9.760500000">
  <ele>165.000000</ele>
  <time>2016-07-27T17:25:49Z</time>
</trkpt>
<trkpt lat="49.988890000" lon="9.760540000">
  <ele>165.000000</ele>
  <time>2016-07-27T17:25:51Z</time>
</trkpt>
<trkpt lat="49.988840000" lon="9.760560000">
  <ele>165.000000</ele>
  <time>2016-07-27T17:25:53Z</time>
</trkpt>
<trkpt lat="49.988770000" lon="9.760600000">
  <ele>165.000000</ele>
  <time>2016-07-27T17:25:55Z</time>
</trkpt>
<trkpt lat="49.988720000" lon="9.760640000">
  <ele>165.000000</ele>
  <time>2016-07-27T17:25:56Z</time>
</trkpt>
<trkpt lat="49.988640000" lon="9.760650000">
  <ele>165.000000</ele>
  <time>2016-07-27T17:25:58Z</time>
</trkpt>
<trkpt lat="49.988580000" lon="9.760720000">
  <ele>165.000000</ele>
  <time>2016-07-27T17:26:00Z</time>
</trkpt>
<trkpt lat="49.988490000" lon="9.760800000">
  <ele>164.000000</ele>
  <time>2016-07-27T17:26:02Z</time>
</trkpt>
<trkpt lat="49.988450000" lon="9.760820000">
  <ele>164.000000</ele>
  <time>2016-07-27T17:26:03Z</time>
</trkpt>
<trkpt lat="49.988390000" lon="9.760870000">
  <ele>164.000000</ele>
  <time>2016-07-27T17:26:04Z</time>
</trkpt>
<trkpt lat="49.988340000" lon="9.760900000">
  <ele>164.000000</ele>
  <time>2016-07-27T17:26:05Z</time>
</trkpt>
<trkpt lat="49.988300000" lon="9.760950000">
  <ele>164.000000</ele>
  <time>2016-07-27T17:26:06Z</time>
</trkpt>
<trkpt lat="49.988260000" lon="9.760980000">
  <ele>164.000000</ele>
  <time>2016-07-27T17:26:07Z</time>
</trkpt>
<trkpt lat="49.988200000" lon="9.761020000">
  <ele>164.000000</ele>
  <time>2016-07-27T17:26:08Z</time>
</trkpt>
<trkpt lat="49.988150000" lon="9.761070000">
  <ele>164.000000</ele>
  <time>2016-07-27T17:26:09Z</time>
</trkpt>
<trkpt lat="49.988100000" lon="9.761140000">
  <ele>164.000000</ele>
  <time>2016-07-27T17:26:10Z</time>
</trkpt>
<trkpt lat="49.988050000" lon="9.761200000">
  <ele>164.000000</ele>
  <time>2016-07-27T17:26:11Z</time>
</trkpt>
<trkpt lat="49.988000000" lon="9.761260000">
  <ele>164.000000</ele>
  <time>2016-07-27T17:26:12Z</time>
</trkpt>
<trkpt lat="49.987950000" lon="9.761320000">
  <ele>164.000000</ele>
  <time>2016-07-27T17:26:13Z</time>
</trkpt>
<trkpt lat="49.987900000" lon="9.761350000">
  <ele>163.000000</ele>
  <time>2016-07-27T17:26:14Z</time>
</trkpt>
<trkpt lat="49.987860000" lon="9.761390000">
  <ele>163.000000</ele>
  <time>2016-07-27T17:26:15Z</time>
</trkpt>
<trkpt lat="49.987800000" lon="9.761430000">
  <ele>163.000000</ele>
  <time>2016-07-27T17:26:16Z</time>
</trkpt>
<trkpt lat="49.987750000" lon="9.761450000">
  <ele>159.000000</ele>
  <time>2016-07-27T17:26:17Z</time>
</trkpt>
<trkpt lat="49.987700000" lon="9.761490000">
  <ele>159.000000</ele>
  <time>2016-07-27T17:26:18Z</time>
</trkpt>
<trkpt lat="49.987650000" lon="9.761520000">
  <ele>159.000000</ele>
  <time>2016-07-27T17:26:19Z</time>
</trkpt>
<trkpt lat="49.987600000" lon="9.761520000">
  <ele>159.000000</ele>
  <time>2016-07-27T17:26:20Z</time>
</trkpt>
<trkpt lat="49.987560000" lon="9.761560000">
  <ele>159.000000</ele>
  <time>2016-07-27T17:26:21Z</time>
</trkpt>
<trkpt lat="49.987520000" lon="9.761590000">
  <ele>159.000000</ele>
  <time>2016-07-27T17:26:22Z</time>
</trkpt>
<trkpt lat="49.987460000" lon="9.761630000">
  <ele>159.000000</ele>
  <time>2016-07-27T17:26:23Z</time>
</trkpt>
<trkpt lat="49.987420000" lon="9.761680000">
  <ele>159.000000</ele>
  <time>2016-07-27T17:26:24Z</time>
</trkpt>
<trkpt lat="49.987370000" lon="9.761730000">
  <ele>159.000000</ele>
  <time>2016-07-27T17:26:25Z</time>
</trkpt>
<trkpt lat="49.987310000" lon="9.761770000">
  <ele>159.000000</ele>
  <time>2016-07-27T17:26:26Z</time>
</trkpt>
<trkpt lat="49.987270000" lon="9.761810000">
  <ele>159.000000</ele>
  <time>2016-07-27T17:26:27Z</time>
</trkpt>
<trkpt lat="49.987210000" lon="9.761830000">
  <ele>159.000000</ele>
  <time>2016-07-27T17:26:28Z</time>
</trkpt>
<trkpt lat="49.987160000" lon="9.761870000">
  <ele>159.000000</ele>
  <time>2016-07-27T17:26:29Z</time>
</trkpt>
<trkpt lat="49.987090000" lon="9.761930000">
  <ele>159.000000</ele>
  <time>2016-07-27T17:26:31Z</time>
</trkpt>
<trkpt lat="49.987040000" lon="9.761970000">
  <ele>159.000000</ele>
  <time>2016-07-27T17:26:32Z</time>
</trkpt>
<trkpt lat="49.986940000" lon="9.762050000">
  <ele>164.000000</ele>
  <time>2016-07-27T17:26:34Z</time>
</trkpt>
<trkpt lat="49.986900000" lon="9.762130000">
  <ele>164.000000</ele>
  <time>2016-07-27T17:26:35Z</time>
</trkpt>
<trkpt lat="49.986850000" lon="9.762180000">
  <ele>164.000000</ele>
  <time>2016-07-27T17:26:36Z</time>
</trkpt>
<trkpt lat="49.986800000" lon="9.762220000">
  <ele>161.000000</ele>
  <time>2016-07-27T17:26:37Z</time>
</trkpt>
<trkpt lat="49.986720000" lon="9.762260000">
  <ele>161.000000</ele>
  <time>2016-07-27T17:26:39Z</time>
</trkpt>
<trkpt lat="49.986650000" lon="9.762250000">
  <ele>161.000000</ele>
  <time>2016-07-27T17:26:40Z</time>
</trkpt>
<trkpt lat="49.986600000" lon="9.762260000">
  <ele>161.000000</ele>
  <time>2016-07-27T17:26:41Z</time>
</trkpt>
<trkpt lat="49.986550000" lon="9.762270000">
  <ele>161.000000</ele>
  <time>2016-07-27T17:26:42Z</time>
</trkpt>
<trkpt lat="49.986500000" lon="9.762280000">
  <ele>161.000000</ele>
  <time>2016-07-27T17:26:43Z</time>
</trkpt>
<trkpt lat="49.986430000" lon="9.762320000">
  <ele>161.000000</ele>
  <time>2016-07-27T17:26:45Z</time>
</trkpt>
<trkpt lat="49.986370000" lon="9.762350000">
  <ele>161.000000</ele>
  <time>2016-07-27T17:26:46Z</time>
</trkpt>
<trkpt lat="49.986330000" lon="9.762380000">
  <ele>161.000000</ele>
  <time>2016-07-27T17:26:47Z</time>
</trkpt>
<trkpt lat="49.986280000" lon="9.762360000">
  <ele>161.000000</ele>
  <time>2016-07-27T17:26:48Z</time>
</trkpt>
<trkpt lat="49.986230000" lon="9.762420000">
  <ele>161.000000</ele>
  <time>2016-07-27T17:26:49Z</time>
</trkpt>
<trkpt lat="49.986180000" lon="9.762450000">
  <ele>161.000000</ele>
  <time>2016-07-27T17:26:50Z</time>
</trkpt>
<trkpt lat="49.986140000" lon="9.762550000">
  <ele>160.000000</ele>
  <time>2016-07-27T17:26:51Z</time>
</trkpt>
<trkpt lat="49.986090000" lon="9.762580000">
  <ele>160.000000</ele>
  <time>2016-07-27T17:26:52Z</time>
</trkpt>
<trkpt lat="49.986040000" lon="9.762600000">
  <ele>160.000000</ele>
  <time>2016-07-27T17:26:53Z</time>
</trkpt>
<trkpt lat="49.985990000" lon="9.762620000">
  <ele>160.000000</ele>
  <time>2016-07-27T17:26:54Z</time>
</trkpt>
<trkpt lat="49.985940000" lon="9.762670000">
  <ele>160.000000</ele>
  <time>2016-07-27T17:26:55Z</time>
</trkpt>
<trkpt lat="49.985880000" lon="9.762710000">
  <ele>160.000000</ele>
  <time>2016-07-27T17:26:56Z</time>
</trkpt>
<trkpt lat="49.985830000" lon="9.762740000">
  <ele>160.000000</ele>
  <time>2016-07-27T17:26:57Z</time>
</trkpt>
<trkpt lat="49.985750000" lon="9.762770000">
  <ele>160.000000</ele>
  <time>2016-07-27T17:26:59Z</time>
</trkpt>
<trkpt lat="49.985700000" lon="9.762800000">
  <ele>160.000000</ele>
  <time>2016-07-27T17:27:00Z</time>
</trkpt>
<trkpt lat="49.985650000" lon="9.762840000">
  <ele>160.000000</ele>
  <time>2016-07-27T17:27:01Z</time>
</trkpt>
<trkpt lat="49.985590000" lon="9.762850000">
  <ele>160.000000</ele>
  <time>2016-07-27T17:27:02Z</time>
</trkpt>
<trkpt lat="49.985550000" lon="9.762860000">
  <ele>160.000000</ele>
  <time>2016-07-27T17:27:03Z</time>
</trkpt>
<trkpt lat="49.985460000" lon="9.762850000">
  <ele>160.000000</ele>
  <time>2016-07-27T17:27:05Z</time>
</trkpt>
<trkpt lat="49.985410000" lon="9.762870000">
  <ele>160.000000</ele>
  <time>2016-07-27T17:27:06Z</time>
</trkpt>
<trkpt lat="49.985360000" lon="9.762880000">
  <ele>160.000000</ele>
  <time>2016-07-27T17:27:07Z</time>
</trkpt>
<trkpt lat="49.985310000" lon="9.762900000">
  <ele>160.000000</ele>
  <time>2016-07-27T17:27:08Z</time>
</trkpt>
<trkpt lat="49.985230000" lon="9.762940000">
  <ele>161.000000</ele>
  <time>2016-07-27T17:27:10Z</time>
</trkpt>
<trkpt lat="49.985160000" lon="9.762990000">
  <ele>161.000000</ele>
  <time>2016-07-27T17:27:11Z</time>
</trkpt>
<trkpt lat="49.985110000" lon="9.763020000">
  <ele>161.000000</ele>
  <time>2016-07-27T17:27:12Z</time>
</trkpt>
<trkpt lat="49.985050000" lon="9.763090000">
  <ele>161.000000</ele>
  <time>2016-07-27T17:27:13Z</time>
</trkpt>
<trkpt lat="49.985010000" lon="9.763130000">
  <ele>161.000000</ele>
  <time>2016-07-27T17:27:14Z</time>
</trkpt>
<trkpt lat="49.984950000" lon="9.763190000">
  <ele>161.000000</ele>
  <time>2016-07-27T17:27:15Z</time>
</trkpt>
<trkpt lat="49.984910000" lon="9.763220000">
  <ele>161.000000</ele>
  <time>2016-07-27T17:27:16Z</time>
</trkpt>
<trkpt lat="49.984850000" lon="9.763240000">
  <ele>161.000000</ele>
  <time>2016-07-27T17:27:17Z</time>
</trkpt>
<trkpt lat="49.984800000" lon="9.763260000">
  <ele>161.000000</ele>
  <time>2016-07-27T17:27:18Z</time>
</trkpt>
<trkpt lat="49.984740000" lon="9.763280000">
  <ele>161.000000</ele>
  <time>2016-07-27T17:27:19Z</time>
</trkpt>
<trkpt lat="49.984680000" lon="9.763280000">
  <ele>161.000000</ele>
  <time>2016-07-27T17:27:20Z</time>
</trkpt>
<trkpt lat="49.984620000" lon="9.763280000">
  <ele>161.000000</ele>
  <time>2016-07-27T17:27:21Z</time>
</trkpt>
<trkpt lat="49.984540000" lon="9.763330000">
  <ele>161.000000</ele>
  <time>2016-07-27T17:27:23Z</time>
</trkpt>
<trkpt lat="49.984490000" lon="9.763370000">
  <ele>161.000000</ele>
  <time>2016-07-27T17:27:24Z</time>
</trkpt>
<trkpt lat="49.984440000" lon="9.763410000">
  <ele>160.000000</ele>
  <time>2016-07-27T17:27:25Z</time>
</trkpt>
<trkpt lat="49.984380000" lon="9.763440000">
  <ele>160.000000</ele>
  <time>2016-07-27T17:27:26Z</time>
</trkpt>
<trkpt lat="49.984330000" lon="9.763470000">
  <ele>160.000000</ele>
  <time>2016-07-27T17:27:27Z</time>
</trkpt>
<trkpt lat="49.984220000" lon="9.763520000">
  <ele>160.000000</ele>
  <time>2016-07-27T17:27:29Z</time>
</trkpt>
<trkpt lat="49.984140000" lon="9.763540000">
  <ele>160.000000</ele>
  <time>2016-07-27T17:27:31Z</time>
</trkpt>
<trkpt lat="49.984060000" lon="9.763570000">
  <ele>160.000000</ele>
  <time>2016-07-27T17:27:33Z</time>
</trkpt>
<trkpt lat="49.984010000" lon="9.763580000">
  <ele>160.000000</ele>
  <time>2016-07-27T17:27:34Z</time>
</trkpt>
<trkpt lat="49.983950000" lon="9.763610000">
  <ele>160.000000</ele>
  <time>2016-07-27T17:27:35Z</time>
</trkpt>
<trkpt lat="49.983900000" lon="9.763620000">
  <ele>160.000000</ele>
  <time>2016-07-27T17:27:36Z</time>
</trkpt>
<trkpt lat="49.983840000" lon="9.763640000">
  <ele>160.000000</ele>
  <time>2016-07-27T17:27:37Z</time>
</trkpt>
<trkpt lat="49.983790000" lon="9.763670000">
  <ele>160.000000</ele>
  <time>2016-07-27T17:27:38Z</time>
</trkpt>
<trkpt lat="49.983740000" lon="9.763670000">
  <ele>160.000000</ele>
  <time>2016-07-27T17:27:39Z</time>
</trkpt>
<trkpt lat="49.983690000" lon="9.763680000">
  <ele>160.000000</ele>
  <time>2016-07-27T17:27:40Z</time>
</trkpt>
<trkpt lat="49.983600000" lon="9.763690000">
  <ele>160.000000</ele>
  <time>2016-07-27T17:27:42Z</time>
</trkpt>
<trkpt lat="49.983540000" lon="9.763710000">
  <ele>166.000000</ele>
  <time>2016-07-27T17:27:43Z</time>
</trkpt>
<trkpt lat="49.983490000" lon="9.763730000">
  <ele>166.000000</ele>
  <time>2016-07-27T17:27:44Z</time>
</trkpt>
<trkpt lat="49.983430000" lon="9.763710000">
  <ele>166.000000</ele>
  <time>2016-07-27T17:27:46Z</time>
</trkpt>
<trkpt lat="49.983320000" lon="9.763740000">
  <ele>166.000000</ele>
  <time>2016-07-27T17:27:48Z</time>
</trkpt>
<trkpt lat="49.983280000" lon="9.763770000">
  <ele>166.000000</ele>
  <time>2016-07-27T17:27:49Z</time>
</trkpt>
<trkpt lat="49.983230000" lon="9.763780000">
  <ele>166.000000</ele>
  <time>2016-07-27T17:27:50Z</time>
</trkpt>
<trkpt lat="49.983170000" lon="9.763770000">
  <ele>165.000000</ele>
  <time>2016-07-27T17:27:51Z</time>
</trkpt>
<trkpt lat="49.983120000" lon="9.763780000">
  <ele>165.000000</ele>
  <time>2016-07-27T17:27:52Z</time>
</trkpt>
<trkpt lat="49.983070000" lon="9.763830000">
  <ele>165.000000</ele>
  <time>2016-07-27T17:27:53Z</time>
</trkpt>
<trkpt lat="49.983010000" lon="9.763860000">
  <ele>165.000000</ele>
  <time>2016-07-27T17:27:54Z</time>
</trkpt>
<trkpt lat="49.982960000" lon="9.763860000">
  <ele>165.000000</ele>
  <time>2016-07-27T17:27:55Z</time>
</trkpt>
<trkpt lat="49.982920000" lon="9.763890000">
  <ele>165.000000</ele>
  <time>2016-07-27T17:27:56Z</time>
</trkpt>
<trkpt lat="49.982850000" lon="9.763950000">
  <ele>165.000000</ele>
  <time>2016-07-27T17:27:58Z</time>
</trkpt>
<trkpt lat="49.982800000" lon="9.763970000">
  <ele>162.000000</ele>
  <time>2016-07-27T17:27:59Z</time>
</trkpt>
<trkpt lat="49.982690000" lon="9.763940000">
  <ele>162.000000</ele>
  <time>2016-07-27T17:28:01Z</time>
</trkpt>
<trkpt lat="49.982600000" lon="9.763910000">
  <ele>162.000000</ele>
  <time>2016-07-27T17:28:02Z</time>
</trkpt>
<trkpt lat="49.982510000" lon="9.763930000">
  <ele>162.000000</ele>
  <time>2016-07-27T17:28:04Z</time>
</trkpt>
<trkpt lat="49.982440000" lon="9.763930000">
  <ele>162.000000</ele>
  <time>2016-07-27T17:28:05Z</time>
</trkpt>
<trkpt lat="49.982350000" lon="9.763950000">
  <ele>162.000000</ele>
  <time>2016-07-27T17:28:07Z</time>
</trkpt>
<trkpt lat="49.982280000" lon="9.763980000">
  <ele>162.000000</ele>
  <time>2016-07-27T17:28:08Z</time>
</trkpt>
<trkpt lat="49.982230000" lon="9.763990000">
  <ele>162.000000</ele>
  <time>2016-07-27T17:28:09Z</time>
</trkpt>
<trkpt lat="49.982180000" lon="9.763990000">
  <ele>162.000000</ele>
  <time>2016-07-27T17:28:10Z</time>
</trkpt>
<trkpt lat="49.982090000" lon="9.764000000">
  <ele>162.000000</ele>
  <time>2016-07-27T17:28:12Z</time>
</trkpt>
<trkpt lat="49.982040000" lon="9.764030000">
  <ele>162.000000</ele>
  <time>2016-07-27T17:28:13Z</time>
</trkpt>
<trkpt lat="49.981980000" lon="9.764020000">
  <ele>162.000000</ele>
  <time>2016-07-27T17:28:14Z</time>
</trkpt>
<trkpt lat="49.981900000" lon="9.764070000">
  <ele>162.000000</ele>
  <time>2016-07-27T17:28:16Z</time>
</trkpt>
<trkpt lat="49.981840000" lon="9.764080000">
  <ele>162.000000</ele>
  <time>2016-07-27T17:28:17Z</time>
</trkpt>
<trkpt lat="49.981760000" lon="9.764100000">
  <ele>162.000000</ele>
  <time>2016-07-27T17:28:19Z</time>
</trkpt>
<trkpt lat="49.981670000" lon="9.764110000">
  <ele>162.000000</ele>
  <time>2016-07-27T17:28:21Z</time>
</trkpt>
<trkpt lat="49.981620000" lon="9.764070000">
  <ele>162.000000</ele>
  <time>2016-07-27T17:28:22Z</time>
</trkpt>
<trkpt lat="49.981520000" lon="9.764080000">
  <ele>162.000000</ele>
  <time>2016-07-27T17:28:24Z</time>
</trkpt>
<trkpt lat="49.981450000" lon="9.764070000">
  <ele>162.000000</ele>
  <time>2016-07-27T17:28:26Z</time>
</trkpt>
<trkpt lat="49.981390000" lon="9.764070000">
  <ele>162.000000</ele>
  <time>2016-07-27T17:28:27Z</time>
</trkpt>
<trkpt lat="49.981350000" lon="9.764070000">
  <ele>162.000000</ele>
  <time>2016-07-27T17:28:28Z</time>
</trkpt>
<trkpt lat="49.981290000" lon="9.764090000">
  <ele>162.000000</ele>
  <time>2016-07-27T17:28:29Z</time>
</trkpt>
<trkpt lat="49.981230000" lon="9.764100000">
  <ele>162.000000</ele>
  <time>2016-07-27T17:28:30Z</time>
</trkpt>
<trkpt lat="49.981180000" lon="9.764110000">
  <ele>162.000000</ele>
  <time>2016-07-27T17:28:31Z</time>
</trkpt>
<trkpt lat="49.981120000" lon="9.764150000">
  <ele>162.000000</ele>
  <time>2016-07-27T17:28:32Z</time>
</trkpt>
<trkpt lat="49.981080000" lon="9.764180000">
  <ele>162.000000</ele>
  <time>2016-07-27T17:28:33Z</time>
</trkpt>
<trkpt lat="49.981050000" lon="9.764300000">
  <ele>162.000000</ele>
  <time>2016-07-27T17:28:35Z</time>
</trkpt>
<trkpt lat="49.981060000" lon="9.764390000">
  <ele>162.000000</ele>
  <time>2016-07-27T17:28:36Z</time>
</trkpt>
<trkpt lat="49.981060000" lon="9.764470000">
  <ele>162.000000</ele>
  <time>2016-07-27T17:28:37Z</time>
</trkpt>
<trkpt lat="49.981060000" lon="9.764560000">
  <ele>162.000000</ele>
  <time>2016-07-27T17:28:38Z</time>
</trkpt>
<trkpt lat="49.981070000" lon="9.764640000">
  <ele>162.000000</ele>
  <time>2016-07-27T17:28:39Z</time>
</trkpt>
<trkpt lat="49.981070000" lon="9.764730000">
  <ele>162.000000</ele>
  <time>2016-07-27T17:28:40Z</time>
</trkpt>
<trkpt lat="49.981090000" lon="9.764800000">
  <ele>162.000000</ele>
  <time>2016-07-27T17:28:41Z</time>
</trkpt>
<trkpt lat="49.981090000" lon="9.764880000">
  <ele>162.000000</ele>
  <time>2016-07-27T17:28:42Z</time>
</trkpt>
<trkpt lat="49.981100000" lon="9.764960000">
  <ele>162.000000</ele>
  <time>2016-07-27T17:28:43Z</time>
</trkpt>
<trkpt lat="49.981120000" lon="9.765090000">
  <ele>162.000000</ele>
  <time>2016-07-27T17:28:45Z</time>
</trkpt>
<trkpt lat="49.981110000" lon="9.765190000">
  <ele>162.000000</ele>
  <time>2016-07-27T17:28:47Z</time>
</trkpt>
<trkpt lat="49.981060000" lon="9.765300000">
  <ele>162.000000</ele>
  <time>2016-07-27T17:28:49Z</time>
</trkpt>
<trkpt lat="49.980980000" lon="9.765350000">
  <ele>162.000000</ele>
  <time>2016-07-27T17:28:51Z</time>
</trkpt>
<trkpt lat="49.980930000" lon="9.765350000">
  <ele>162.000000</ele>
  <time>2016-07-27T17:28:52Z</time>
</trkpt>
<trkpt lat="49.980880000" lon="9.765350000">
  <ele>162.000000</ele>
  <time>2016-07-27T17:28:53Z</time>
</trkpt>
<trkpt lat="49.980840000" lon="9.765350000">
  <ele>162.000000</ele>
  <time>2016-07-27T17:28:54Z</time>
</trkpt>
<trkpt lat="49.980790000" lon="9.765360000">
  <ele>162.000000</ele>
  <time>2016-07-27T17:28:55Z</time>
</trkpt>
<trkpt lat="49.980730000" lon="9.765370000">
  <ele>162.000000</ele>
  <time>2016-07-27T17:28:56Z</time>
</trkpt>
<trkpt lat="49.980680000" lon="9.765360000">
  <ele>162.000000</ele>
  <time>2016-07-27T17:28:57Z</time>
</trkpt>
<trkpt lat="49.980630000" lon="9.765360000">
  <ele>162.000000</ele>
  <time>2016-07-27T17:28:58Z</time>
</trkpt>
<trkpt lat="49.980580000" lon="9.765360000">
  <ele>162.000000</ele>
  <time>2016-07-27T17:28:59Z</time>
</trkpt>
<trkpt lat="49.980540000" lon="9.765350000">
  <ele>162.000000</ele>
  <time>2016-07-27T17:29:00Z</time>
</trkpt>
<trkpt lat="49.980450000" lon="9.765340000">
  <ele>162.000000</ele>
  <time>2016-07-27T17:29:02Z</time>
</trkpt>
<trkpt lat="49.980410000" lon="9.765350000">
  <ele>162.000000</ele>
  <time>2016-07-27T17:29:03Z</time>
</trkpt>
<trkpt lat="49.980320000" lon="9.765340000">
  <ele>162.000000</ele>
  <time>2016-07-27T17:29:05Z</time>
</trkpt>
<trkpt lat="49.980230000" lon="9.765320000">
  <ele>162.000000</ele>
  <time>2016-07-27T17:29:07Z</time>
</trkpt>
<trkpt lat="49.980160000" lon="9.765320000">
  <ele>162.000000</ele>
  <time>2016-07-27T17:29:09Z</time>
</trkpt>
<trkpt lat="49.980110000" lon="9.765310000">
  <ele>162.000000</ele>
  <time>2016-07-27T17:29:10Z</time>
</trkpt>
<trkpt lat="49.980060000" lon="9.765320000">
  <ele>162.000000</ele>
  <time>2016-07-27T17:29:11Z</time>
</trkpt>
<trkpt lat="49.980010000" lon="9.765320000">
  <ele>162.000000</ele>
  <time>2016-07-27T17:29:12Z</time>
</trkpt>
<trkpt lat="49.979950000" lon="9.765340000">
  <ele>162.000000</ele>
  <time>2016-07-27T17:29:13Z</time>
</trkpt>
<trkpt lat="49.979900000" lon="9.765320000">
  <ele>162.000000</ele>
  <time>2016-07-27T17:29:14Z</time>
</trkpt>
<trkpt lat="49.979820000" lon="9.765330000">
  <ele>162.000000</ele>
  <time>2016-07-27T17:29:16Z</time>
</trkpt>
<trkpt lat="49.979770000" lon="9.765310000">
  <ele>162.000000</ele>
  <time>2016-07-27T17:29:17Z</time>
</trkpt>
<trkpt lat="49.979710000" lon="9.765340000">
  <ele>162.000000</ele>
  <time>2016-07-27T17:29:18Z</time>
</trkpt>
<trkpt lat="49.979620000" lon="9.765360000">
  <ele>162.000000</ele>
  <time>2016-07-27T17:29:20Z</time>
</trkpt>
<trkpt lat="49.979570000" lon="9.765350000">
  <ele>162.000000</ele>
  <time>2016-07-27T17:29:21Z</time>
</trkpt>
<trkpt lat="49.979520000" lon="9.765350000">
  <ele>162.000000</ele>
  <time>2016-07-27T17:29:22Z</time>
</trkpt>
<trkpt lat="49.979470000" lon="9.765330000">
  <ele>162.000000</ele>
  <time>2016-07-27T17:29:23Z</time>
</trkpt>
<trkpt lat="49.979390000" lon="9.765330000">
  <ele>162.000000</ele>
  <time>2016-07-27T17:29:25Z</time>
</trkpt>
<trkpt lat="49.979340000" lon="9.765330000">
  <ele>162.000000</ele>
  <time>2016-07-27T17:29:26Z</time>
</trkpt>
<trkpt lat="49.979280000" lon="9.765310000">
  <ele>162.000000</ele>
  <time>2016-07-27T17:29:27Z</time>
</trkpt>
<trkpt lat="49.979180000" lon="9.765310000">
  <ele>162.000000</ele>
  <time>2016-07-27T17:29:29Z</time>
</trkpt>
<trkpt lat="49.979100000" lon="9.765320000">
  <ele>162.000000</ele>
  <time>2016-07-27T17:29:31Z</time>
</trkpt>
<trkpt lat="49.979020000" lon="9.765350000">
  <ele>162.000000</ele>
  <time>2016-07-27T17:29:33Z</time>
</trkpt>
<trkpt lat="49.978940000" lon="9.765370000">
  <ele>162.000000</ele>
  <time>2016-07-27T17:29:35Z</time>
</trkpt>
<trkpt lat="49.978850000" lon="9.765390000">
  <ele>162.000000</ele>
  <time>2016-07-27T17:29:37Z</time>
</trkpt>
<trkpt lat="49.978750000" lon="9.765410000">
  <ele>162.000000</ele>
  <time>2016-07-27T17:29:39Z</time>
</trkpt>
<trkpt lat="49.978690000" lon="9.765410000">
  <ele>161.000000</ele>
  <time>2016-07-27T17:29:40Z</time>
</trkpt>
<trkpt lat="49.978630000" lon="9.765420000">
  <ele>161.000000</ele>
  <time>2016-07-27T17:29:41Z</time>
</trkpt>
<trkpt lat="49.978540000" lon="9.765410000">
  <ele>161.000000</ele>
  <time>2016-07-27T17:29:43Z</time>
</trkpt>
<trkpt lat="49.978480000" lon="9.765410000">
  <ele>162.000000</ele>
  <time>2016-07-27T17:29:44Z</time>
</trkpt>
<trkpt lat="49.978430000" lon="9.765420000">
  <ele>162.000000</ele>
  <time>2016-07-27T17:29:45Z</time>
</trkpt>
<trkpt lat="49.978370000" lon="9.765420000">
  <ele>162.000000</ele>
  <time>2016-07-27T17:29:46Z</time>
</trkpt>
<trkpt lat="49.978330000" lon="9.765400000">
  <ele>161.000000</ele>
  <time>2016-07-27T17:29:47Z</time>
</trkpt>
<trkpt lat="49.978280000" lon="9.765400000">
  <ele>161.000000</ele>
  <time>2016-07-27T17:29:48Z</time>
</trkpt>
<trkpt lat="49.978230000" lon="9.765410000">
  <ele>161.000000</ele>
  <time>2016-07-27T17:29:49Z</time>
</trkpt>
<trkpt lat="49.978170000" lon="9.765420000">
  <ele>162.000000</ele>
  <time>2016-07-27T17:29:50Z</time>
</trkpt>
<trkpt lat="49.978120000" lon="9.765430000">
  <ele>162.000000</ele>
  <time>2016-07-27T17:29:51Z</time>
</trkpt>
<trkpt lat="49.978060000" lon="9.765430000">
  <ele>162.000000</ele>
  <time>2016-07-27T17:29:52Z</time>
</trkpt>
<trkpt lat="49.978010000" lon="9.765420000">
  <ele>162.000000</ele>
  <time>2016-07-27T17:29:53Z</time>
</trkpt>
<trkpt lat="49.977950000" lon="9.765420000">
  <ele>162.000000</ele>
  <time>2016-07-27T17:29:54Z</time>
</trkpt>
<trkpt lat="49.977890000" lon="9.765410000">
  <ele>162.000000</ele>
  <time>2016-07-27T17:29:55Z</time>
</trkpt>
<trkpt lat="49.977840000" lon="9.765400000">
  <ele>162.000000</ele>
  <time>2016-07-27T17:29:56Z</time>
</trkpt>
<trkpt lat="49.977790000" lon="9.765360000">
  <ele>159.000000</ele>
  <time>2016-07-27T17:29:57Z</time>
</trkpt>
<trkpt lat="49.977730000" lon="9.765350000">
  <ele>159.000000</ele>
  <time>2016-07-27T17:29:58Z</time>
</trkpt>
<trkpt lat="49.977670000" lon="9.765350000">
  <ele>159.000000</ele>
  <time>2016-07-27T17:29:59Z</time>
</trkpt>
<trkpt lat="49.977610000" lon="9.765340000">
  <ele>159.000000</ele>
  <time>2016-07-27T17:30:00Z</time>
</trkpt>
<trkpt lat="49.977560000" lon="9.765330000">
  <ele>159.000000</ele>
  <time>2016-07-27T17:30:01Z</time>
</trkpt>
<trkpt lat="49.977510000" lon="9.765340000">
  <ele>159.000000</ele>
  <time>2016-07-27T17:30:02Z</time>
</trkpt>
<trkpt lat="49.977490000" lon="9.765400000">
  <ele>159.000000</ele>
  <time>2016-07-27T17:30:03Z</time>
</trkpt>
<trkpt lat="49.977440000" lon="9.765390000">
  <ele>159.000000</ele>
  <time>2016-07-27T17:30:04Z</time>
</trkpt>
<trkpt lat="49.977390000" lon="9.765400000">
  <ele>159.000000</ele>
  <time>2016-07-27T17:30:05Z</time>
</trkpt>
<trkpt lat="49.977340000" lon="9.765380000">
  <ele>159.000000</ele>
  <time>2016-07-27T17:30:06Z</time>
</trkpt>
<trkpt lat="49.977280000" lon="9.765370000">
  <ele>159.000000</ele>
  <time>2016-07-27T17:30:07Z</time>
</trkpt>
<trkpt lat="49.977230000" lon="9.765370000">
  <ele>159.000000</ele>
  <time>2016-07-27T17:30:08Z</time>
</trkpt>
<trkpt lat="49.977170000" lon="9.765360000">
  <ele>159.000000</ele>
  <time>2016-07-27T17:30:09Z</time>
</trkpt>
<trkpt lat="49.977110000" lon="9.765360000">
  <ele>159.000000</ele>
  <time>2016-07-27T17:30:10Z</time>
</trkpt>
<trkpt lat="49.977070000" lon="9.765360000">
  <ele>159.000000</ele>
  <time>2016-07-27T17:30:11Z</time>
</trkpt>
<trkpt lat="49.977020000" lon="9.765360000">
  <ele>159.000000</ele>
  <time>2016-07-27T17:30:12Z</time>
</trkpt>
<trkpt lat="49.976920000" lon="9.765360000">
  <ele>161.000000</ele>
  <time>2016-07-27T17:30:14Z</time>
</trkpt>
<trkpt lat="49.976870000" lon="9.765350000">
  <ele>161.000000</ele>
  <time>2016-07-27T17:30:15Z</time>
</trkpt>
<trkpt lat="49.976810000" lon="9.765360000">
  <ele>161.000000</ele>
  <time>2016-07-27T17:30:16Z</time>
</trkpt>
<trkpt lat="49.976760000" lon="9.765340000">
  <ele>161.000000</ele>
  <time>2016-07-27T17:30:17Z</time>
</trkpt>
<trkpt lat="49.976710000" lon="9.765340000">
  <ele>161.000000</ele>
  <time>2016-07-27T17:30:18Z</time>
</trkpt>
<trkpt lat="49.976650000" lon="9.765330000">
  <ele>161.000000</ele>
  <time>2016-07-27T17:30:19Z</time>
</trkpt>
<trkpt lat="49.976600000" lon="9.765330000">
  <ele>161.000000</ele>
  <time>2016-07-27T17:30:20Z</time>
</trkpt>
<trkpt lat="49.976500000" lon="9.765320000">
  <ele>161.000000</ele>
  <time>2016-07-27T17:30:22Z</time>
</trkpt>
<trkpt lat="49.976440000" lon="9.765310000">
  <ele>161.000000</ele>
  <time>2016-07-27T17:30:23Z</time>
</trkpt>
<trkpt lat="49.976380000" lon="9.765320000">
  <ele>161.000000</ele>
  <time>2016-07-27T17:30:24Z</time>
</trkpt>
<trkpt lat="49.976290000" lon="9.765300000">
  <ele>161.000000</ele>
  <time>2016-07-27T17:30:26Z</time>
</trkpt>
<trkpt lat="49.976240000" lon="9.765280000">
  <ele>161.000000</ele>
  <time>2016-07-27T17:30:27Z</time>
</trkpt>
<trkpt lat="49.976190000" lon="9.765270000">
  <ele>166.000000</ele>
  <time>2016-07-27T17:30:28Z</time>
</trkpt>
<trkpt lat="49.976100000" lon="9.765250000">
  <ele>166.000000</ele>
  <time>2016-07-27T17:30:30Z</time>
</trkpt>
<trkpt lat="49.976040000" lon="9.765250000">
  <ele>166.000000</ele>
  <time>2016-07-27T17:30:31Z</time>
</trkpt>
<trkpt lat="49.975990000" lon="9.765240000">
  <ele>166.000000</ele>
  <time>2016-07-27T17:30:32Z</time>
</trkpt>
<trkpt lat="49.975940000" lon="9.765230000">
  <ele>166.000000</ele>
  <time>2016-07-27T17:30:33Z</time>
</trkpt>
<trkpt lat="49.975860000" lon="9.765190000">
  <ele>166.000000</ele>
  <time>2016-07-27T17:30:35Z</time>
</trkpt>
<trkpt lat="49.975780000" lon="9.765140000">
  <ele>166.000000</ele>
  <time>2016-07-27T17:30:37Z</time>
</trkpt>
<trkpt lat="49.975730000" lon="9.765160000">
  <ele>166.000000</ele>
  <time>2016-07-27T17:30:38Z</time>
</trkpt>
<trkpt lat="49.975670000" lon="9.765160000">
  <ele>166.000000</ele>
  <time>2016-07-27T17:30:39Z</time>
</trkpt>
<trkpt lat="49.975620000" lon="9.765160000">
  <ele>166.000000</ele>
  <time>2016-07-27T17:30:40Z</time>
</trkpt>
<trkpt lat="49.975540000" lon="9.765150000">
  <ele>166.000000</ele>
  <time>2016-07-27T17:30:42Z</time>
</trkpt>
<trkpt lat="49.975490000" lon="9.765150000">
  <ele>166.000000</ele>
  <time>2016-07-27T17:30:43Z</time>
</trkpt>
<trkpt lat="49.975450000" lon="9.765140000">
  <ele>166.000000</ele>
  <time>2016-07-27T17:30:44Z</time>
</trkpt>
<trkpt lat="49.975400000" lon="9.765140000">
  <ele>166.000000</ele>
  <time>2016-07-27T17:30:45Z</time>
</trkpt>
<trkpt lat="49.975340000" lon="9.765130000">
  <ele>166.000000</ele>
  <time>2016-07-27T17:30:46Z</time>
</trkpt>
<trkpt lat="49.975290000" lon="9.765130000">
  <ele>166.000000</ele>
  <time>2016-07-27T17:30:47Z</time>
</trkpt>
<trkpt lat="49.975230000" lon="9.765130000">
  <ele>166.000000</ele>
  <time>2016-07-27T17:30:48Z</time>
</trkpt>
<trkpt lat="49.975190000" lon="9.765120000">
  <ele>166.000000</ele>
  <time>2016-07-27T17:30:49Z</time>
</trkpt>
<trkpt lat="49.975100000" lon="9.765090000">
  <ele>166.000000</ele>
  <time>2016-07-27T17:30:51Z</time>
</trkpt>
<trkpt lat="49.975050000" lon="9.765100000">
  <ele>166.000000</ele>
  <time>2016-07-27T17:30:52Z</time>
</trkpt>
<trkpt lat="49.975000000" lon="9.765120000">
  <ele>166.000000</ele>
  <time>2016-07-27T17:30:53Z</time>
</trkpt>
<trkpt lat="49.974950000" lon="9.765100000">
  <ele>166.000000</ele>
  <time>2016-07-27T17:30:54Z</time>
</trkpt>
<trkpt lat="49.974900000" lon="9.765100000">
  <ele>166.000000</ele>
  <time>2016-07-27T17:30:55Z</time>
</trkpt>
<trkpt lat="49.974810000" lon="9.765090000">
  <ele>166.000000</ele>
  <time>2016-07-27T17:30:57Z</time>
</trkpt>
<trkpt lat="49.974750000" lon="9.765100000">
  <ele>166.000000</ele>
  <time>2016-07-27T17:30:58Z</time>
</trkpt>
<trkpt lat="49.974670000" lon="9.765060000">
  <ele>166.000000</ele>
  <time>2016-07-27T17:31:00Z</time>
</trkpt>
<trkpt lat="49.974580000" lon="9.765040000">
  <ele>166.000000</ele>
  <time>2016-07-27T17:31:02Z</time>
</trkpt>
<trkpt lat="49.974530000" lon="9.765060000">
  <ele>163.000000</ele>
  <time>2016-07-27T17:31:03Z</time>
</trkpt>
<trkpt lat="49.974480000" lon="9.765070000">
  <ele>163.000000</ele>
  <time>2016-07-27T17:31:04Z</time>
</trkpt>
<trkpt lat="49.974390000" lon="9.765050000">
  <ele>163.000000</ele>
  <time>2016-07-27T17:31:06Z</time>
</trkpt>
<trkpt lat="49.974340000" lon="9.765060000">
  <ele>163.000000</ele>
  <time>2016-07-27T17:31:07Z</time>
</trkpt>
<trkpt lat="49.974300000" lon="9.765060000">
  <ele>163.000000</ele>
  <time>2016-07-27T17:31:08Z</time>
</trkpt>
<trkpt lat="49.974230000" lon="9.765050000">
  <ele>163.000000</ele>
  <time>2016-07-27T17:31:09Z</time>
</trkpt>
<trkpt lat="49.974180000" lon="9.765080000">
  <ele>163.000000</ele>
  <time>2016-07-27T17:31:10Z</time>
</trkpt>
<trkpt lat="49.974090000" lon="9.765100000">
  <ele>163.000000</ele>
  <time>2016-07-27T17:31:12Z</time>
</trkpt>
<trkpt lat="49.973990000" lon="9.765090000">
  <ele>163.000000</ele>
  <time>2016-07-27T17:31:14Z</time>
</trkpt>
<trkpt lat="49.973950000" lon="9.765080000">
  <ele>163.000000</ele>
  <time>2016-07-27T17:31:15Z</time>
</trkpt>
<trkpt lat="49.973870000" lon="9.765070000">
  <ele>163.000000</ele>
  <time>2016-07-27T17:31:17Z</time>
</trkpt>
<trkpt lat="49.973770000" lon="9.765070000">
  <ele>163.000000</ele>
  <time>2016-07-27T17:31:19Z</time>
</trkpt>
<trkpt lat="49.973680000" lon="9.765060000">
  <ele>163.000000</ele>
  <time>2016-07-27T17:31:21Z</time>
</trkpt>
<trkpt lat="49.973580000" lon="9.765020000">
  <ele>161.000000</ele>
  <time>2016-07-27T17:31:23Z</time>
</trkpt>
<trkpt lat="49.973510000" lon="9.765010000">
  <ele>161.000000</ele>
  <time>2016-07-27T17:31:25Z</time>
</trkpt>
<trkpt lat="49.973470000" lon="9.764980000">
  <ele>161.000000</ele>
  <time>2016-07-27T17:31:26Z</time>
</trkpt>
<trkpt lat="49.973380000" lon="9.764970000">
  <ele>161.000000</ele>
  <time>2016-07-27T17:31:28Z</time>
</trkpt>
<trkpt lat="49.973260000" lon="9.764980000">
  <ele>161.000000</ele>
  <time>2016-07-27T17:31:30Z</time>
</trkpt>
<trkpt lat="49.973170000" lon="9.764930000">
  <ele>161.000000</ele>
  <time>2016-07-27T17:31:32Z</time>
</trkpt>
<trkpt lat="49.973080000" lon="9.764920000">
  <ele>161.000000</ele>
  <time>2016-07-27T17:31:34Z</time>
</trkpt>
<trkpt lat="49.973030000" lon="9.764920000">
  <ele>161.000000</ele>
  <time>2016-07-27T17:31:35Z</time>
</trkpt>
<trkpt lat="49.972990000" lon="9.764910000">
  <ele>161.000000</ele>
  <time>2016-07-27T17:31:36Z</time>
</trkpt>
<trkpt lat="49.972890000" lon="9.764910000">
  <ele>161.000000</ele>
  <time>2016-07-27T17:31:38Z</time>
</trkpt>
<trkpt lat="49.972810000" lon="9.764920000">
  <ele>161.000000</ele>
  <time>2016-07-27T17:31:40Z</time>
</trkpt>
<trkpt lat="49.972770000" lon="9.764930000">
  <ele>161.000000</ele>
  <time>2016-07-27T17:31:41Z</time>
</trkpt>
<trkpt lat="49.972710000" lon="9.764930000">
  <ele>160.000000</ele>
  <time>2016-07-27T17:31:42Z</time>
</trkpt>
<trkpt lat="49.972660000" lon="9.764930000">
  <ele>160.000000</ele>
  <time>2016-07-27T17:31:43Z</time>
</trkpt>
<trkpt lat="49.972620000" lon="9.764950000">
  <ele>160.000000</ele>
  <time>2016-07-27T17:31:44Z</time>
</trkpt>
<trkpt lat="49.972570000" lon="9.764960000">
  <ele>160.000000</ele>
  <time>2016-07-27T17:31:45Z</time>
</trkpt>
<trkpt lat="49.972480000" lon="9.764970000">
  <ele>160.000000</ele>
  <time>2016-07-27T17:31:47Z</time>
</trkpt>
<trkpt lat="49.972380000" lon="9.764960000">
  <ele>160.000000</ele>
  <time>2016-07-27T17:31:49Z</time>
</trkpt>
<trkpt lat="49.972340000" lon="9.764970000">
  <ele>160.000000</ele>
  <time>2016-07-27T17:31:50Z</time>
</trkpt>
<trkpt lat="49.972290000" lon="9.764980000">
  <ele>160.000000</ele>
  <time>2016-07-27T17:31:51Z</time>
</trkpt>
<trkpt lat="49.972200000" lon="9.765000000">
  <ele>160.000000</ele>
  <time>2016-07-27T17:31:53Z</time>
</trkpt>
<trkpt lat="49.972150000" lon="9.765020000">
  <ele>160.000000</ele>
  <time>2016-07-27T17:31:54Z</time>
</trkpt>
<trkpt lat="49.972080000" lon="9.765030000">
  <ele>160.000000</ele>
  <time>2016-07-27T17:31:56Z</time>
</trkpt>
<trkpt lat="49.972010000" lon="9.765040000">
  <ele>162.000000</ele>
  <time>2016-07-27T17:31:58Z</time>
</trkpt>
<trkpt lat="49.971960000" lon="9.765050000">
  <ele>162.000000</ele>
  <time>2016-07-27T17:31:59Z</time>
</trkpt>
<trkpt lat="49.971880000" lon="9.765040000">
  <ele>162.000000</ele>
  <time>2016-07-27T17:32:01Z</time>
</trkpt>
<trkpt lat="49.971790000" lon="9.765040000">
  <ele>162.000000</ele>
  <time>2016-07-27T17:32:03Z</time>
</trkpt>
<trkpt lat="49.971750000" lon="9.765060000">
  <ele>162.000000</ele>
  <time>2016-07-27T17:32:04Z</time>
</trkpt>
<trkpt lat="49.971650000" lon="9.765060000">
  <ele>162.000000</ele>
  <time>2016-07-27T17:32:06Z</time>
</trkpt>
<trkpt lat="49.971600000" lon="9.765090000">
  <ele>162.000000</ele>
  <time>2016-07-27T17:32:07Z</time>
</trkpt>
<trkpt lat="49.971520000" lon="9.765110000">
  <ele>162.000000</ele>
  <time>2016-07-27T17:32:09Z</time>
</trkpt>
<trkpt lat="49.971430000" lon="9.765130000">
  <ele>162.000000</ele>
  <time>2016-07-27T17:32:11Z</time>
</trkpt>
<trkpt lat="49.971360000" lon="9.765140000">
  <ele>162.000000</ele>
  <time>2016-07-27T17:32:13Z</time>
</trkpt>
<trkpt lat="49.971310000" lon="9.765140000">
  <ele>162.000000</ele>
  <time>2016-07-27T17:32:15Z</time>
</trkpt>
<trkpt lat="49.971240000" lon="9.765130000">
  <ele>162.000000</ele>
  <time>2016-07-27T17:32:17Z</time>
</trkpt>
<trkpt lat="49.971180000" lon="9.765080000">
  <ele>162.000000</ele>
  <time>2016-07-27T17:32:19Z</time>
</trkpt>
<trkpt lat="49.971150000" lon="9.764960000">
  <ele>163.000000</ele>
  <time>2016-07-27T17:32:21Z</time>
</trkpt>
<trkpt lat="49.971150000" lon="9.764830000">
  <ele>163.000000</ele>
  <time>2016-07-27T17:32:23Z</time>
</trkpt>
<trkpt lat="49.971160000" lon="9.764750000">
  <ele>163.000000</ele>
  <time>2016-07-27T17:32:24Z</time>
</trkpt>
<trkpt lat="49.971150000" lon="9.764680000">
  <ele>163.000000</ele>
  <time>2016-07-27T17:32:25Z</time>
</trkpt>
<trkpt lat="49.971130000" lon="9.764610000">
  <ele>163.000000</ele>
  <time>2016-07-27T17:32:26Z</time>
</trkpt>
<trkpt lat="49.971060000" lon="9.764570000">
  <ele>161.000000</ele>
  <time>2016-07-27T17:32:28Z</time>
</trkpt>
<trkpt lat="49.970970000" lon="9.764530000">
  <ele>161.000000</ele>
  <time>2016-07-27T17:32:30Z</time>
</trkpt>
<trkpt lat="49.970920000" lon="9.764520000">
  <ele>161.000000</ele>
  <time>2016-07-27T17:32:31Z</time>
</trkpt>
<trkpt lat="49.970880000" lon="9.764500000">
  <ele>161.000000</ele>
  <time>2016-07-27T17:32:32Z</time>
</trkpt>
<trkpt lat="49.970790000" lon="9.764490000">
  <ele>161.000000</ele>
  <time>2016-07-27T17:32:34Z</time>
</trkpt>
<trkpt lat="49.970740000" lon="9.764490000">
  <ele>161.000000</ele>
  <time>2016-07-27T17:32:35Z</time>
</trkpt>
<trkpt lat="49.970680000" lon="9.764470000">
  <ele>161.000000</ele>
  <time>2016-07-27T17:32:36Z</time>
</trkpt>
<trkpt lat="49.970630000" lon="9.764440000">
  <ele>161.000000</ele>
  <time>2016-07-27T17:32:37Z</time>
</trkpt>
<trkpt lat="49.970570000" lon="9.764440000">
  <ele>161.000000</ele>
  <time>2016-07-27T17:32:38Z</time>
</trkpt>
<trkpt lat="49.970520000" lon="9.764400000">
  <ele>161.000000</ele>
  <time>2016-07-27T17:32:39Z</time>
</trkpt>
<trkpt lat="49.970460000" lon="9.764380000">
  <ele>161.000000</ele>
  <time>2016-07-27T17:32:40Z</time>
</trkpt>
<trkpt lat="49.970400000" lon="9.764360000">
  <ele>161.000000</ele>
  <time>2016-07-27T17:32:41Z</time>
</trkpt>
<trkpt lat="49.970360000" lon="9.764340000">
  <ele>158.000000</ele>
  <time>2016-07-27T17:32:42Z</time>
</trkpt>
<trkpt lat="49.970300000" lon="9.764350000">
  <ele>158.000000</ele>
  <time>2016-07-27T17:32:43Z</time>
</trkpt>
<trkpt lat="49.970250000" lon="9.764350000">
  <ele>158.000000</ele>
  <time>2016-07-27T17:32:44Z</time>
</trkpt>
<trkpt lat="49.970200000" lon="9.764350000">
  <ele>158.000000</ele>
  <time>2016-07-27T17:32:45Z</time>
</trkpt>
<trkpt lat="49.970150000" lon="9.764320000">
  <ele>158.000000</ele>
  <time>2016-07-27T17:32:46Z</time>
</trkpt>
<trkpt lat="49.970070000" lon="9.764290000">
  <ele>158.000000</ele>
  <time>2016-07-27T17:32:48Z</time>
</trkpt>
<trkpt lat="49.970010000" lon="9.764290000">
  <ele>158.000000</ele>
  <time>2016-07-27T17:32:49Z</time>
</trkpt>
<trkpt lat="49.969960000" lon="9.764300000">
  <ele>158.000000</ele>
  <time>2016-07-27T17:32:50Z</time>
</trkpt>
<trkpt lat="49.969910000" lon="9.764290000">
  <ele>158.000000</ele>
  <time>2016-07-27T17:32:51Z</time>
</trkpt>
<trkpt lat="49.969850000" lon="9.764300000">
  <ele>158.000000</ele>
  <time>2016-07-27T17:32:52Z</time>
</trkpt>
<trkpt lat="49.969800000" lon="9.764280000">
  <ele>158.000000</ele>
  <time>2016-07-27T17:32:53Z</time>
</trkpt>
<trkpt lat="49.969750000" lon="9.764250000">
  <ele>158.000000</ele>
  <time>2016-07-27T17:32:54Z</time>
</trkpt>
<trkpt lat="49.969700000" lon="9.764240000">
  <ele>158.000000</ele>
  <time>2016-07-27T17:32:55Z</time>
</trkpt>
<trkpt lat="49.969610000" lon="9.764240000">
  <ele>158.000000</ele>
  <time>2016-07-27T17:32:57Z</time>
</trkpt>
<trkpt lat="49.969520000" lon="9.764240000">
  <ele>158.000000</ele>
  <time>2016-07-27T17:32:59Z</time>
</trkpt>
<trkpt lat="49.969470000" lon="9.764240000">
  <ele>158.000000</ele>
  <time>2016-07-27T17:33:00Z</time>
</trkpt>
<trkpt lat="49.969380000" lon="9.764220000">
  <ele>163.000000</ele>
  <time>2016-07-27T17:33:02Z</time>
</trkpt>
<trkpt lat="49.969330000" lon="9.764200000">
  <ele>163.000000</ele>
  <time>2016-07-27T17:33:03Z</time>
</trkpt>
<trkpt lat="49.969280000" lon="9.764200000">
  <ele>163.000000</ele>
  <time>2016-07-27T17:33:04Z</time>
</trkpt>
<trkpt lat="49.969230000" lon="9.764200000">
  <ele>163.000000</ele>
  <time>2016-07-27T17:33:05Z</time>
</trkpt>
<trkpt lat="49.969130000" lon="9.764180000">
  <ele>163.000000</ele>
  <time>2016-07-27T17:33:07Z</time>
</trkpt>
<trkpt lat="49.969090000" lon="9.764180000">
  <ele>163.000000</ele>
  <time>2016-07-27T17:33:08Z</time>
</trkpt>
<trkpt lat="49.969040000" lon="9.764180000">
  <ele>163.000000</ele>
  <time>2016-07-27T17:33:09Z</time>
</trkpt>
<trkpt lat="49.969000000" lon="9.764160000">
  <ele>163.000000</ele>
  <time>2016-07-27T17:33:10Z</time>
</trkpt>
<trkpt lat="49.968940000" lon="9.764160000">
  <ele>163.000000</ele>
  <time>2016-07-27T17:33:11Z</time>
</trkpt>
<trkpt lat="49.968900000" lon="9.764170000">
  <ele>163.000000</ele>
  <time>2016-07-27T17:33:12Z</time>
</trkpt>
<trkpt lat="49.968820000" lon="9.764140000">
  <ele>163.000000</ele>
  <time>2016-07-27T17:33:14Z</time>
</trkpt>
<trkpt lat="49.968720000" lon="9.764150000">
  <ele>162.000000</ele>
  <time>2016-07-27T17:33:16Z</time>
</trkpt>
<trkpt lat="49.968670000" lon="9.764160000">
  <ele>162.000000</ele>
  <time>2016-07-27T17:33:17Z</time>
</trkpt>
<trkpt lat="49.968580000" lon="9.764170000">
  <ele>162.000000</ele>
  <time>2016-07-27T17:33:19Z</time>
</trkpt>
<trkpt lat="49.968540000" lon="9.764120000">
  <ele>162.000000</ele>
  <time>2016-07-27T17:33:20Z</time>
</trkpt>
<trkpt lat="49.968490000" lon="9.764110000">
  <ele>162.000000</ele>
  <time>2016-07-27T17:33:21Z</time>
</trkpt>
<trkpt lat="49.968430000" lon="9.764080000">
  <ele>162.000000</ele>
  <time>2016-07-27T17:33:23Z</time>
</trkpt>
<trkpt lat="49.968350000" lon="9.764070000">
  <ele>162.000000</ele>
  <time>2016-07-27T17:33:25Z</time>
</trkpt>
<trkpt lat="49.968300000" lon="9.764070000">
  <ele>162.000000</ele>
  <time>2016-07-27T17:33:26Z</time>
</trkpt>
<trkpt lat="49.968220000" lon="9.764070000">
  <ele>162.000000</ele>
  <time>2016-07-27T17:33:28Z</time>
</trkpt>
<trkpt lat="49.968170000" lon="9.764060000">
  <ele>162.000000</ele>
  <time>2016-07-27T17:33:29Z</time>
</trkpt>
<trkpt lat="49.968090000" lon="9.764020000">
  <ele>162.000000</ele>
  <time>2016-07-27T17:33:31Z</time>
</trkpt>
<trkpt lat="49.968050000" lon="9.764010000">
  <ele>162.000000</ele>
  <time>2016-07-27T17:33:32Z</time>
</trkpt>
<trkpt lat="49.967970000" lon="9.764000000">
  <ele>162.000000</ele>
  <time>2016-07-27T17:33:34Z</time>
</trkpt>
<trkpt lat="49.967920000" lon="9.763980000">
  <ele>162.000000</ele>
  <time>2016-07-27T17:33:35Z</time>
</trkpt>
<trkpt lat="49.967840000" lon="9.763980000">
  <ele>160.000000</ele>
  <time>2016-07-27T17:33:37Z</time>
</trkpt>
<trkpt lat="49.967750000" lon="9.764000000">
  <ele>160.000000</ele>
  <time>2016-07-27T17:33:39Z</time>
</trkpt>
<trkpt lat="49.967670000" lon="9.763980000">
  <ele>160.000000</ele>
  <time>2016-07-27T17:33:41Z</time>
</trkpt>
<trkpt lat="49.967590000" lon="9.763970000">
  <ele>160.000000</ele>
  <time>2016-07-27T17:33:43Z</time>
</trkpt>
<trkpt lat="49.967540000" lon="9.763970000">
  <ele>160.000000</ele>
  <time>2016-07-27T17:33:44Z</time>
</trkpt>
<trkpt lat="49.967460000" lon="9.763950000">
  <ele>160.000000</ele>
  <time>2016-07-27T17:33:46Z</time>
</trkpt>
<trkpt lat="49.967390000" lon="9.763920000">
  <ele>160.000000</ele>
  <time>2016-07-27T17:33:48Z</time>
</trkpt>
<trkpt lat="49.967300000" lon="9.763890000">
  <ele>160.000000</ele>
  <time>2016-07-27T17:33:50Z</time>
</trkpt>
<trkpt lat="49.967210000" lon="9.763890000">
  <ele>160.000000</ele>
  <time>2016-07-27T17:33:52Z</time>
</trkpt>
<trkpt lat="49.967120000" lon="9.763860000">
  <ele>160.000000</ele>
  <time>2016-07-27T17:33:54Z</time>
</trkpt>
<trkpt lat="49.967080000" lon="9.763860000">
  <ele>160.000000</ele>
  <time>2016-07-27T17:33:55Z</time>
</trkpt>
<trkpt lat="49.967030000" lon="9.763830000">
  <ele>160.000000</ele>
  <time>2016-07-27T17:33:56Z</time>
</trkpt>
<trkpt lat="49.966960000" lon="9.763800000">
  <ele>160.000000</ele>
  <time>2016-07-27T17:33:58Z</time>
</trkpt>
<trkpt lat="49.966880000" lon="9.763790000">
  <ele>163.000000</ele>
  <time>2016-07-27T17:34:00Z</time>
</trkpt>
<trkpt lat="49.966800000" lon="9.763770000">
  <ele>163.000000</ele>
  <time>2016-07-27T17:34:02Z</time>
</trkpt>
<trkpt lat="49.966710000" lon="9.763760000">
  <ele>163.000000</ele>
  <time>2016-07-27T17:34:04Z</time>
</trkpt>
<trkpt lat="49.966670000" lon="9.763760000">
  <ele>163.000000</ele>
  <time>2016-07-27T17:34:05Z</time>
</trkpt>
<trkpt lat="49.966590000" lon="9.763760000">
  <ele>163.000000</ele>
  <time>2016-07-27T17:34:07Z</time>
</trkpt>
<trkpt lat="49.966510000" lon="9.763760000">
  <ele>163.000000</ele>
  <time>2016-07-27T17:34:09Z</time>
</trkpt>
<trkpt lat="49.966440000" lon="9.763750000">
  <ele>163.000000</ele>
  <time>2016-07-27T17:34:11Z</time>
</trkpt>
<trkpt lat="49.966400000" lon="9.763740000">
  <ele>163.000000</ele>
  <time>2016-07-27T17:34:12Z</time>
</trkpt>
<trkpt lat="49.966330000" lon="9.763750000">
  <ele>163.000000</ele>
  <time>2016-07-27T17:34:14Z</time>
</trkpt>
<trkpt lat="49.966260000" lon="9.763770000">
  <ele>163.000000</ele>
  <time>2016-07-27T17:34:16Z</time>
</trkpt>
<trkpt lat="49.966210000" lon="9.763770000">
  <ele>163.000000</ele>
  <time>2016-07-27T17:34:17Z</time>
</trkpt>
<trkpt lat="49.966120000" lon="9.763750000">
  <ele>162.000000</ele>
  <time>2016-07-27T17:34:19Z</time>
</trkpt>
<trkpt lat="49.966040000" lon="9.763710000">
  <ele>162.000000</ele>
  <time>2016-07-27T17:34:21Z</time>
</trkpt>
<trkpt lat="49.965970000" lon="9.763680000">
  <ele>162.000000</ele>
  <time>2016-07-27T17:34:23Z</time>
</trkpt>
<trkpt lat="49.965900000" lon="9.763670000">
  <ele>162.000000</ele>
  <time>2016-07-27T17:34:25Z</time>
</trkpt>
<trkpt lat="49.965830000" lon="9.763650000">
  <ele>162.000000</ele>
  <time>2016-07-27T17:34:27Z</time>
</trkpt>
<trkpt lat="49.965750000" lon="9.763620000">
  <ele>162.000000</ele>
  <time>2016-07-27T17:34:29Z</time>
</trkpt>
<trkpt lat="49.965670000" lon="9.763590000">
  <ele>162.000000</ele>
  <time>2016-07-27T17:34:31Z</time>
</trkpt>
<trkpt lat="49.965590000" lon="9.763560000">
  <ele>162.000000</ele>
  <time>2016-07-27T17:34:33Z</time>
</trkpt>
<trkpt lat="49.965520000" lon="9.763540000">
  <ele>162.000000</ele>
  <time>2016-07-27T17:34:35Z</time>
</trkpt>
<trkpt lat="49.965450000" lon="9.763520000">
  <ele>162.000000</ele>
  <time>2016-07-27T17:34:37Z</time>
</trkpt>
<trkpt lat="49.965370000" lon="9.763490000">
  <ele>162.000000</ele>
  <time>2016-07-27T17:34:39Z</time>
</trkpt>
<trkpt lat="49.965300000" lon="9.763450000">
  <ele>163.000000</ele>
  <time>2016-07-27T17:34:41Z</time>
</trkpt>
<trkpt lat="49.965220000" lon="9.763410000">
  <ele>163.000000</ele>
  <time>2016-07-27T17:34:43Z</time>
</trkpt>
<trkpt lat="49.965150000" lon="9.763390000">
  <ele>163.000000</ele>
  <time>2016-07-27T17:34:45Z</time>
</trkpt>
<trkpt lat="49.965080000" lon="9.763380000">
  <ele>163.000000</ele>
  <time>2016-07-27T17:34:47Z</time>
</trkpt>
<trkpt lat="49.965000000" lon="9.763350000">
  <ele>163.000000</ele>
  <time>2016-07-27T17:34:49Z</time>
</trkpt>
<trkpt lat="49.964930000" lon="9.763330000">
  <ele>163.000000</ele>
  <time>2016-07-27T17:34:51Z</time>
</trkpt>
<trkpt lat="49.964850000" lon="9.763320000">
  <ele>163.000000</ele>
  <time>2016-07-27T17:34:53Z</time>
</trkpt>
<trkpt lat="49.964770000" lon="9.763300000">
  <ele>163.000000</ele>
  <time>2016-07-27T17:34:55Z</time>
</trkpt>
<trkpt lat="49.964690000" lon="9.763260000">
  <ele>163.000000</ele>
  <time>2016-07-27T17:34:57Z</time>
</trkpt>
<trkpt lat="49.964620000" lon="9.763220000">
  <ele>163.000000</ele>
  <time>2016-07-27T17:34:59Z</time>
</trkpt>
<trkpt lat="49.964560000" lon="9.763190000">
  <ele>163.000000</ele>
  <time>2016-07-27T17:35:01Z</time>
</trkpt>
<trkpt lat="49.964490000" lon="9.763170000">
  <ele>163.000000</ele>
  <time>2016-07-27T17:35:03Z</time>
</trkpt>
<trkpt lat="49.964420000" lon="9.763170000">
  <ele>163.000000</ele>
  <time>2016-07-27T17:35:05Z</time>
</trkpt>
<trkpt lat="49.964350000" lon="9.763140000">
  <ele>164.000000</ele>
  <time>2016-07-27T17:35:07Z</time>
</trkpt>
<trkpt lat="49.964280000" lon="9.763120000">
  <ele>164.000000</ele>
  <time>2016-07-27T17:35:09Z</time>
</trkpt>
<trkpt lat="49.964210000" lon="9.763110000">
  <ele>164.000000</ele>
  <time>2016-07-27T17:35:11Z</time>
</trkpt>
<trkpt lat="49.964150000" lon="9.763090000">
  <ele>164.000000</ele>
  <time>2016-07-27T17:35:13Z</time>
</trkpt>
<trkpt lat="49.964090000" lon="9.763100000">
  <ele>164.000000</ele>
  <time>2016-07-27T17:35:15Z</time>
</trkpt>
<trkpt lat="49.964020000" lon="9.763110000">
  <ele>164.000000</ele>
  <time>2016-07-27T17:35:17Z</time>
</trkpt>
<trkpt lat="49.963960000" lon="9.763150000">
  <ele>164.000000</ele>
  <time>2016-07-27T17:35:19Z</time>
</trkpt>
<trkpt lat="49.963950000" lon="9.763260000">
  <ele>164.000000</ele>
  <time>2016-07-27T17:35:21Z</time>
</trkpt>
<trkpt lat="49.963940000" lon="9.763360000">
  <ele>164.000000</ele>
  <time>2016-07-27T17:35:23Z</time>
</trkpt>
<trkpt lat="49.963930000" lon="9.763460000">
  <ele>164.000000</ele>
  <time>2016-07-27T17:35:25Z</time>
</trkpt>
<trkpt lat="49.963930000" lon="9.763590000">
  <ele>164.000000</ele>
  <time>2016-07-27T17:35:27Z</time>
</trkpt>
<trkpt lat="49.963940000" lon="9.763700000">
  <ele>164.000000</ele>
  <time>2016-07-27T17:35:29Z</time>
</trkpt>
<trkpt lat="49.963940000" lon="9.763810000">
  <ele>165.000000</ele>
  <time>2016-07-27T17:35:31Z</time>
</trkpt>
<trkpt lat="49.963950000" lon="9.763910000">
  <ele>165.000000</ele>
  <time>2016-07-27T17:35:33Z</time>
</trkpt>
<trkpt lat="49.963950000" lon="9.764020000">
  <ele>165.000000</ele>
  <time>2016-07-27T17:35:35Z</time>
</trkpt>
<trkpt lat="49.963940000" lon="9.764110000">
  <ele>165.000000</ele>
  <time>2016-07-27T17:35:37Z</time>
</trkpt>
<trkpt lat="49.963930000" lon="9.764190000">
  <ele>165.000000</ele>
  <time>2016-07-27T17:35:40Z</time>
</trkpt>
<trkpt lat="49.963950000" lon="9.764290000">
  <ele>165.000000</ele>
  <time>2016-07-27T17:35:44Z</time>
</trkpt>
<trkpt lat="49.963950000" lon="9.764380000">
  <ele>165.000000</ele>
  <time>2016-07-27T17:35:46Z</time>
</trkpt>
<trkpt lat="49.963950000" lon="9.764470000">
  <ele>165.000000</ele>
  <time>2016-07-27T17:35:48Z</time>
</trkpt>
<trkpt lat="49.963960000" lon="9.764560000">
  <ele>165.000000</ele>
  <time>2016-07-27T17:35:50Z</time>
</trkpt>
<trkpt lat="49.963990000" lon="9.764630000">
  <ele>165.000000</ele>
  <time>2016-07-27T17:35:52Z</time>
</trkpt>
<trkpt lat="49.964020000" lon="9.764700000">
  <ele>165.000000</ele>
  <time>2016-07-27T17:35:54Z</time>
</trkpt>
<trkpt lat="49.964020000" lon="9.764780000">
  <ele>166.000000</ele>
  <time>2016-07-27T17:35:56Z</time>
</trkpt>
<trkpt lat="49.964000000" lon="9.764860000">
  <ele>166.000000</ele>
  <time>2016-07-27T17:35:58Z</time>
</trkpt>
<trkpt lat="49.963990000" lon="9.764930000">
  <ele>166.000000</ele>
  <time>2016-07-27T17:36:00Z</time>
</trkpt>
<trkpt lat="49.963980000" lon="9.765020000">
  <ele>166.000000</ele>
  <time>2016-07-27T17:36:02Z</time>
</trkpt>
<trkpt lat="49.963990000" lon="9.765120000">
  <ele>166.000000</ele>
  <time>2016-07-27T17:36:04Z</time>
</trkpt>
<trkpt lat="49.964000000" lon="9.765230000">
  <ele>166.000000</ele>
  <time>2016-07-27T17:36:06Z</time>
</trkpt>
<trkpt lat="49.964010000" lon="9.765330000">
  <ele>166.000000</ele>
  <time>2016-07-27T17:36:08Z</time>
</trkpt>
<trkpt lat="49.964000000" lon="9.765420000">
  <ele>166.000000</ele>
  <time>2016-07-27T17:36:10Z</time>
</trkpt>
<trkpt lat="49.964010000" lon="9.765520000">
  <ele>166.000000</ele>
  <time>2016-07-27T17:36:12Z</time>
</trkpt>
<trkpt lat="49.964010000" lon="9.765620000">
  <ele>166.000000</ele>
  <time>2016-07-27T17:36:14Z</time>
</trkpt>
<trkpt lat="49.964000000" lon="9.765720000">
  <ele>166.000000</ele>
  <time>2016-07-27T17:36:16Z</time>
</trkpt>
<trkpt lat="49.963990000" lon="9.765820000">
  <ele>166.000000</ele>
  <time>2016-07-27T17:36:18Z</time>
</trkpt>
<trkpt lat="49.963990000" lon="9.765930000">
  <ele>166.000000</ele>
  <time>2016-07-27T17:36:20Z</time>
</trkpt>
<trkpt lat="49.963980000" lon="9.766040000">
  <ele>166.000000</ele>
  <time>2016-07-27T17:36:22Z</time>
</trkpt>
<trkpt lat="49.963960000" lon="9.766150000">
  <ele>166.000000</ele>
  <time>2016-07-27T17:36:24Z</time>
</trkpt>
<trkpt lat="49.963930000" lon="9.766250000">
  <ele>166.000000</ele>
  <time>2016-07-27T17:36:26Z</time>
</trkpt>
<trkpt lat="49.963910000" lon="9.766360000">
  <ele>165.000000</ele>
  <time>2016-07-27T17:36:28Z</time>
</trkpt>
<trkpt lat="49.963880000" lon="9.766460000">
  <ele>165.000000</ele>
  <time>2016-07-27T17:36:30Z</time>
</trkpt>
<trkpt lat="49.963850000" lon="9.766560000">
  <ele>165.000000</ele>
  <time>2016-07-27T17:36:32Z</time>
</trkpt>
<trkpt lat="49.963820000" lon="9.766660000">
  <ele>165.000000</ele>
  <time>2016-07-27T17:36:34Z</time>
</trkpt>
<trkpt lat="49.963790000" lon="9.766750000">
  <ele>165.000000</ele>
  <time>2016-07-27T17:36:36Z</time>
</trkpt>
<trkpt lat="49.963750000" lon="9.766830000">
  <ele>165.000000</ele>
  <time>2016-07-27T17:36:38Z</time>
</trkpt>
<trkpt lat="49.963720000" lon="9.766890000">
  <ele>165.000000</ele>
  <time>2016-07-27T17:36:40Z</time>
</trkpt>
<trkpt lat="49.963680000" lon="9.766950000">
  <ele>165.000000</ele>
  <time>2016-07-27T17:36:42Z</time>
</trkpt>
<trkpt lat="49.963640000" lon="9.767010000">
  <ele>169.000000</ele>
  <time>2016-07-27T17:36:44Z</time>
</trkpt>
<trkpt lat="49.963600000" lon="9.767070000">
  <ele>169.000000</ele>
  <time>2016-07-27T17:36:46Z</time>
</trkpt>
<trkpt lat="49.963560000" lon="9.767130000">
  <ele>169.000000</ele>
  <time>2016-07-27T17:36:48Z</time>
</trkpt>
<trkpt lat="49.963510000" lon="9.767180000">
  <ele>166.000000</ele>
  <time>2016-07-27T17:36:50Z</time>
</trkpt>
<trkpt lat="49.963460000" lon="9.767230000">
  <ele>166.000000</ele>
  <time>2016-07-27T17:36:52Z</time>
</trkpt>
<trkpt lat="49.963410000" lon="9.767270000">
  <ele>166.000000</ele>
  <time>2016-07-27T17:36:54Z</time>
</trkpt>
<trkpt lat="49.963370000" lon="9.767290000">
  <ele>166.000000</ele>
  <time>2016-07-27T17:36:56Z</time>
</trkpt>
<trkpt lat="49.963310000" lon="9.767320000">
  <ele>166.000000</ele>
  <time>2016-07-27T17:36:59Z</time>
</trkpt>
<trkpt lat="49.963260000" lon="9.767350000">
  <ele>166.000000</ele>
  <time>2016-07-27T17:37:01Z</time>
</trkpt>
<trkpt lat="49.963220000" lon="9.767380000">
  <ele>166.000000</ele>
  <time>2016-07-27T17:37:03Z</time>
</trkpt>
<trkpt lat="49.963180000" lon="9.767380000">
  <time>2016-07-27T17:37:14Z</time>
</trkpt>
</trkseg>
</trk>
</gpx>